<?xml version="1.0" encoding="UTF-8" standalone="no" ?>
<gpx xmlns="http://www.topografix.com/GPX/1/1" xmlns:xsi="http://www.w3.org/2001/XMLSchema-instance" xsi:schemaLocation="http://www.topografix.com/GPX/1/1 http://www.topografix.com/GPX/1/1/gpx.xsd" version="1.1" creator="VisuGPX - https://www.visugpx.com">
  <metadata>
    <name>Tournuscimes 2018 - VTT - 27km</name>
    <desc><![CDATA[File with points/tracks from Locus Map/3.33.1]]></desc>
  </metadata>
  <trk>
    <name><![CDATA[Tournuscime ]]></name>
    <trkseg>
      <trkpt lat="46.50794" lon="4.86704">
        <ele>-96.3</ele>
        <time>2018-10-21T07:38:24.000Z</time>
      </trkpt>
      <trkpt lat="46.50778" lon="4.86695">
        <ele>-96.07</ele>
        <time>2018-10-21T07:38:30.000Z</time>
      </trkpt>
      <trkpt lat="46.50814" lon="4.8673">
        <ele>-94.87</ele>
        <time>2018-10-21T07:38:35.000Z</time>
      </trkpt>
      <trkpt lat="46.50821" lon="4.86696">
        <ele>-95.62</ele>
        <time>2018-10-21T07:38:40.000Z</time>
      </trkpt>
      <trkpt lat="46.50823" lon="4.86649">
        <ele>-94.45</ele>
        <time>2018-10-21T07:38:45.000Z</time>
      </trkpt>
      <trkpt lat="46.50818" lon="4.86661">
        <ele>-65.09</ele>
        <time>2018-10-21T07:38:50.000Z</time>
      </trkpt>
      <trkpt lat="46.50803" lon="4.86628">
        <ele>-34.7</ele>
        <time>2018-10-21T07:38:55.000Z</time>
      </trkpt>
      <trkpt lat="46.50796" lon="4.86615">
        <ele>28.39</ele>
        <time>2018-10-21T07:39:08.000Z</time>
      </trkpt>
      <trkpt lat="46.50799" lon="4.86597">
        <ele>44.17</ele>
        <time>2018-10-21T07:39:17.000Z</time>
      </trkpt>
      <trkpt lat="46.5082" lon="4.86563">
        <ele>52.39</ele>
        <time>2018-10-21T07:39:22.000Z</time>
      </trkpt>
      <trkpt lat="46.50841" lon="4.86535">
        <ele>72.38</ele>
        <time>2018-10-21T07:39:27.000Z</time>
      </trkpt>
      <trkpt lat="46.50857" lon="4.86529">
        <ele>89.32</ele>
        <time>2018-10-21T07:39:32.000Z</time>
      </trkpt>
      <trkpt lat="46.50877" lon="4.86527">
        <ele>111.02</ele>
        <time>2018-10-21T07:39:37.000Z</time>
      </trkpt>
      <trkpt lat="46.50896" lon="4.86527">
        <ele>132.46</ele>
        <time>2018-10-21T07:39:42.000Z</time>
      </trkpt>
      <trkpt lat="46.50904" lon="4.86515">
        <ele>158.94</ele>
        <time>2018-10-21T07:39:59.000Z</time>
      </trkpt>
      <trkpt lat="46.5091" lon="4.86503">
        <ele>161.82</ele>
        <time>2018-10-21T07:40:39.000Z</time>
      </trkpt>
      <trkpt lat="46.50919" lon="4.86494">
        <ele>162.97</ele>
        <time>2018-10-21T07:40:45.000Z</time>
      </trkpt>
      <trkpt lat="46.50928" lon="4.86481">
        <ele>163.29</ele>
        <time>2018-10-21T07:40:50.000Z</time>
      </trkpt>
      <trkpt lat="46.50936" lon="4.86474">
        <ele>164.08</ele>
        <time>2018-10-21T07:40:55.000Z</time>
      </trkpt>
      <trkpt lat="46.50945" lon="4.86468">
        <ele>165.22</ele>
        <time>2018-10-21T07:41:00.000Z</time>
      </trkpt>
      <trkpt lat="46.50958" lon="4.86461">
        <ele>167.06</ele>
        <time>2018-10-21T07:41:05.000Z</time>
      </trkpt>
      <trkpt lat="46.50971" lon="4.86457">
        <ele>170.17</ele>
        <time>2018-10-21T07:41:10.000Z</time>
      </trkpt>
      <trkpt lat="46.50982" lon="4.86453">
        <ele>174.04</ele>
        <time>2018-10-21T07:41:15.000Z</time>
      </trkpt>
      <trkpt lat="46.50993" lon="4.86451">
        <ele>177.17</ele>
        <time>2018-10-21T07:41:20.000Z</time>
      </trkpt>
      <trkpt lat="46.51003" lon="4.8645">
        <ele>181.2</ele>
        <time>2018-10-21T07:41:27.000Z</time>
      </trkpt>
      <trkpt lat="46.51017" lon="4.86455">
        <ele>184.22</ele>
        <time>2018-10-21T07:41:32.000Z</time>
      </trkpt>
      <trkpt lat="46.51031" lon="4.86461">
        <ele>187.25</ele>
        <time>2018-10-21T07:41:37.000Z</time>
      </trkpt>
      <trkpt lat="46.51044" lon="4.86465">
        <ele>190.71</ele>
        <time>2018-10-21T07:41:42.000Z</time>
      </trkpt>
      <trkpt lat="46.51059" lon="4.86469">
        <ele>193.74</ele>
        <time>2018-10-21T07:41:47.000Z</time>
      </trkpt>
      <trkpt lat="46.51074" lon="4.86472">
        <ele>196.99</ele>
        <time>2018-10-21T07:41:52.000Z</time>
      </trkpt>
      <trkpt lat="46.51088" lon="4.86474">
        <ele>200.51</ele>
        <time>2018-10-21T07:41:57.000Z</time>
      </trkpt>
      <trkpt lat="46.511" lon="4.86478">
        <ele>203.26</ele>
        <time>2018-10-21T07:42:02.000Z</time>
      </trkpt>
      <trkpt lat="46.51113" lon="4.86479">
        <ele>206.73</ele>
        <time>2018-10-21T07:42:07.000Z</time>
      </trkpt>
      <trkpt lat="46.51124" lon="4.86483">
        <ele>209.7</ele>
        <time>2018-10-21T07:42:12.000Z</time>
      </trkpt>
      <trkpt lat="46.51133" lon="4.86487">
        <ele>212.57</ele>
        <time>2018-10-21T07:42:17.000Z</time>
      </trkpt>
      <trkpt lat="46.51143" lon="4.86492">
        <ele>216</ele>
        <time>2018-10-21T07:42:23.000Z</time>
      </trkpt>
      <trkpt lat="46.51156" lon="4.86488">
        <ele>216.09</ele>
        <time>2018-10-21T07:42:28.000Z</time>
      </trkpt>
      <trkpt lat="46.51166" lon="4.86492">
        <ele>218.58</ele>
        <time>2018-10-21T07:42:33.000Z</time>
      </trkpt>
      <trkpt lat="46.51175" lon="4.86497">
        <ele>221.12</ele>
        <time>2018-10-21T07:42:38.000Z</time>
      </trkpt>
      <trkpt lat="46.51185" lon="4.86494">
        <ele>225.67</ele>
        <time>2018-10-21T07:42:56.000Z</time>
      </trkpt>
      <trkpt lat="46.51197" lon="4.86499">
        <ele>226.33</ele>
        <time>2018-10-21T07:43:01.000Z</time>
      </trkpt>
      <trkpt lat="46.51209" lon="4.86507">
        <ele>227.65</ele>
        <time>2018-10-21T07:43:06.000Z</time>
      </trkpt>
      <trkpt lat="46.51221" lon="4.86516">
        <ele>229.1</ele>
        <time>2018-10-21T07:43:11.000Z</time>
      </trkpt>
      <trkpt lat="46.51233" lon="4.86524">
        <ele>230.44</ele>
        <time>2018-10-21T07:43:16.000Z</time>
      </trkpt>
      <trkpt lat="46.51246" lon="4.86529">
        <ele>231.22</ele>
        <time>2018-10-21T07:43:21.000Z</time>
      </trkpt>
      <trkpt lat="46.51256" lon="4.8653">
        <ele>230.49</ele>
        <time>2018-10-21T07:43:26.000Z</time>
      </trkpt>
      <trkpt lat="46.51265" lon="4.86536">
        <ele>229.28</ele>
        <time>2018-10-21T07:43:31.000Z</time>
      </trkpt>
      <trkpt lat="46.51275" lon="4.8654">
        <ele>229.05</ele>
        <time>2018-10-21T07:43:37.000Z</time>
      </trkpt>
      <trkpt lat="46.51285" lon="4.86543">
        <ele>228.79</ele>
        <time>2018-10-21T07:43:42.000Z</time>
      </trkpt>
      <trkpt lat="46.51296" lon="4.86546">
        <ele>226.34</ele>
        <time>2018-10-21T07:43:47.000Z</time>
      </trkpt>
      <trkpt lat="46.51306" lon="4.8655">
        <ele>224.12</ele>
        <time>2018-10-21T07:43:52.000Z</time>
      </trkpt>
      <trkpt lat="46.51316" lon="4.86554">
        <ele>222.39</ele>
        <time>2018-10-21T07:43:57.000Z</time>
      </trkpt>
      <trkpt lat="46.51328" lon="4.8656">
        <ele>221.56</ele>
        <time>2018-10-21T07:44:02.000Z</time>
      </trkpt>
      <trkpt lat="46.51338" lon="4.86562">
        <ele>224.74</ele>
        <time>2018-10-21T07:44:07.000Z</time>
      </trkpt>
      <trkpt lat="46.51348" lon="4.86563">
        <ele>227.23</ele>
        <time>2018-10-21T07:44:12.000Z</time>
      </trkpt>
      <trkpt lat="46.51357" lon="4.86564">
        <ele>229.12</ele>
        <time>2018-10-21T07:44:17.000Z</time>
      </trkpt>
      <trkpt lat="46.51366" lon="4.86565">
        <ele>231.77</ele>
        <time>2018-10-21T07:44:22.000Z</time>
      </trkpt>
      <trkpt lat="46.51376" lon="4.86565">
        <ele>231.01</ele>
        <time>2018-10-21T07:44:27.000Z</time>
      </trkpt>
      <trkpt lat="46.51385" lon="4.86572">
        <ele>231.33</ele>
        <time>2018-10-21T07:44:33.000Z</time>
      </trkpt>
      <trkpt lat="46.51394" lon="4.8658">
        <ele>233.02</ele>
        <time>2018-10-21T07:44:38.000Z</time>
      </trkpt>
      <trkpt lat="46.51403" lon="4.86586">
        <ele>233.7</ele>
        <time>2018-10-21T07:44:43.000Z</time>
      </trkpt>
      <trkpt lat="46.51412" lon="4.8659">
        <ele>234.47</ele>
        <time>2018-10-21T07:44:48.000Z</time>
      </trkpt>
      <trkpt lat="46.5142" lon="4.86595">
        <ele>236.22</ele>
        <time>2018-10-21T07:44:53.000Z</time>
      </trkpt>
      <trkpt lat="46.51429" lon="4.86599">
        <ele>236.21</ele>
        <time>2018-10-21T07:44:58.000Z</time>
      </trkpt>
      <trkpt lat="46.51439" lon="4.86603">
        <ele>234.14</ele>
        <time>2018-10-21T07:45:03.000Z</time>
      </trkpt>
      <trkpt lat="46.51448" lon="4.86607">
        <ele>232.04</ele>
        <time>2018-10-21T07:45:08.000Z</time>
      </trkpt>
      <trkpt lat="46.51457" lon="4.86611">
        <ele>231.15</ele>
        <time>2018-10-21T07:45:14.000Z</time>
      </trkpt>
      <trkpt lat="46.51465" lon="4.86617">
        <ele>230.74</ele>
        <time>2018-10-21T07:45:19.000Z</time>
      </trkpt>
      <trkpt lat="46.51474" lon="4.86624">
        <ele>232.76</ele>
        <time>2018-10-21T07:45:25.000Z</time>
      </trkpt>
      <trkpt lat="46.51482" lon="4.86633">
        <ele>234.65</ele>
        <time>2018-10-21T07:45:31.000Z</time>
      </trkpt>
      <trkpt lat="46.5149" lon="4.86642">
        <ele>237.21</ele>
        <time>2018-10-21T07:45:37.000Z</time>
      </trkpt>
      <trkpt lat="46.51499" lon="4.8665">
        <ele>238.12</ele>
        <time>2018-10-21T07:45:42.000Z</time>
      </trkpt>
      <trkpt lat="46.51508" lon="4.86659">
        <ele>238.23</ele>
        <time>2018-10-21T07:45:47.000Z</time>
      </trkpt>
      <trkpt lat="46.51518" lon="4.86667">
        <ele>238.75</ele>
        <time>2018-10-21T07:45:52.000Z</time>
      </trkpt>
      <trkpt lat="46.51529" lon="4.86674">
        <ele>237.86</ele>
        <time>2018-10-21T07:45:57.000Z</time>
      </trkpt>
      <trkpt lat="46.51539" lon="4.86684">
        <ele>236.61</ele>
        <time>2018-10-21T07:46:02.000Z</time>
      </trkpt>
      <trkpt lat="46.51548" lon="4.86694">
        <ele>237.21</ele>
        <time>2018-10-21T07:46:07.000Z</time>
      </trkpt>
      <trkpt lat="46.51561" lon="4.86707">
        <ele>237.41</ele>
        <time>2018-10-21T07:46:12.000Z</time>
      </trkpt>
      <trkpt lat="46.51574" lon="4.86719">
        <ele>237.23</ele>
        <time>2018-10-21T07:46:17.000Z</time>
      </trkpt>
      <trkpt lat="46.51589" lon="4.8673">
        <ele>237.52</ele>
        <time>2018-10-21T07:46:22.000Z</time>
      </trkpt>
      <trkpt lat="46.51606" lon="4.86742">
        <ele>237</ele>
        <time>2018-10-21T07:46:27.000Z</time>
      </trkpt>
      <trkpt lat="46.51622" lon="4.86752">
        <ele>234.86</ele>
        <time>2018-10-21T07:46:32.000Z</time>
      </trkpt>
      <trkpt lat="46.51635" lon="4.86762">
        <ele>233.96</ele>
        <time>2018-10-21T07:46:37.000Z</time>
      </trkpt>
      <trkpt lat="46.51648" lon="4.86772">
        <ele>235.33</ele>
        <time>2018-10-21T07:46:42.000Z</time>
      </trkpt>
      <trkpt lat="46.51661" lon="4.86783">
        <ele>235.88</ele>
        <time>2018-10-21T07:46:47.000Z</time>
      </trkpt>
      <trkpt lat="46.51673" lon="4.86792">
        <ele>236.42</ele>
        <time>2018-10-21T07:46:52.000Z</time>
      </trkpt>
      <trkpt lat="46.51683" lon="4.86801">
        <ele>240.61</ele>
        <time>2018-10-21T07:46:57.000Z</time>
      </trkpt>
      <trkpt lat="46.51699" lon="4.86816">
        <ele>240.89</ele>
        <time>2018-10-21T07:47:02.000Z</time>
      </trkpt>
      <trkpt lat="46.5172" lon="4.86828">
        <ele>243.03</ele>
        <time>2018-10-21T07:47:07.000Z</time>
      </trkpt>
      <trkpt lat="46.51735" lon="4.8684">
        <ele>241.54</ele>
        <time>2018-10-21T07:47:12.000Z</time>
      </trkpt>
      <trkpt lat="46.51744" lon="4.86859">
        <ele>240.26</ele>
        <time>2018-10-21T07:47:17.000Z</time>
      </trkpt>
      <trkpt lat="46.51751" lon="4.86878">
        <ele>241.36</ele>
        <time>2018-10-21T07:47:22.000Z</time>
      </trkpt>
      <trkpt lat="46.51759" lon="4.86895">
        <ele>242.47</ele>
        <time>2018-10-21T07:47:27.000Z</time>
      </trkpt>
      <trkpt lat="46.51765" lon="4.86908">
        <ele>242.04</ele>
        <time>2018-10-21T07:47:32.000Z</time>
      </trkpt>
      <trkpt lat="46.51771" lon="4.8692">
        <ele>242.4</ele>
        <time>2018-10-21T07:47:37.000Z</time>
      </trkpt>
      <trkpt lat="46.51779" lon="4.8693">
        <ele>241.5</ele>
        <time>2018-10-21T07:47:42.000Z</time>
      </trkpt>
      <trkpt lat="46.51792" lon="4.8693">
        <ele>242.28</ele>
        <time>2018-10-21T07:47:47.000Z</time>
      </trkpt>
      <trkpt lat="46.51808" lon="4.86926">
        <ele>242.81</ele>
        <time>2018-10-21T07:47:52.000Z</time>
      </trkpt>
      <trkpt lat="46.51823" lon="4.86924">
        <ele>243.67</ele>
        <time>2018-10-21T07:47:57.000Z</time>
      </trkpt>
      <trkpt lat="46.51836" lon="4.86915">
        <ele>242.53</ele>
        <time>2018-10-21T07:48:02.000Z</time>
      </trkpt>
      <trkpt lat="46.51846" lon="4.869">
        <ele>240.29</ele>
        <time>2018-10-21T07:48:07.000Z</time>
      </trkpt>
      <trkpt lat="46.51851" lon="4.86887">
        <ele>240.67</ele>
        <time>2018-10-21T07:48:12.000Z</time>
      </trkpt>
      <trkpt lat="46.51864" lon="4.86888">
        <ele>240.73</ele>
        <time>2018-10-21T07:48:17.000Z</time>
      </trkpt>
      <trkpt lat="46.51876" lon="4.86894">
        <ele>241.06</ele>
        <time>2018-10-21T07:48:22.000Z</time>
      </trkpt>
      <trkpt lat="46.51885" lon="4.86889">
        <ele>242.77</ele>
        <time>2018-10-21T07:48:28.000Z</time>
      </trkpt>
      <trkpt lat="46.51888" lon="4.86868">
        <ele>240.51</ele>
        <time>2018-10-21T07:48:33.000Z</time>
      </trkpt>
      <trkpt lat="46.51895" lon="4.86852">
        <ele>240.27</ele>
        <time>2018-10-21T07:48:38.000Z</time>
      </trkpt>
      <trkpt lat="46.51904" lon="4.86837">
        <ele>242.35</ele>
        <time>2018-10-21T07:48:43.000Z</time>
      </trkpt>
      <trkpt lat="46.51913" lon="4.86824">
        <ele>246.42</ele>
        <time>2018-10-21T07:48:48.000Z</time>
      </trkpt>
      <trkpt lat="46.51921" lon="4.8681">
        <ele>251.06</ele>
        <time>2018-10-21T07:48:53.000Z</time>
      </trkpt>
      <trkpt lat="46.51927" lon="4.86795">
        <ele>251.48</ele>
        <time>2018-10-21T07:48:58.000Z</time>
      </trkpt>
      <trkpt lat="46.51933" lon="4.86778">
        <ele>249.72</ele>
        <time>2018-10-21T07:49:03.000Z</time>
      </trkpt>
      <trkpt lat="46.51942" lon="4.8676">
        <ele>249.79</ele>
        <time>2018-10-21T07:49:08.000Z</time>
      </trkpt>
      <trkpt lat="46.51948" lon="4.86741">
        <ele>251.38</ele>
        <time>2018-10-21T07:49:13.000Z</time>
      </trkpt>
      <trkpt lat="46.51952" lon="4.86719">
        <ele>252.22</ele>
        <time>2018-10-21T07:49:18.000Z</time>
      </trkpt>
      <trkpt lat="46.51957" lon="4.867">
        <ele>252.99</ele>
        <time>2018-10-21T07:49:23.000Z</time>
      </trkpt>
      <trkpt lat="46.51964" lon="4.86684">
        <ele>253.85</ele>
        <time>2018-10-21T07:49:28.000Z</time>
      </trkpt>
      <trkpt lat="46.51972" lon="4.86673">
        <ele>256.48</ele>
        <time>2018-10-21T07:49:33.000Z</time>
      </trkpt>
      <trkpt lat="46.5198" lon="4.86659">
        <ele>258.64</ele>
        <time>2018-10-21T07:49:38.000Z</time>
      </trkpt>
      <trkpt lat="46.51985" lon="4.86645">
        <ele>260.6</ele>
        <time>2018-10-21T07:49:43.000Z</time>
      </trkpt>
      <trkpt lat="46.51992" lon="4.86629">
        <ele>261.18</ele>
        <time>2018-10-21T07:49:48.000Z</time>
      </trkpt>
      <trkpt lat="46.51997" lon="4.8661">
        <ele>260.7</ele>
        <time>2018-10-21T07:49:53.000Z</time>
      </trkpt>
      <trkpt lat="46.52002" lon="4.86592">
        <ele>260.6</ele>
        <time>2018-10-21T07:49:58.000Z</time>
      </trkpt>
      <trkpt lat="46.52007" lon="4.86575">
        <ele>260.96</ele>
        <time>2018-10-21T07:50:03.000Z</time>
      </trkpt>
      <trkpt lat="46.52012" lon="4.86559">
        <ele>261.83</ele>
        <time>2018-10-21T07:50:08.000Z</time>
      </trkpt>
      <trkpt lat="46.52015" lon="4.86543">
        <ele>263.02</ele>
        <time>2018-10-21T07:50:13.000Z</time>
      </trkpt>
      <trkpt lat="46.52016" lon="4.86527">
        <ele>262.66</ele>
        <time>2018-10-21T07:50:18.000Z</time>
      </trkpt>
      <trkpt lat="46.52018" lon="4.86514">
        <ele>259.53</ele>
        <time>2018-10-21T07:50:25.000Z</time>
      </trkpt>
      <trkpt lat="46.52028" lon="4.86518">
        <ele>255.61</ele>
        <time>2018-10-21T07:50:36.000Z</time>
      </trkpt>
      <trkpt lat="46.52037" lon="4.86528">
        <ele>254.84</ele>
        <time>2018-10-21T07:50:41.000Z</time>
      </trkpt>
      <trkpt lat="46.52045" lon="4.86541">
        <ele>256.04</ele>
        <time>2018-10-21T07:50:46.000Z</time>
      </trkpt>
      <trkpt lat="46.52052" lon="4.86552">
        <ele>257.55</ele>
        <time>2018-10-21T07:50:51.000Z</time>
      </trkpt>
      <trkpt lat="46.52062" lon="4.86562">
        <ele>258.08</ele>
        <time>2018-10-21T07:50:56.000Z</time>
      </trkpt>
      <trkpt lat="46.52071" lon="4.86572">
        <ele>259.55</ele>
        <time>2018-10-21T07:51:01.000Z</time>
      </trkpt>
      <trkpt lat="46.52079" lon="4.86579">
        <ele>261.1</ele>
        <time>2018-10-21T07:51:06.000Z</time>
      </trkpt>
      <trkpt lat="46.52089" lon="4.86584">
        <ele>259.66</ele>
        <time>2018-10-21T07:51:13.000Z</time>
      </trkpt>
      <trkpt lat="46.52099" lon="4.86591">
        <ele>257.83</ele>
        <time>2018-10-21T07:51:18.000Z</time>
      </trkpt>
      <trkpt lat="46.52111" lon="4.86599">
        <ele>256.35</ele>
        <time>2018-10-21T07:51:23.000Z</time>
      </trkpt>
      <trkpt lat="46.52119" lon="4.86608">
        <ele>256.6</ele>
        <time>2018-10-21T07:51:28.000Z</time>
      </trkpt>
      <trkpt lat="46.52129" lon="4.86611">
        <ele>262.2</ele>
        <time>2018-10-21T07:52:46.000Z</time>
      </trkpt>
      <trkpt lat="46.5214" lon="4.86596">
        <ele>265.46</ele>
        <time>2018-10-21T07:52:51.000Z</time>
      </trkpt>
      <trkpt lat="46.52148" lon="4.86582">
        <ele>266.81</ele>
        <time>2018-10-21T07:52:56.000Z</time>
      </trkpt>
      <trkpt lat="46.52155" lon="4.86564">
        <ele>266.04</ele>
        <time>2018-10-21T07:53:01.000Z</time>
      </trkpt>
      <trkpt lat="46.52161" lon="4.86547">
        <ele>267.1</ele>
        <time>2018-10-21T07:53:06.000Z</time>
      </trkpt>
      <trkpt lat="46.52167" lon="4.86532">
        <ele>267.26</ele>
        <time>2018-10-21T07:53:11.000Z</time>
      </trkpt>
      <trkpt lat="46.52175" lon="4.86516">
        <ele>268.05</ele>
        <time>2018-10-21T07:53:16.000Z</time>
      </trkpt>
      <trkpt lat="46.52179" lon="4.86501">
        <ele>269.75</ele>
        <time>2018-10-21T07:53:21.000Z</time>
      </trkpt>
      <trkpt lat="46.52181" lon="4.86488">
        <ele>270.31</ele>
        <time>2018-10-21T07:53:26.000Z</time>
      </trkpt>
      <trkpt lat="46.52181" lon="4.86473">
        <ele>267.28</ele>
        <time>2018-10-21T07:53:31.000Z</time>
      </trkpt>
      <trkpt lat="46.52185" lon="4.86459">
        <ele>264.8</ele>
        <time>2018-10-21T07:53:37.000Z</time>
      </trkpt>
      <trkpt lat="46.52189" lon="4.86444">
        <ele>268.19</ele>
        <time>2018-10-21T07:53:43.000Z</time>
      </trkpt>
      <trkpt lat="46.52193" lon="4.86429">
        <ele>267.54</ele>
        <time>2018-10-21T07:53:48.000Z</time>
      </trkpt>
      <trkpt lat="46.52202" lon="4.86434">
        <ele>270.5</ele>
        <time>2018-10-21T07:54:28.000Z</time>
      </trkpt>
      <trkpt lat="46.52213" lon="4.86439">
        <ele>272.34</ele>
        <time>2018-10-21T07:54:33.000Z</time>
      </trkpt>
      <trkpt lat="46.52225" lon="4.86444">
        <ele>277.6</ele>
        <time>2018-10-21T07:54:38.000Z</time>
      </trkpt>
      <trkpt lat="46.5224" lon="4.86449">
        <ele>280.38</ele>
        <time>2018-10-21T07:54:43.000Z</time>
      </trkpt>
      <trkpt lat="46.52257" lon="4.86455">
        <ele>279.01</ele>
        <time>2018-10-21T07:54:48.000Z</time>
      </trkpt>
      <trkpt lat="46.52277" lon="4.86463">
        <ele>275.32</ele>
        <time>2018-10-21T07:54:53.000Z</time>
      </trkpt>
      <trkpt lat="46.52292" lon="4.86475">
        <ele>276.32</ele>
        <time>2018-10-21T07:54:58.000Z</time>
      </trkpt>
      <trkpt lat="46.52312" lon="4.86488">
        <ele>275.58</ele>
        <time>2018-10-21T07:55:03.000Z</time>
      </trkpt>
      <trkpt lat="46.52332" lon="4.86495">
        <ele>272.79</ele>
        <time>2018-10-21T07:55:08.000Z</time>
      </trkpt>
      <trkpt lat="46.52345" lon="4.865">
        <ele>273.55</ele>
        <time>2018-10-21T07:55:13.000Z</time>
      </trkpt>
      <trkpt lat="46.52356" lon="4.86505">
        <ele>276.41</ele>
        <time>2018-10-21T07:55:18.000Z</time>
      </trkpt>
      <trkpt lat="46.5237" lon="4.86511">
        <ele>276.11</ele>
        <time>2018-10-21T07:55:23.000Z</time>
      </trkpt>
      <trkpt lat="46.52388" lon="4.86527">
        <ele>275.36</ele>
        <time>2018-10-21T07:55:28.000Z</time>
      </trkpt>
      <trkpt lat="46.52405" lon="4.86545">
        <ele>275.21</ele>
        <time>2018-10-21T07:55:33.000Z</time>
      </trkpt>
      <trkpt lat="46.52421" lon="4.86567">
        <ele>274.03</ele>
        <time>2018-10-21T07:55:38.000Z</time>
      </trkpt>
      <trkpt lat="46.52447" lon="4.86594">
        <ele>273.64</ele>
        <time>2018-10-21T07:55:43.000Z</time>
      </trkpt>
      <trkpt lat="46.52473" lon="4.86604">
        <ele>273.67</ele>
        <time>2018-10-21T07:55:48.000Z</time>
      </trkpt>
      <trkpt lat="46.52499" lon="4.86603">
        <ele>273.42</ele>
        <time>2018-10-21T07:55:53.000Z</time>
      </trkpt>
      <trkpt lat="46.52522" lon="4.86604">
        <ele>273.79</ele>
        <time>2018-10-21T07:55:58.000Z</time>
      </trkpt>
      <trkpt lat="46.52543" lon="4.86603">
        <ele>273.55</ele>
        <time>2018-10-21T07:56:03.000Z</time>
      </trkpt>
      <trkpt lat="46.52561" lon="4.86603">
        <ele>273.54</ele>
        <time>2018-10-21T07:56:08.000Z</time>
      </trkpt>
      <trkpt lat="46.52576" lon="4.86604">
        <ele>272.48</ele>
        <time>2018-10-21T07:56:13.000Z</time>
      </trkpt>
      <trkpt lat="46.52591" lon="4.86608">
        <ele>271.8</ele>
        <time>2018-10-21T07:56:18.000Z</time>
      </trkpt>
      <trkpt lat="46.52604" lon="4.86611">
        <ele>272.25</ele>
        <time>2018-10-21T07:56:23.000Z</time>
      </trkpt>
      <trkpt lat="46.52616" lon="4.86611">
        <ele>273.08</ele>
        <time>2018-10-21T07:56:28.000Z</time>
      </trkpt>
      <trkpt lat="46.52629" lon="4.86613">
        <ele>273.76</ele>
        <time>2018-10-21T07:56:33.000Z</time>
      </trkpt>
      <trkpt lat="46.5264" lon="4.86613">
        <ele>274.83</ele>
        <time>2018-10-21T07:56:38.000Z</time>
      </trkpt>
      <trkpt lat="46.52653" lon="4.86612">
        <ele>275.38</ele>
        <time>2018-10-21T07:56:43.000Z</time>
      </trkpt>
      <trkpt lat="46.52664" lon="4.86611">
        <ele>276.03</ele>
        <time>2018-10-21T07:56:48.000Z</time>
      </trkpt>
      <trkpt lat="46.52675" lon="4.86613">
        <ele>277.22</ele>
        <time>2018-10-21T07:56:53.000Z</time>
      </trkpt>
      <trkpt lat="46.52685" lon="4.86613">
        <ele>278.48</ele>
        <time>2018-10-21T07:56:58.000Z</time>
      </trkpt>
      <trkpt lat="46.527" lon="4.86615">
        <ele>279.54</ele>
        <time>2018-10-21T07:57:03.000Z</time>
      </trkpt>
      <trkpt lat="46.52714" lon="4.86616">
        <ele>281.43</ele>
        <time>2018-10-21T07:57:08.000Z</time>
      </trkpt>
      <trkpt lat="46.5273" lon="4.86614">
        <ele>283.58</ele>
        <time>2018-10-21T07:57:13.000Z</time>
      </trkpt>
      <trkpt lat="46.52746" lon="4.86612">
        <ele>285.22</ele>
        <time>2018-10-21T07:57:18.000Z</time>
      </trkpt>
      <trkpt lat="46.52759" lon="4.86611">
        <ele>287.84</ele>
        <time>2018-10-21T07:57:23.000Z</time>
      </trkpt>
      <trkpt lat="46.52772" lon="4.86612">
        <ele>290.25</ele>
        <time>2018-10-21T07:57:28.000Z</time>
      </trkpt>
      <trkpt lat="46.52784" lon="4.86614">
        <ele>292.41</ele>
        <time>2018-10-21T07:57:33.000Z</time>
      </trkpt>
      <trkpt lat="46.52797" lon="4.86613">
        <ele>293.92</ele>
        <time>2018-10-21T07:57:38.000Z</time>
      </trkpt>
      <trkpt lat="46.52811" lon="4.86614">
        <ele>295.35</ele>
        <time>2018-10-21T07:57:43.000Z</time>
      </trkpt>
      <trkpt lat="46.52827" lon="4.86608">
        <ele>297.5</ele>
        <time>2018-10-21T07:57:48.000Z</time>
      </trkpt>
      <trkpt lat="46.5284" lon="4.86608">
        <ele>299.22</ele>
        <time>2018-10-21T07:57:53.000Z</time>
      </trkpt>
      <trkpt lat="46.52854" lon="4.86606">
        <ele>300.99</ele>
        <time>2018-10-21T07:57:58.000Z</time>
      </trkpt>
      <trkpt lat="46.52868" lon="4.86606">
        <ele>302.28</ele>
        <time>2018-10-21T07:58:03.000Z</time>
      </trkpt>
      <trkpt lat="46.52882" lon="4.86607">
        <ele>303.23</ele>
        <time>2018-10-21T07:58:08.000Z</time>
      </trkpt>
      <trkpt lat="46.52896" lon="4.86605">
        <ele>304.99</ele>
        <time>2018-10-21T07:58:13.000Z</time>
      </trkpt>
      <trkpt lat="46.52911" lon="4.86604">
        <ele>307.06</ele>
        <time>2018-10-21T07:58:18.000Z</time>
      </trkpt>
      <trkpt lat="46.52927" lon="4.86603">
        <ele>308.44</ele>
        <time>2018-10-21T07:58:23.000Z</time>
      </trkpt>
      <trkpt lat="46.52941" lon="4.86601">
        <ele>309.5</ele>
        <time>2018-10-21T07:58:28.000Z</time>
      </trkpt>
      <trkpt lat="46.52955" lon="4.86598">
        <ele>310.17</ele>
        <time>2018-10-21T07:58:33.000Z</time>
      </trkpt>
      <trkpt lat="46.52969" lon="4.86595">
        <ele>311.19</ele>
        <time>2018-10-21T07:58:38.000Z</time>
      </trkpt>
      <trkpt lat="46.52982" lon="4.86593">
        <ele>312.6</ele>
        <time>2018-10-21T07:58:43.000Z</time>
      </trkpt>
      <trkpt lat="46.52996" lon="4.8659">
        <ele>314.32</ele>
        <time>2018-10-21T07:58:48.000Z</time>
      </trkpt>
      <trkpt lat="46.53009" lon="4.86593">
        <ele>316.36</ele>
        <time>2018-10-21T07:58:53.000Z</time>
      </trkpt>
      <trkpt lat="46.53023" lon="4.86597">
        <ele>318.37</ele>
        <time>2018-10-21T07:58:58.000Z</time>
      </trkpt>
      <trkpt lat="46.53038" lon="4.86602">
        <ele>320.02</ele>
        <time>2018-10-21T07:59:03.000Z</time>
      </trkpt>
      <trkpt lat="46.53051" lon="4.86605">
        <ele>321.25</ele>
        <time>2018-10-21T07:59:08.000Z</time>
      </trkpt>
      <trkpt lat="46.53065" lon="4.86608">
        <ele>322.9</ele>
        <time>2018-10-21T07:59:13.000Z</time>
      </trkpt>
      <trkpt lat="46.5308" lon="4.86613">
        <ele>324.91</ele>
        <time>2018-10-21T07:59:18.000Z</time>
      </trkpt>
      <trkpt lat="46.53095" lon="4.86617">
        <ele>327.08</ele>
        <time>2018-10-21T07:59:23.000Z</time>
      </trkpt>
      <trkpt lat="46.53112" lon="4.86618">
        <ele>328.98</ele>
        <time>2018-10-21T07:59:28.000Z</time>
      </trkpt>
      <trkpt lat="46.5313" lon="4.86617">
        <ele>331.45</ele>
        <time>2018-10-21T07:59:33.000Z</time>
      </trkpt>
      <trkpt lat="46.53144" lon="4.86614">
        <ele>333.71</ele>
        <time>2018-10-21T07:59:38.000Z</time>
      </trkpt>
      <trkpt lat="46.53164" lon="4.86612">
        <ele>335.06</ele>
        <time>2018-10-21T07:59:43.000Z</time>
      </trkpt>
      <trkpt lat="46.53185" lon="4.8661">
        <ele>336.5</ele>
        <time>2018-10-21T07:59:48.000Z</time>
      </trkpt>
      <trkpt lat="46.53204" lon="4.86611">
        <ele>338.29</ele>
        <time>2018-10-21T07:59:53.000Z</time>
      </trkpt>
      <trkpt lat="46.53223" lon="4.86616">
        <ele>340.38</ele>
        <time>2018-10-21T07:59:58.000Z</time>
      </trkpt>
      <trkpt lat="46.53244" lon="4.86619">
        <ele>342.42</ele>
        <time>2018-10-21T08:00:03.000Z</time>
      </trkpt>
      <trkpt lat="46.53271" lon="4.8662">
        <ele>343.39</ele>
        <time>2018-10-21T08:00:08.000Z</time>
      </trkpt>
      <trkpt lat="46.53294" lon="4.86625">
        <ele>344.43</ele>
        <time>2018-10-21T08:00:13.000Z</time>
      </trkpt>
      <trkpt lat="46.53315" lon="4.86629">
        <ele>345.93</ele>
        <time>2018-10-21T08:00:18.000Z</time>
      </trkpt>
      <trkpt lat="46.53333" lon="4.86632">
        <ele>347.43</ele>
        <time>2018-10-21T08:00:23.000Z</time>
      </trkpt>
      <trkpt lat="46.5335" lon="4.86633">
        <ele>348.66</ele>
        <time>2018-10-21T08:00:28.000Z</time>
      </trkpt>
      <trkpt lat="46.53372" lon="4.86641">
        <ele>350.14</ele>
        <time>2018-10-21T08:00:33.000Z</time>
      </trkpt>
      <trkpt lat="46.53394" lon="4.86647">
        <ele>351.63</ele>
        <time>2018-10-21T08:00:38.000Z</time>
      </trkpt>
      <trkpt lat="46.5342" lon="4.86655">
        <ele>352.36</ele>
        <time>2018-10-21T08:00:43.000Z</time>
      </trkpt>
      <trkpt lat="46.53443" lon="4.86667">
        <ele>353.34</ele>
        <time>2018-10-21T08:00:48.000Z</time>
      </trkpt>
      <trkpt lat="46.53466" lon="4.8668">
        <ele>354.53</ele>
        <time>2018-10-21T08:00:53.000Z</time>
      </trkpt>
      <trkpt lat="46.53488" lon="4.86691">
        <ele>355.56</ele>
        <time>2018-10-21T08:00:58.000Z</time>
      </trkpt>
      <trkpt lat="46.5351" lon="4.86699">
        <ele>356.58</ele>
        <time>2018-10-21T08:01:03.000Z</time>
      </trkpt>
      <trkpt lat="46.53536" lon="4.86707">
        <ele>356.8</ele>
        <time>2018-10-21T08:01:08.000Z</time>
      </trkpt>
      <trkpt lat="46.53561" lon="4.86713">
        <ele>356.98</ele>
        <time>2018-10-21T08:01:13.000Z</time>
      </trkpt>
      <trkpt lat="46.53587" lon="4.86719">
        <ele>357.39</ele>
        <time>2018-10-21T08:01:18.000Z</time>
      </trkpt>
      <trkpt lat="46.53612" lon="4.86725">
        <ele>357.99</ele>
        <time>2018-10-21T08:01:23.000Z</time>
      </trkpt>
      <trkpt lat="46.53635" lon="4.86728">
        <ele>358.38</ele>
        <time>2018-10-21T08:01:28.000Z</time>
      </trkpt>
      <trkpt lat="46.53652" lon="4.86731">
        <ele>359.34</ele>
        <time>2018-10-21T08:01:33.000Z</time>
      </trkpt>
      <trkpt lat="46.53669" lon="4.86734">
        <ele>360.56</ele>
        <time>2018-10-21T08:01:38.000Z</time>
      </trkpt>
      <trkpt lat="46.53685" lon="4.86736">
        <ele>361.74</ele>
        <time>2018-10-21T08:01:43.000Z</time>
      </trkpt>
      <trkpt lat="46.53703" lon="4.86738">
        <ele>363.25</ele>
        <time>2018-10-21T08:01:48.000Z</time>
      </trkpt>
      <trkpt lat="46.53717" lon="4.8674">
        <ele>365</ele>
        <time>2018-10-21T08:01:53.000Z</time>
      </trkpt>
      <trkpt lat="46.53731" lon="4.86745">
        <ele>366.58</ele>
        <time>2018-10-21T08:01:58.000Z</time>
      </trkpt>
      <trkpt lat="46.53744" lon="4.86749">
        <ele>368.19</ele>
        <time>2018-10-21T08:02:03.000Z</time>
      </trkpt>
      <trkpt lat="46.53758" lon="4.86751">
        <ele>370.76</ele>
        <time>2018-10-21T08:02:08.000Z</time>
      </trkpt>
      <trkpt lat="46.53779" lon="4.86749">
        <ele>372.29</ele>
        <time>2018-10-21T08:02:13.000Z</time>
      </trkpt>
      <trkpt lat="46.53796" lon="4.86748">
        <ele>373.36</ele>
        <time>2018-10-21T08:02:18.000Z</time>
      </trkpt>
      <trkpt lat="46.53812" lon="4.86758">
        <ele>374.84</ele>
        <time>2018-10-21T08:02:23.000Z</time>
      </trkpt>
      <trkpt lat="46.53833" lon="4.86774">
        <ele>374.63</ele>
        <time>2018-10-21T08:02:28.000Z</time>
      </trkpt>
      <trkpt lat="46.53854" lon="4.86792">
        <ele>374.31</ele>
        <time>2018-10-21T08:02:33.000Z</time>
      </trkpt>
      <trkpt lat="46.53875" lon="4.868">
        <ele>373.1</ele>
        <time>2018-10-21T08:02:38.000Z</time>
      </trkpt>
      <trkpt lat="46.53894" lon="4.8679">
        <ele>370.58</ele>
        <time>2018-10-21T08:02:43.000Z</time>
      </trkpt>
      <trkpt lat="46.53908" lon="4.86777">
        <ele>369.94</ele>
        <time>2018-10-21T08:02:48.000Z</time>
      </trkpt>
      <trkpt lat="46.53926" lon="4.86755">
        <ele>369.12</ele>
        <time>2018-10-21T08:02:53.000Z</time>
      </trkpt>
      <trkpt lat="46.53941" lon="4.86719">
        <ele>368.41</ele>
        <time>2018-10-21T08:02:58.000Z</time>
      </trkpt>
      <trkpt lat="46.53951" lon="4.86688">
        <ele>368.65</ele>
        <time>2018-10-21T08:03:03.000Z</time>
      </trkpt>
      <trkpt lat="46.53959" lon="4.8666">
        <ele>368.18</ele>
        <time>2018-10-21T08:03:08.000Z</time>
      </trkpt>
      <trkpt lat="46.53966" lon="4.86626">
        <ele>368.15</ele>
        <time>2018-10-21T08:03:13.000Z</time>
      </trkpt>
      <trkpt lat="46.53971" lon="4.866">
        <ele>367.56</ele>
        <time>2018-10-21T08:03:18.000Z</time>
      </trkpt>
      <trkpt lat="46.53993" lon="4.8656">
        <ele>367.42</ele>
        <time>2018-10-21T08:03:23.000Z</time>
      </trkpt>
      <trkpt lat="46.54004" lon="4.86516">
        <ele>367.61</ele>
        <time>2018-10-21T08:03:28.000Z</time>
      </trkpt>
      <trkpt lat="46.54014" lon="4.86294">
        <ele>365.76</ele>
        <time>2018-10-21T08:03:36.000Z</time>
      </trkpt>
      <trkpt lat="46.54059" lon="4.86439">
        <ele>362.96</ele>
        <time>2018-10-21T08:03:41.000Z</time>
      </trkpt>
      <trkpt lat="46.54075" lon="4.86437">
        <ele>360.57</ele>
        <time>2018-10-21T08:03:46.000Z</time>
      </trkpt>
      <trkpt lat="46.54082" lon="4.86421">
        <ele>359.96</ele>
        <time>2018-10-21T08:03:51.000Z</time>
      </trkpt>
      <trkpt lat="46.54088" lon="4.86397">
        <ele>359.98</ele>
        <time>2018-10-21T08:03:56.000Z</time>
      </trkpt>
      <trkpt lat="46.54093" lon="4.86381">
        <ele>361.16</ele>
        <time>2018-10-21T08:04:01.000Z</time>
      </trkpt>
      <trkpt lat="46.54103" lon="4.86358">
        <ele>361.07</ele>
        <time>2018-10-21T08:04:06.000Z</time>
      </trkpt>
      <trkpt lat="46.54114" lon="4.86334">
        <ele>360.28</ele>
        <time>2018-10-21T08:04:11.000Z</time>
      </trkpt>
      <trkpt lat="46.54122" lon="4.8631">
        <ele>359.87</ele>
        <time>2018-10-21T08:04:16.000Z</time>
      </trkpt>
      <trkpt lat="46.54129" lon="4.8629">
        <ele>359.86</ele>
        <time>2018-10-21T08:04:21.000Z</time>
      </trkpt>
      <trkpt lat="46.54145" lon="4.86268">
        <ele>358.14</ele>
        <time>2018-10-21T08:04:26.000Z</time>
      </trkpt>
      <trkpt lat="46.54156" lon="4.86249">
        <ele>358.63</ele>
        <time>2018-10-21T08:04:31.000Z</time>
      </trkpt>
      <trkpt lat="46.54167" lon="4.86238">
        <ele>359.35</ele>
        <time>2018-10-21T08:04:36.000Z</time>
      </trkpt>
      <trkpt lat="46.54176" lon="4.86228">
        <ele>360.41</ele>
        <time>2018-10-21T08:04:41.000Z</time>
      </trkpt>
      <trkpt lat="46.54185" lon="4.86219">
        <ele>361.18</ele>
        <time>2018-10-21T08:04:47.000Z</time>
      </trkpt>
      <trkpt lat="46.54195" lon="4.86209">
        <ele>362.24</ele>
        <time>2018-10-21T08:04:52.000Z</time>
      </trkpt>
      <trkpt lat="46.54202" lon="4.86196">
        <ele>363.91</ele>
        <time>2018-10-21T08:04:57.000Z</time>
      </trkpt>
      <trkpt lat="46.54206" lon="4.86179">
        <ele>366.18</ele>
        <time>2018-10-21T08:05:02.000Z</time>
      </trkpt>
      <trkpt lat="46.54213" lon="4.86132">
        <ele>366.86</ele>
        <time>2018-10-21T08:05:07.000Z</time>
      </trkpt>
      <trkpt lat="46.54226" lon="4.86093">
        <ele>367.49</ele>
        <time>2018-10-21T08:05:12.000Z</time>
      </trkpt>
      <trkpt lat="46.54233" lon="4.86063">
        <ele>369.45</ele>
        <time>2018-10-21T08:05:17.000Z</time>
      </trkpt>
      <trkpt lat="46.54239" lon="4.86042">
        <ele>371.86</ele>
        <time>2018-10-21T08:05:22.000Z</time>
      </trkpt>
      <trkpt lat="46.54249" lon="4.86011">
        <ele>373.44</ele>
        <time>2018-10-21T08:05:27.000Z</time>
      </trkpt>
      <trkpt lat="46.54253" lon="4.85979">
        <ele>374.6</ele>
        <time>2018-10-21T08:05:32.000Z</time>
      </trkpt>
      <trkpt lat="46.54256" lon="4.85948">
        <ele>375.43</ele>
        <time>2018-10-21T08:05:37.000Z</time>
      </trkpt>
      <trkpt lat="46.54264" lon="4.85915">
        <ele>378.53</ele>
        <time>2018-10-21T08:05:42.000Z</time>
      </trkpt>
      <trkpt lat="46.54268" lon="4.85886">
        <ele>380.55</ele>
        <time>2018-10-21T08:05:47.000Z</time>
      </trkpt>
      <trkpt lat="46.54277" lon="4.85848">
        <ele>382.53</ele>
        <time>2018-10-21T08:05:52.000Z</time>
      </trkpt>
      <trkpt lat="46.5428" lon="4.85824">
        <ele>383.48</ele>
        <time>2018-10-21T08:05:57.000Z</time>
      </trkpt>
      <trkpt lat="46.5428" lon="4.85797">
        <ele>384.51</ele>
        <time>2018-10-21T08:06:02.000Z</time>
      </trkpt>
      <trkpt lat="46.54284" lon="4.85783">
        <ele>386.31</ele>
        <time>2018-10-21T08:06:07.000Z</time>
      </trkpt>
      <trkpt lat="46.54298" lon="4.85771">
        <ele>386.67</ele>
        <time>2018-10-21T08:06:12.000Z</time>
      </trkpt>
      <trkpt lat="46.54303" lon="4.85756">
        <ele>386.12</ele>
        <time>2018-10-21T08:06:18.000Z</time>
      </trkpt>
      <trkpt lat="46.54315" lon="4.85747">
        <ele>386.86</ele>
        <time>2018-10-21T08:06:23.000Z</time>
      </trkpt>
      <trkpt lat="46.54341" lon="4.85737">
        <ele>387.7</ele>
        <time>2018-10-21T08:06:28.000Z</time>
      </trkpt>
      <trkpt lat="46.54364" lon="4.85727">
        <ele>388.72</ele>
        <time>2018-10-21T08:06:33.000Z</time>
      </trkpt>
      <trkpt lat="46.54385" lon="4.85733">
        <ele>390.81</ele>
        <time>2018-10-21T08:06:38.000Z</time>
      </trkpt>
      <trkpt lat="46.54406" lon="4.85734">
        <ele>392.8</ele>
        <time>2018-10-21T08:06:43.000Z</time>
      </trkpt>
      <trkpt lat="46.5443" lon="4.85734">
        <ele>393.96</ele>
        <time>2018-10-21T08:06:48.000Z</time>
      </trkpt>
      <trkpt lat="46.54446" lon="4.85731">
        <ele>394.28</ele>
        <time>2018-10-21T08:06:53.000Z</time>
      </trkpt>
      <trkpt lat="46.54467" lon="4.85717">
        <ele>393.93</ele>
        <time>2018-10-21T08:06:58.000Z</time>
      </trkpt>
      <trkpt lat="46.54485" lon="4.85678">
        <ele>392.03</ele>
        <time>2018-10-21T08:07:03.000Z</time>
      </trkpt>
      <trkpt lat="46.545" lon="4.85643">
        <ele>389.29</ele>
        <time>2018-10-21T08:07:08.000Z</time>
      </trkpt>
      <trkpt lat="46.54507" lon="4.85596">
        <ele>385.72</ele>
        <time>2018-10-21T08:07:13.000Z</time>
      </trkpt>
      <trkpt lat="46.54508" lon="4.85549">
        <ele>378.32</ele>
        <time>2018-10-21T08:07:18.000Z</time>
      </trkpt>
      <trkpt lat="46.54499" lon="4.8553">
        <ele>372.42</ele>
        <time>2018-10-21T08:07:23.000Z</time>
      </trkpt>
      <trkpt lat="46.54491" lon="4.8549">
        <ele>367.69</ele>
        <time>2018-10-21T08:07:28.000Z</time>
      </trkpt>
      <trkpt lat="46.54481" lon="4.85449">
        <ele>362.81</ele>
        <time>2018-10-21T08:07:33.000Z</time>
      </trkpt>
      <trkpt lat="46.54498" lon="4.85423">
        <ele>354.48</ele>
        <time>2018-10-21T08:07:38.000Z</time>
      </trkpt>
      <trkpt lat="46.5451" lon="4.85409">
        <ele>350.6</ele>
        <time>2018-10-21T08:07:43.000Z</time>
      </trkpt>
      <trkpt lat="46.54515" lon="4.85397">
        <ele>348.01</ele>
        <time>2018-10-21T08:07:48.000Z</time>
      </trkpt>
      <trkpt lat="46.54514" lon="4.85373">
        <ele>344.92</ele>
        <time>2018-10-21T08:07:53.000Z</time>
      </trkpt>
      <trkpt lat="46.54503" lon="4.85339">
        <ele>340.81</ele>
        <time>2018-10-21T08:07:58.000Z</time>
      </trkpt>
      <trkpt lat="46.54486" lon="4.85299">
        <ele>337.56</ele>
        <time>2018-10-21T08:08:03.000Z</time>
      </trkpt>
      <trkpt lat="46.54466" lon="4.85262">
        <ele>335.06</ele>
        <time>2018-10-21T08:08:08.000Z</time>
      </trkpt>
      <trkpt lat="46.54445" lon="4.85228">
        <ele>330.18</ele>
        <time>2018-10-21T08:08:13.000Z</time>
      </trkpt>
      <trkpt lat="46.54424" lon="4.85201">
        <ele>327.75</ele>
        <time>2018-10-21T08:08:18.000Z</time>
      </trkpt>
      <trkpt lat="46.544" lon="4.85172">
        <ele>325.97</ele>
        <time>2018-10-21T08:08:23.000Z</time>
      </trkpt>
      <trkpt lat="46.54381" lon="4.8515">
        <ele>324.85</ele>
        <time>2018-10-21T08:08:28.000Z</time>
      </trkpt>
      <trkpt lat="46.54362" lon="4.85119">
        <ele>322.71</ele>
        <time>2018-10-21T08:08:33.000Z</time>
      </trkpt>
      <trkpt lat="46.54346" lon="4.85091">
        <ele>321.85</ele>
        <time>2018-10-21T08:08:38.000Z</time>
      </trkpt>
      <trkpt lat="46.54333" lon="4.85058">
        <ele>319.7</ele>
        <time>2018-10-21T08:08:43.000Z</time>
      </trkpt>
      <trkpt lat="46.54344" lon="4.85027">
        <ele>316.76</ele>
        <time>2018-10-21T08:08:48.000Z</time>
      </trkpt>
      <trkpt lat="46.54364" lon="4.84997">
        <ele>312.84</ele>
        <time>2018-10-21T08:08:53.000Z</time>
      </trkpt>
      <trkpt lat="46.54376" lon="4.84953">
        <ele>305.98</ele>
        <time>2018-10-21T08:08:58.000Z</time>
      </trkpt>
      <trkpt lat="46.54386" lon="4.84925">
        <ele>299.7</ele>
        <time>2018-10-21T08:09:03.000Z</time>
      </trkpt>
      <trkpt lat="46.54395" lon="4.84899">
        <ele>297.78</ele>
        <time>2018-10-21T08:09:08.000Z</time>
      </trkpt>
      <trkpt lat="46.54394" lon="4.84874">
        <ele>294.02</ele>
        <time>2018-10-21T08:09:13.000Z</time>
      </trkpt>
      <trkpt lat="46.54392" lon="4.84848">
        <ele>289.05</ele>
        <time>2018-10-21T08:09:18.000Z</time>
      </trkpt>
      <trkpt lat="46.5439" lon="4.84828">
        <ele>283.25</ele>
        <time>2018-10-21T08:09:23.000Z</time>
      </trkpt>
      <trkpt lat="46.5439" lon="4.84799">
        <ele>281.23</ele>
        <time>2018-10-21T08:09:28.000Z</time>
      </trkpt>
      <trkpt lat="46.54385" lon="4.84779">
        <ele>279.54</ele>
        <time>2018-10-21T08:09:33.000Z</time>
      </trkpt>
      <trkpt lat="46.54367" lon="4.84752">
        <ele>278.2</ele>
        <time>2018-10-21T08:09:38.000Z</time>
      </trkpt>
      <trkpt lat="46.54342" lon="4.84727">
        <ele>277.27</ele>
        <time>2018-10-21T08:09:43.000Z</time>
      </trkpt>
      <trkpt lat="46.54321" lon="4.84697">
        <ele>275.61</ele>
        <time>2018-10-21T08:09:48.000Z</time>
      </trkpt>
      <trkpt lat="46.54296" lon="4.84673">
        <ele>274.03</ele>
        <time>2018-10-21T08:09:53.000Z</time>
      </trkpt>
      <trkpt lat="46.54269" lon="4.84654">
        <ele>272.86</ele>
        <time>2018-10-21T08:09:58.000Z</time>
      </trkpt>
      <trkpt lat="46.5425" lon="4.84642">
        <ele>272.19</ele>
        <time>2018-10-21T08:10:03.000Z</time>
      </trkpt>
      <trkpt lat="46.54242" lon="4.84635">
        <ele>269.78</ele>
        <time>2018-10-21T08:10:09.000Z</time>
      </trkpt>
      <trkpt lat="46.54245" lon="4.84619">
        <ele>269.3</ele>
        <time>2018-10-21T08:10:16.000Z</time>
      </trkpt>
      <trkpt lat="46.54249" lon="4.84601">
        <ele>269.7</ele>
        <time>2018-10-21T08:10:21.000Z</time>
      </trkpt>
      <trkpt lat="46.54258" lon="4.84583">
        <ele>270.03</ele>
        <time>2018-10-21T08:10:26.000Z</time>
      </trkpt>
      <trkpt lat="46.54269" lon="4.84568">
        <ele>270.13</ele>
        <time>2018-10-21T08:10:31.000Z</time>
      </trkpt>
      <trkpt lat="46.54273" lon="4.84555">
        <ele>269.94</ele>
        <time>2018-10-21T08:10:36.000Z</time>
      </trkpt>
      <trkpt lat="46.54276" lon="4.84539">
        <ele>269.74</ele>
        <time>2018-10-21T08:10:41.000Z</time>
      </trkpt>
      <trkpt lat="46.54279" lon="4.84521">
        <ele>269.34</ele>
        <time>2018-10-21T08:10:46.000Z</time>
      </trkpt>
      <trkpt lat="46.5427" lon="4.84506">
        <ele>268.17</ele>
        <time>2018-10-21T08:10:51.000Z</time>
      </trkpt>
      <trkpt lat="46.54275" lon="4.84493">
        <ele>268.01</ele>
        <time>2018-10-21T08:10:56.000Z</time>
      </trkpt>
      <trkpt lat="46.54284" lon="4.84488">
        <ele>267.9</ele>
        <time>2018-10-21T08:11:09.000Z</time>
      </trkpt>
      <trkpt lat="46.54296" lon="4.84485">
        <ele>268.74</ele>
        <time>2018-10-21T08:11:14.000Z</time>
      </trkpt>
      <trkpt lat="46.54307" lon="4.84479">
        <ele>270.16</ele>
        <time>2018-10-21T08:11:19.000Z</time>
      </trkpt>
      <trkpt lat="46.54317" lon="4.84483">
        <ele>273.71</ele>
        <time>2018-10-21T08:11:30.000Z</time>
      </trkpt>
      <trkpt lat="46.54348" lon="4.84493">
        <ele>274.11</ele>
        <time>2018-10-21T08:11:35.000Z</time>
      </trkpt>
      <trkpt lat="46.54357" lon="4.8451">
        <ele>275.41</ele>
        <time>2018-10-21T08:11:40.000Z</time>
      </trkpt>
      <trkpt lat="46.54365" lon="4.8453">
        <ele>276</ele>
        <time>2018-10-21T08:11:45.000Z</time>
      </trkpt>
      <trkpt lat="46.54368" lon="4.84544">
        <ele>276.68</ele>
        <time>2018-10-21T08:11:50.000Z</time>
      </trkpt>
      <trkpt lat="46.54381" lon="4.84553">
        <ele>276.9</ele>
        <time>2018-10-21T08:11:55.000Z</time>
      </trkpt>
      <trkpt lat="46.54404" lon="4.84545">
        <ele>276.65</ele>
        <time>2018-10-21T08:12:00.000Z</time>
      </trkpt>
      <trkpt lat="46.54422" lon="4.8453">
        <ele>276.73</ele>
        <time>2018-10-21T08:12:05.000Z</time>
      </trkpt>
      <trkpt lat="46.54438" lon="4.84524">
        <ele>275.61</ele>
        <time>2018-10-21T08:12:10.000Z</time>
      </trkpt>
      <trkpt lat="46.54456" lon="4.84514">
        <ele>274.91</ele>
        <time>2018-10-21T08:12:15.000Z</time>
      </trkpt>
      <trkpt lat="46.54471" lon="4.84498">
        <ele>275.75</ele>
        <time>2018-10-21T08:12:20.000Z</time>
      </trkpt>
      <trkpt lat="46.54482" lon="4.8448">
        <ele>276.92</ele>
        <time>2018-10-21T08:12:25.000Z</time>
      </trkpt>
      <trkpt lat="46.54492" lon="4.8446">
        <ele>278.33</ele>
        <time>2018-10-21T08:12:30.000Z</time>
      </trkpt>
      <trkpt lat="46.54501" lon="4.84442">
        <ele>279.56</ele>
        <time>2018-10-21T08:12:35.000Z</time>
      </trkpt>
      <trkpt lat="46.54512" lon="4.84417">
        <ele>279.2</ele>
        <time>2018-10-21T08:12:40.000Z</time>
      </trkpt>
      <trkpt lat="46.54515" lon="4.84388">
        <ele>279.67</ele>
        <time>2018-10-21T08:12:45.000Z</time>
      </trkpt>
      <trkpt lat="46.54516" lon="4.8436">
        <ele>279.06</ele>
        <time>2018-10-21T08:12:50.000Z</time>
      </trkpt>
      <trkpt lat="46.54513" lon="4.84332">
        <ele>278.79</ele>
        <time>2018-10-21T08:12:55.000Z</time>
      </trkpt>
      <trkpt lat="46.5451" lon="4.84306">
        <ele>278.49</ele>
        <time>2018-10-21T08:13:00.000Z</time>
      </trkpt>
      <trkpt lat="46.54514" lon="4.84279">
        <ele>277.47</ele>
        <time>2018-10-21T08:13:05.000Z</time>
      </trkpt>
      <trkpt lat="46.5451" lon="4.84254">
        <ele>277.71</ele>
        <time>2018-10-21T08:13:10.000Z</time>
      </trkpt>
      <trkpt lat="46.54508" lon="4.84233">
        <ele>278.33</ele>
        <time>2018-10-21T08:13:15.000Z</time>
      </trkpt>
      <trkpt lat="46.54505" lon="4.84212">
        <ele>277.59</ele>
        <time>2018-10-21T08:13:20.000Z</time>
      </trkpt>
      <trkpt lat="46.54503" lon="4.84189">
        <ele>277.17</ele>
        <time>2018-10-21T08:13:25.000Z</time>
      </trkpt>
      <trkpt lat="46.54504" lon="4.84148">
        <ele>276.35</ele>
        <time>2018-10-21T08:13:30.000Z</time>
      </trkpt>
      <trkpt lat="46.54506" lon="4.84121">
        <ele>275.35</ele>
        <time>2018-10-21T08:13:35.000Z</time>
      </trkpt>
      <trkpt lat="46.54503" lon="4.84109">
        <ele>276.64</ele>
        <time>2018-10-21T08:13:40.000Z</time>
      </trkpt>
      <trkpt lat="46.54499" lon="4.84094">
        <ele>278.59</ele>
        <time>2018-10-21T08:13:46.000Z</time>
      </trkpt>
      <trkpt lat="46.545" lon="4.84078">
        <ele>280.63</ele>
        <time>2018-10-21T08:13:51.000Z</time>
      </trkpt>
      <trkpt lat="46.54501" lon="4.84061">
        <ele>282.61</ele>
        <time>2018-10-21T08:13:56.000Z</time>
      </trkpt>
      <trkpt lat="46.54496" lon="4.84046">
        <ele>283.47</ele>
        <time>2018-10-21T08:14:01.000Z</time>
      </trkpt>
      <trkpt lat="46.54501" lon="4.84035">
        <ele>283.78</ele>
        <time>2018-10-21T08:14:06.000Z</time>
      </trkpt>
      <trkpt lat="46.54501" lon="4.84019">
        <ele>282.11</ele>
        <time>2018-10-21T08:14:15.000Z</time>
      </trkpt>
      <trkpt lat="46.54503" lon="4.84005">
        <ele>283.07</ele>
        <time>2018-10-21T08:14:20.000Z</time>
      </trkpt>
      <trkpt lat="46.54506" lon="4.8399">
        <ele>284.04</ele>
        <time>2018-10-21T08:14:25.000Z</time>
      </trkpt>
      <trkpt lat="46.5451" lon="4.83976">
        <ele>284.24</ele>
        <time>2018-10-21T08:14:31.000Z</time>
      </trkpt>
      <trkpt lat="46.54514" lon="4.83963">
        <ele>284.83</ele>
        <time>2018-10-21T08:14:36.000Z</time>
      </trkpt>
      <trkpt lat="46.54518" lon="4.83946">
        <ele>285.4</ele>
        <time>2018-10-21T08:14:41.000Z</time>
      </trkpt>
      <trkpt lat="46.54522" lon="4.83928">
        <ele>285.97</ele>
        <time>2018-10-21T08:14:46.000Z</time>
      </trkpt>
      <trkpt lat="46.54525" lon="4.8391">
        <ele>286.67</ele>
        <time>2018-10-21T08:14:51.000Z</time>
      </trkpt>
      <trkpt lat="46.54527" lon="4.83895">
        <ele>286.96</ele>
        <time>2018-10-21T08:14:56.000Z</time>
      </trkpt>
      <trkpt lat="46.54532" lon="4.83869">
        <ele>286.61</ele>
        <time>2018-10-21T08:15:01.000Z</time>
      </trkpt>
      <trkpt lat="46.54537" lon="4.83851">
        <ele>287</ele>
        <time>2018-10-21T08:15:06.000Z</time>
      </trkpt>
      <trkpt lat="46.54543" lon="4.83836">
        <ele>287.41</ele>
        <time>2018-10-21T08:15:11.000Z</time>
      </trkpt>
      <trkpt lat="46.54544" lon="4.83821">
        <ele>287.76</ele>
        <time>2018-10-21T08:15:18.000Z</time>
      </trkpt>
      <trkpt lat="46.54549" lon="4.83807">
        <ele>288.36</ele>
        <time>2018-10-21T08:15:23.000Z</time>
      </trkpt>
      <trkpt lat="46.54555" lon="4.83793">
        <ele>288.69</ele>
        <time>2018-10-21T08:15:28.000Z</time>
      </trkpt>
      <trkpt lat="46.5456" lon="4.83774">
        <ele>288.95</ele>
        <time>2018-10-21T08:15:33.000Z</time>
      </trkpt>
      <trkpt lat="46.54565" lon="4.83755">
        <ele>288.19</ele>
        <time>2018-10-21T08:15:38.000Z</time>
      </trkpt>
      <trkpt lat="46.54567" lon="4.83727">
        <ele>285.08</ele>
        <time>2018-10-21T08:15:43.000Z</time>
      </trkpt>
      <trkpt lat="46.54567" lon="4.83711">
        <ele>283.31</ele>
        <time>2018-10-21T08:17:18.000Z</time>
      </trkpt>
      <trkpt lat="46.54565" lon="4.83687">
        <ele>283.4</ele>
        <time>2018-10-21T08:17:23.000Z</time>
      </trkpt>
      <trkpt lat="46.54558" lon="4.83671">
        <ele>284.2</ele>
        <time>2018-10-21T08:17:28.000Z</time>
      </trkpt>
      <trkpt lat="46.54551" lon="4.83657">
        <ele>285.17</ele>
        <time>2018-10-21T08:17:33.000Z</time>
      </trkpt>
      <trkpt lat="46.54545" lon="4.8364">
        <ele>286.26</ele>
        <time>2018-10-21T08:17:38.000Z</time>
      </trkpt>
      <trkpt lat="46.54547" lon="4.83621">
        <ele>287.12</ele>
        <time>2018-10-21T08:17:43.000Z</time>
      </trkpt>
      <trkpt lat="46.54549" lon="4.83601">
        <ele>286.75</ele>
        <time>2018-10-21T08:17:48.000Z</time>
      </trkpt>
      <trkpt lat="46.5455" lon="4.83586">
        <ele>287.94</ele>
        <time>2018-10-21T08:17:53.000Z</time>
      </trkpt>
      <trkpt lat="46.54541" lon="4.83559">
        <ele>289.05</ele>
        <time>2018-10-21T08:17:58.000Z</time>
      </trkpt>
      <trkpt lat="46.54538" lon="4.83538">
        <ele>290.24</ele>
        <time>2018-10-21T08:18:03.000Z</time>
      </trkpt>
      <trkpt lat="46.54536" lon="4.83519">
        <ele>290.6</ele>
        <time>2018-10-21T08:18:08.000Z</time>
      </trkpt>
      <trkpt lat="46.54533" lon="4.83499">
        <ele>291</ele>
        <time>2018-10-21T08:18:13.000Z</time>
      </trkpt>
      <trkpt lat="46.54528" lon="4.83483">
        <ele>291.77</ele>
        <time>2018-10-21T08:18:18.000Z</time>
      </trkpt>
      <trkpt lat="46.54523" lon="4.83466">
        <ele>292.69</ele>
        <time>2018-10-21T08:18:23.000Z</time>
      </trkpt>
      <trkpt lat="46.54517" lon="4.83449">
        <ele>293.64</ele>
        <time>2018-10-21T08:18:28.000Z</time>
      </trkpt>
      <trkpt lat="46.54513" lon="4.83433">
        <ele>294.86</ele>
        <time>2018-10-21T08:18:33.000Z</time>
      </trkpt>
      <trkpt lat="46.54503" lon="4.83421">
        <ele>295.67</ele>
        <time>2018-10-21T08:18:38.000Z</time>
      </trkpt>
      <trkpt lat="46.54498" lon="4.83407">
        <ele>296.75</ele>
        <time>2018-10-21T08:18:43.000Z</time>
      </trkpt>
      <trkpt lat="46.54487" lon="4.83391">
        <ele>297.59</ele>
        <time>2018-10-21T08:18:48.000Z</time>
      </trkpt>
      <trkpt lat="46.54479" lon="4.83374">
        <ele>298.2</ele>
        <time>2018-10-21T08:18:53.000Z</time>
      </trkpt>
      <trkpt lat="46.54472" lon="4.83359">
        <ele>298.16</ele>
        <time>2018-10-21T08:18:58.000Z</time>
      </trkpt>
      <trkpt lat="46.5446" lon="4.83341">
        <ele>297.18</ele>
        <time>2018-10-21T08:19:03.000Z</time>
      </trkpt>
      <trkpt lat="46.5445" lon="4.83323">
        <ele>296.3</ele>
        <time>2018-10-21T08:19:08.000Z</time>
      </trkpt>
      <trkpt lat="46.54443" lon="4.83308">
        <ele>294.63</ele>
        <time>2018-10-21T08:19:13.000Z</time>
      </trkpt>
      <trkpt lat="46.54437" lon="4.83284">
        <ele>291.75</ele>
        <time>2018-10-21T08:19:18.000Z</time>
      </trkpt>
      <trkpt lat="46.54437" lon="4.83263">
        <ele>285.21</ele>
        <time>2018-10-21T08:19:23.000Z</time>
      </trkpt>
      <trkpt lat="46.54427" lon="4.83262">
        <ele>276.36</ele>
        <time>2018-10-21T08:19:29.000Z</time>
      </trkpt>
      <trkpt lat="46.54428" lon="4.83248">
        <ele>273.33</ele>
        <time>2018-10-21T08:19:40.000Z</time>
      </trkpt>
      <trkpt lat="46.5443" lon="4.83234">
        <ele>272.78</ele>
        <time>2018-10-21T08:19:47.000Z</time>
      </trkpt>
      <trkpt lat="46.54432" lon="4.8322">
        <ele>273.97</ele>
        <time>2018-10-21T08:19:54.000Z</time>
      </trkpt>
      <trkpt lat="46.54432" lon="4.83201">
        <ele>275.91</ele>
        <time>2018-10-21T08:20:01.000Z</time>
      </trkpt>
      <trkpt lat="46.54429" lon="4.83188">
        <ele>275.83</ele>
        <time>2018-10-21T08:20:06.000Z</time>
      </trkpt>
      <trkpt lat="46.54427" lon="4.83175">
        <ele>277.08</ele>
        <time>2018-10-21T08:20:13.000Z</time>
      </trkpt>
      <trkpt lat="46.54424" lon="4.83163">
        <ele>278.77</ele>
        <time>2018-10-21T08:20:19.000Z</time>
      </trkpt>
      <trkpt lat="46.54422" lon="4.83147">
        <ele>280.95</ele>
        <time>2018-10-21T08:20:26.000Z</time>
      </trkpt>
      <trkpt lat="46.54419" lon="4.83123">
        <ele>283.94</ele>
        <time>2018-10-21T08:20:32.000Z</time>
      </trkpt>
      <trkpt lat="46.54411" lon="4.83102">
        <ele>283.4</ele>
        <time>2018-10-21T08:20:37.000Z</time>
      </trkpt>
      <trkpt lat="46.54399" lon="4.83073">
        <ele>277.86</ele>
        <time>2018-10-21T08:20:42.000Z</time>
      </trkpt>
      <trkpt lat="46.54381" lon="4.83067">
        <ele>275.89</ele>
        <time>2018-10-21T08:20:47.000Z</time>
      </trkpt>
      <trkpt lat="46.54364" lon="4.83074">
        <ele>276.66</ele>
        <time>2018-10-21T08:20:52.000Z</time>
      </trkpt>
      <trkpt lat="46.54341" lon="4.83071">
        <ele>278.39</ele>
        <time>2018-10-21T08:20:57.000Z</time>
      </trkpt>
      <trkpt lat="46.54318" lon="4.83066">
        <ele>281.31</ele>
        <time>2018-10-21T08:21:02.000Z</time>
      </trkpt>
      <trkpt lat="46.54299" lon="4.83063">
        <ele>284.27</ele>
        <time>2018-10-21T08:21:07.000Z</time>
      </trkpt>
      <trkpt lat="46.54282" lon="4.83061">
        <ele>286.42</ele>
        <time>2018-10-21T08:21:12.000Z</time>
      </trkpt>
      <trkpt lat="46.54266" lon="4.83057">
        <ele>287.94</ele>
        <time>2018-10-21T08:21:17.000Z</time>
      </trkpt>
      <trkpt lat="46.54254" lon="4.83051">
        <ele>287.91</ele>
        <time>2018-10-21T08:21:22.000Z</time>
      </trkpt>
      <trkpt lat="46.54242" lon="4.83052">
        <ele>286.7</ele>
        <time>2018-10-21T08:21:29.000Z</time>
      </trkpt>
      <trkpt lat="46.54234" lon="4.83043">
        <ele>285.04</ele>
        <time>2018-10-21T08:23:20.000Z</time>
      </trkpt>
      <trkpt lat="46.54231" lon="4.83029">
        <ele>285.11</ele>
        <time>2018-10-21T08:23:25.000Z</time>
      </trkpt>
      <trkpt lat="46.54229" lon="4.83014">
        <ele>285.4</ele>
        <time>2018-10-21T08:23:30.000Z</time>
      </trkpt>
      <trkpt lat="46.54227" lon="4.83">
        <ele>286.19</ele>
        <time>2018-10-21T08:23:36.000Z</time>
      </trkpt>
      <trkpt lat="46.54222" lon="4.82984">
        <ele>287.41</ele>
        <time>2018-10-21T08:23:45.000Z</time>
      </trkpt>
      <trkpt lat="46.54218" lon="4.8297">
        <ele>288.3</ele>
        <time>2018-10-21T08:23:51.000Z</time>
      </trkpt>
      <trkpt lat="46.54215" lon="4.82956">
        <ele>288.89</ele>
        <time>2018-10-21T08:23:56.000Z</time>
      </trkpt>
      <trkpt lat="46.54212" lon="4.82943">
        <ele>289.97</ele>
        <time>2018-10-21T08:24:02.000Z</time>
      </trkpt>
      <trkpt lat="46.54208" lon="4.82927">
        <ele>290.97</ele>
        <time>2018-10-21T08:24:07.000Z</time>
      </trkpt>
      <trkpt lat="46.54201" lon="4.82913">
        <ele>292.06</ele>
        <time>2018-10-21T08:24:12.000Z</time>
      </trkpt>
      <trkpt lat="46.54194" lon="4.82897">
        <ele>293.55</ele>
        <time>2018-10-21T08:24:17.000Z</time>
      </trkpt>
      <trkpt lat="46.54184" lon="4.82882">
        <ele>295.06</ele>
        <time>2018-10-21T08:24:22.000Z</time>
      </trkpt>
      <trkpt lat="46.54173" lon="4.82867">
        <ele>296.36</ele>
        <time>2018-10-21T08:24:27.000Z</time>
      </trkpt>
      <trkpt lat="46.54163" lon="4.82852">
        <ele>297.56</ele>
        <time>2018-10-21T08:24:32.000Z</time>
      </trkpt>
      <trkpt lat="46.5415" lon="4.82839">
        <ele>298.17</ele>
        <time>2018-10-21T08:24:37.000Z</time>
      </trkpt>
      <trkpt lat="46.54141" lon="4.82829">
        <ele>299.07</ele>
        <time>2018-10-21T08:24:42.000Z</time>
      </trkpt>
      <trkpt lat="46.54133" lon="4.82818">
        <ele>299.87</ele>
        <time>2018-10-21T08:24:47.000Z</time>
      </trkpt>
      <trkpt lat="46.54123" lon="4.82804">
        <ele>300.77</ele>
        <time>2018-10-21T08:24:52.000Z</time>
      </trkpt>
      <trkpt lat="46.54114" lon="4.8279">
        <ele>301.69</ele>
        <time>2018-10-21T08:24:57.000Z</time>
      </trkpt>
      <trkpt lat="46.54102" lon="4.82776">
        <ele>302.22</ele>
        <time>2018-10-21T08:25:02.000Z</time>
      </trkpt>
      <trkpt lat="46.5409" lon="4.82764">
        <ele>302.43</ele>
        <time>2018-10-21T08:25:07.000Z</time>
      </trkpt>
      <trkpt lat="46.54079" lon="4.8275">
        <ele>303.05</ele>
        <time>2018-10-21T08:25:12.000Z</time>
      </trkpt>
      <trkpt lat="46.5407" lon="4.82735">
        <ele>304.82</ele>
        <time>2018-10-21T08:25:17.000Z</time>
      </trkpt>
      <trkpt lat="46.54063" lon="4.82719">
        <ele>306.13</ele>
        <time>2018-10-21T08:25:22.000Z</time>
      </trkpt>
      <trkpt lat="46.54056" lon="4.82703">
        <ele>307.72</ele>
        <time>2018-10-21T08:25:27.000Z</time>
      </trkpt>
      <trkpt lat="46.5404" lon="4.82682">
        <ele>309.96</ele>
        <time>2018-10-21T08:25:32.000Z</time>
      </trkpt>
      <trkpt lat="46.5402" lon="4.82665">
        <ele>312.88</ele>
        <time>2018-10-21T08:25:37.000Z</time>
      </trkpt>
      <trkpt lat="46.53993" lon="4.82643">
        <ele>315.95</ele>
        <time>2018-10-21T08:25:42.000Z</time>
      </trkpt>
      <trkpt lat="46.53971" lon="4.82614">
        <ele>318.19</ele>
        <time>2018-10-21T08:25:47.000Z</time>
      </trkpt>
      <trkpt lat="46.53942" lon="4.82586">
        <ele>320.42</ele>
        <time>2018-10-21T08:25:52.000Z</time>
      </trkpt>
      <trkpt lat="46.53906" lon="4.8257">
        <ele>322.48</ele>
        <time>2018-10-21T08:25:57.000Z</time>
      </trkpt>
      <trkpt lat="46.53866" lon="4.82564">
        <ele>323.2</ele>
        <time>2018-10-21T08:26:02.000Z</time>
      </trkpt>
      <trkpt lat="46.53829" lon="4.82563">
        <ele>323.59</ele>
        <time>2018-10-21T08:26:07.000Z</time>
      </trkpt>
      <trkpt lat="46.53805" lon="4.82561">
        <ele>324.19</ele>
        <time>2018-10-21T08:26:12.000Z</time>
      </trkpt>
      <trkpt lat="46.53791" lon="4.82566">
        <ele>324.22</ele>
        <time>2018-10-21T08:26:17.000Z</time>
      </trkpt>
      <trkpt lat="46.53776" lon="4.8257">
        <ele>320.26</ele>
        <time>2018-10-21T08:26:22.000Z</time>
      </trkpt>
      <trkpt lat="46.53764" lon="4.82566">
        <ele>320.33</ele>
        <time>2018-10-21T08:28:37.000Z</time>
      </trkpt>
      <trkpt lat="46.53745" lon="4.82559">
        <ele>320.52</ele>
        <time>2018-10-21T08:28:42.000Z</time>
      </trkpt>
      <trkpt lat="46.53722" lon="4.82549">
        <ele>320.92</ele>
        <time>2018-10-21T08:28:47.000Z</time>
      </trkpt>
      <trkpt lat="46.53703" lon="4.82531">
        <ele>320.97</ele>
        <time>2018-10-21T08:28:52.000Z</time>
      </trkpt>
      <trkpt lat="46.53689" lon="4.82518">
        <ele>321.01</ele>
        <time>2018-10-21T08:28:57.000Z</time>
      </trkpt>
      <trkpt lat="46.53692" lon="4.82505">
        <ele>321.59</ele>
        <time>2018-10-21T08:29:04.000Z</time>
      </trkpt>
      <trkpt lat="46.53701" lon="4.82497">
        <ele>322.09</ele>
        <time>2018-10-21T08:29:09.000Z</time>
      </trkpt>
      <trkpt lat="46.5371" lon="4.82492">
        <ele>322.67</ele>
        <time>2018-10-21T08:29:14.000Z</time>
      </trkpt>
      <trkpt lat="46.53719" lon="4.82484">
        <ele>323.26</ele>
        <time>2018-10-21T08:29:19.000Z</time>
      </trkpt>
      <trkpt lat="46.53714" lon="4.82473">
        <ele>325.13</ele>
        <time>2018-10-21T08:29:29.000Z</time>
      </trkpt>
      <trkpt lat="46.53711" lon="4.8246">
        <ele>326.86</ele>
        <time>2018-10-21T08:29:38.000Z</time>
      </trkpt>
      <trkpt lat="46.53713" lon="4.82446">
        <ele>327.96</ele>
        <time>2018-10-21T08:29:45.000Z</time>
      </trkpt>
      <trkpt lat="46.53712" lon="4.82432">
        <ele>328.77</ele>
        <time>2018-10-21T08:29:51.000Z</time>
      </trkpt>
      <trkpt lat="46.53714" lon="4.82418">
        <ele>329.57</ele>
        <time>2018-10-21T08:29:57.000Z</time>
      </trkpt>
      <trkpt lat="46.53714" lon="4.82404">
        <ele>330.38</ele>
        <time>2018-10-21T08:30:03.000Z</time>
      </trkpt>
      <trkpt lat="46.53712" lon="4.82389">
        <ele>330.99</ele>
        <time>2018-10-21T08:30:08.000Z</time>
      </trkpt>
      <trkpt lat="46.53712" lon="4.82373">
        <ele>331.59</ele>
        <time>2018-10-21T08:30:14.000Z</time>
      </trkpt>
      <trkpt lat="46.53713" lon="4.82357">
        <ele>331.89</ele>
        <time>2018-10-21T08:30:19.000Z</time>
      </trkpt>
      <trkpt lat="46.53714" lon="4.82341">
        <ele>332.2</ele>
        <time>2018-10-21T08:30:24.000Z</time>
      </trkpt>
      <trkpt lat="46.53716" lon="4.82328">
        <ele>332.86</ele>
        <time>2018-10-21T08:30:29.000Z</time>
      </trkpt>
      <trkpt lat="46.5372" lon="4.82311">
        <ele>332.76</ele>
        <time>2018-10-21T08:30:34.000Z</time>
      </trkpt>
      <trkpt lat="46.53723" lon="4.82291">
        <ele>331.38</ele>
        <time>2018-10-21T08:30:39.000Z</time>
      </trkpt>
      <trkpt lat="46.53727" lon="4.82269">
        <ele>330.19</ele>
        <time>2018-10-21T08:30:44.000Z</time>
      </trkpt>
      <trkpt lat="46.53729" lon="4.82255">
        <ele>329.11</ele>
        <time>2018-10-21T08:30:49.000Z</time>
      </trkpt>
      <trkpt lat="46.53732" lon="4.82241">
        <ele>327.7</ele>
        <time>2018-10-21T08:30:55.000Z</time>
      </trkpt>
      <trkpt lat="46.53739" lon="4.82232">
        <ele>327.43</ele>
        <time>2018-10-21T08:31:00.000Z</time>
      </trkpt>
      <trkpt lat="46.5375" lon="4.82217">
        <ele>326.57</ele>
        <time>2018-10-21T08:31:05.000Z</time>
      </trkpt>
      <trkpt lat="46.53767" lon="4.82193">
        <ele>325.59</ele>
        <time>2018-10-21T08:31:10.000Z</time>
      </trkpt>
      <trkpt lat="46.53782" lon="4.82175">
        <ele>324.39</ele>
        <time>2018-10-21T08:31:15.000Z</time>
      </trkpt>
      <trkpt lat="46.53783" lon="4.82152">
        <ele>322.68</ele>
        <time>2018-10-21T08:31:20.000Z</time>
      </trkpt>
      <trkpt lat="46.53762" lon="4.82135">
        <ele>319.41</ele>
        <time>2018-10-21T08:31:25.000Z</time>
      </trkpt>
      <trkpt lat="46.53746" lon="4.82131">
        <ele>317.65</ele>
        <time>2018-10-21T08:31:30.000Z</time>
      </trkpt>
      <trkpt lat="46.53737" lon="4.82134">
        <ele>310.81</ele>
        <time>2018-10-21T08:31:36.000Z</time>
      </trkpt>
      <trkpt lat="46.53716" lon="4.82131">
        <ele>307.97</ele>
        <time>2018-10-21T08:31:41.000Z</time>
      </trkpt>
      <trkpt lat="46.537" lon="4.82124">
        <ele>305.11</ele>
        <time>2018-10-21T08:31:46.000Z</time>
      </trkpt>
      <trkpt lat="46.53682" lon="4.82119">
        <ele>302.62</ele>
        <time>2018-10-21T08:31:51.000Z</time>
      </trkpt>
      <trkpt lat="46.53653" lon="4.82123">
        <ele>301.09</ele>
        <time>2018-10-21T08:31:56.000Z</time>
      </trkpt>
      <trkpt lat="46.53628" lon="4.82132">
        <ele>300.25</ele>
        <time>2018-10-21T08:32:01.000Z</time>
      </trkpt>
      <trkpt lat="46.53598" lon="4.82143">
        <ele>298.88</ele>
        <time>2018-10-21T08:32:06.000Z</time>
      </trkpt>
      <trkpt lat="46.53566" lon="4.82164">
        <ele>298.26</ele>
        <time>2018-10-21T08:32:11.000Z</time>
      </trkpt>
      <trkpt lat="46.53532" lon="4.82188">
        <ele>297.85</ele>
        <time>2018-10-21T08:32:16.000Z</time>
      </trkpt>
      <trkpt lat="46.53506" lon="4.82203">
        <ele>297.55</ele>
        <time>2018-10-21T08:32:21.000Z</time>
      </trkpt>
      <trkpt lat="46.53494" lon="4.82213">
        <ele>296.51</ele>
        <time>2018-10-21T08:32:26.000Z</time>
      </trkpt>
      <trkpt lat="46.53477" lon="4.82221">
        <ele>295.09</ele>
        <time>2018-10-21T08:32:31.000Z</time>
      </trkpt>
      <trkpt lat="46.53466" lon="4.82218">
        <ele>294.55</ele>
        <time>2018-10-21T08:32:36.000Z</time>
      </trkpt>
      <trkpt lat="46.5346" lon="4.82203">
        <ele>293.3</ele>
        <time>2018-10-21T08:32:41.000Z</time>
      </trkpt>
      <trkpt lat="46.5344" lon="4.82195">
        <ele>292.65</ele>
        <time>2018-10-21T08:32:46.000Z</time>
      </trkpt>
      <trkpt lat="46.53411" lon="4.82189">
        <ele>291.72</ele>
        <time>2018-10-21T08:32:51.000Z</time>
      </trkpt>
      <trkpt lat="46.53378" lon="4.82184">
        <ele>290.09</ele>
        <time>2018-10-21T08:32:56.000Z</time>
      </trkpt>
      <trkpt lat="46.53351" lon="4.82174">
        <ele>289.72</ele>
        <time>2018-10-21T08:33:01.000Z</time>
      </trkpt>
      <trkpt lat="46.53331" lon="4.82163">
        <ele>289.45</ele>
        <time>2018-10-21T08:33:06.000Z</time>
      </trkpt>
      <trkpt lat="46.53315" lon="4.82173">
        <ele>288.95</ele>
        <time>2018-10-21T08:33:11.000Z</time>
      </trkpt>
      <trkpt lat="46.53302" lon="4.82183">
        <ele>287.93</ele>
        <time>2018-10-21T08:33:16.000Z</time>
      </trkpt>
      <trkpt lat="46.53306" lon="4.82198">
        <ele>283.94</ele>
        <time>2018-10-21T08:33:21.000Z</time>
      </trkpt>
      <trkpt lat="46.53296" lon="4.82201">
        <ele>281.37</ele>
        <time>2018-10-21T08:34:14.000Z</time>
      </trkpt>
      <trkpt lat="46.53284" lon="4.82206">
        <ele>282.15</ele>
        <time>2018-10-21T08:34:19.000Z</time>
      </trkpt>
      <trkpt lat="46.53273" lon="4.82203">
        <ele>283.35</ele>
        <time>2018-10-21T08:34:24.000Z</time>
      </trkpt>
      <trkpt lat="46.53275" lon="4.82186">
        <ele>284.53</ele>
        <time>2018-10-21T08:34:29.000Z</time>
      </trkpt>
      <trkpt lat="46.53272" lon="4.82165">
        <ele>285.8</ele>
        <time>2018-10-21T08:34:34.000Z</time>
      </trkpt>
      <trkpt lat="46.5326" lon="4.82143">
        <ele>287.39</ele>
        <time>2018-10-21T08:34:39.000Z</time>
      </trkpt>
      <trkpt lat="46.53245" lon="4.82126">
        <ele>289.02</ele>
        <time>2018-10-21T08:34:44.000Z</time>
      </trkpt>
      <trkpt lat="46.53226" lon="4.82109">
        <ele>290.52</ele>
        <time>2018-10-21T08:34:49.000Z</time>
      </trkpt>
      <trkpt lat="46.53205" lon="4.82095">
        <ele>292.11</ele>
        <time>2018-10-21T08:34:54.000Z</time>
      </trkpt>
      <trkpt lat="46.53194" lon="4.82082">
        <ele>293.81</ele>
        <time>2018-10-21T08:34:59.000Z</time>
      </trkpt>
      <trkpt lat="46.5318" lon="4.82071">
        <ele>295.34</ele>
        <time>2018-10-21T08:35:04.000Z</time>
      </trkpt>
      <trkpt lat="46.53165" lon="4.82059">
        <ele>297.01</ele>
        <time>2018-10-21T08:35:09.000Z</time>
      </trkpt>
      <trkpt lat="46.53148" lon="4.82047">
        <ele>298.81</ele>
        <time>2018-10-21T08:35:14.000Z</time>
      </trkpt>
      <trkpt lat="46.53131" lon="4.82036">
        <ele>300.52</ele>
        <time>2018-10-21T08:35:19.000Z</time>
      </trkpt>
      <trkpt lat="46.53109" lon="4.82027">
        <ele>302.21</ele>
        <time>2018-10-21T08:35:24.000Z</time>
      </trkpt>
      <trkpt lat="46.53089" lon="4.82021">
        <ele>303.82</ele>
        <time>2018-10-21T08:35:29.000Z</time>
      </trkpt>
      <trkpt lat="46.53073" lon="4.82014">
        <ele>305.42</ele>
        <time>2018-10-21T08:35:34.000Z</time>
      </trkpt>
      <trkpt lat="46.53058" lon="4.82011">
        <ele>307.01</ele>
        <time>2018-10-21T08:35:39.000Z</time>
      </trkpt>
      <trkpt lat="46.53046" lon="4.82005">
        <ele>308.52</ele>
        <time>2018-10-21T08:35:44.000Z</time>
      </trkpt>
      <trkpt lat="46.53034" lon="4.81998">
        <ele>310.02</ele>
        <time>2018-10-21T08:35:49.000Z</time>
      </trkpt>
      <trkpt lat="46.53018" lon="4.81986">
        <ele>311.24</ele>
        <time>2018-10-21T08:35:54.000Z</time>
      </trkpt>
      <trkpt lat="46.52999" lon="4.81971">
        <ele>312.34</ele>
        <time>2018-10-21T08:35:59.000Z</time>
      </trkpt>
      <trkpt lat="46.52976" lon="4.81962">
        <ele>313.45</ele>
        <time>2018-10-21T08:36:04.000Z</time>
      </trkpt>
      <trkpt lat="46.52945" lon="4.81956">
        <ele>312.42</ele>
        <time>2018-10-21T08:36:09.000Z</time>
      </trkpt>
      <trkpt lat="46.52914" lon="4.81958">
        <ele>310.24</ele>
        <time>2018-10-21T08:36:14.000Z</time>
      </trkpt>
      <trkpt lat="46.52884" lon="4.81967">
        <ele>309.96</ele>
        <time>2018-10-21T08:36:19.000Z</time>
      </trkpt>
      <trkpt lat="46.5286" lon="4.81977">
        <ele>310.21</ele>
        <time>2018-10-21T08:36:24.000Z</time>
      </trkpt>
      <trkpt lat="46.52849" lon="4.81977">
        <ele>310.48</ele>
        <time>2018-10-21T08:36:29.000Z</time>
      </trkpt>
      <trkpt lat="46.5284" lon="4.81975">
        <ele>310.98</ele>
        <time>2018-10-21T08:36:34.000Z</time>
      </trkpt>
      <trkpt lat="46.52831" lon="4.81979">
        <ele>311.4</ele>
        <time>2018-10-21T08:36:41.000Z</time>
      </trkpt>
      <trkpt lat="46.52822" lon="4.81985">
        <ele>311.56</ele>
        <time>2018-10-21T08:36:55.000Z</time>
      </trkpt>
      <trkpt lat="46.52812" lon="4.81991">
        <ele>311.38</ele>
        <time>2018-10-21T08:37:00.000Z</time>
      </trkpt>
      <trkpt lat="46.52805" lon="4.81999">
        <ele>308.66</ele>
        <time>2018-10-21T08:37:13.000Z</time>
      </trkpt>
      <trkpt lat="46.52794" lon="4.82001">
        <ele>304.61</ele>
        <time>2018-10-21T08:37:19.000Z</time>
      </trkpt>
      <trkpt lat="46.52781" lon="4.81998">
        <ele>299.99</ele>
        <time>2018-10-21T08:37:31.000Z</time>
      </trkpt>
      <trkpt lat="46.52769" lon="4.81999">
        <ele>297.58</ele>
        <time>2018-10-21T08:37:38.000Z</time>
      </trkpt>
      <trkpt lat="46.52755" lon="4.82007">
        <ele>297.89</ele>
        <time>2018-10-21T08:38:34.000Z</time>
      </trkpt>
      <trkpt lat="46.52745" lon="4.82006">
        <ele>298.41</ele>
        <time>2018-10-21T08:40:10.000Z</time>
      </trkpt>
      <trkpt lat="46.52734" lon="4.82004">
        <ele>299.29</ele>
        <time>2018-10-21T08:40:22.000Z</time>
      </trkpt>
      <trkpt lat="46.52724" lon="4.82001">
        <ele>299.61</ele>
        <time>2018-10-21T08:40:27.000Z</time>
      </trkpt>
      <trkpt lat="46.52712" lon="4.81998">
        <ele>299.89</ele>
        <time>2018-10-21T08:40:32.000Z</time>
      </trkpt>
      <trkpt lat="46.52702" lon="4.81994">
        <ele>300.18</ele>
        <time>2018-10-21T08:40:37.000Z</time>
      </trkpt>
      <trkpt lat="46.52686" lon="4.81988">
        <ele>300.48</ele>
        <time>2018-10-21T08:40:42.000Z</time>
      </trkpt>
      <trkpt lat="46.52667" lon="4.81978">
        <ele>300.98</ele>
        <time>2018-10-21T08:40:47.000Z</time>
      </trkpt>
      <trkpt lat="46.52648" lon="4.8197">
        <ele>301.48</ele>
        <time>2018-10-21T08:40:52.000Z</time>
      </trkpt>
      <trkpt lat="46.52628" lon="4.8196">
        <ele>302.15</ele>
        <time>2018-10-21T08:40:57.000Z</time>
      </trkpt>
      <trkpt lat="46.52611" lon="4.81946">
        <ele>302.85</ele>
        <time>2018-10-21T08:41:02.000Z</time>
      </trkpt>
      <trkpt lat="46.52596" lon="4.81921">
        <ele>303.58</ele>
        <time>2018-10-21T08:41:07.000Z</time>
      </trkpt>
      <trkpt lat="46.52581" lon="4.81899">
        <ele>304.27</ele>
        <time>2018-10-21T08:41:12.000Z</time>
      </trkpt>
      <trkpt lat="46.52564" lon="4.81881">
        <ele>305.14</ele>
        <time>2018-10-21T08:41:17.000Z</time>
      </trkpt>
      <trkpt lat="46.52536" lon="4.81859">
        <ele>306.65</ele>
        <time>2018-10-21T08:41:22.000Z</time>
      </trkpt>
      <trkpt lat="46.52509" lon="4.81839">
        <ele>308.11</ele>
        <time>2018-10-21T08:41:27.000Z</time>
      </trkpt>
      <trkpt lat="46.52485" lon="4.81824">
        <ele>309.51</ele>
        <time>2018-10-21T08:41:32.000Z</time>
      </trkpt>
      <trkpt lat="46.52464" lon="4.81808">
        <ele>311.01</ele>
        <time>2018-10-21T08:41:37.000Z</time>
      </trkpt>
      <trkpt lat="46.52443" lon="4.81791">
        <ele>312.41</ele>
        <time>2018-10-21T08:41:42.000Z</time>
      </trkpt>
      <trkpt lat="46.52424" lon="4.81777">
        <ele>313.81</ele>
        <time>2018-10-21T08:41:47.000Z</time>
      </trkpt>
      <trkpt lat="46.52403" lon="4.81763">
        <ele>315.31</ele>
        <time>2018-10-21T08:41:52.000Z</time>
      </trkpt>
      <trkpt lat="46.52384" lon="4.81746">
        <ele>316.81</ele>
        <time>2018-10-21T08:41:57.000Z</time>
      </trkpt>
      <trkpt lat="46.52365" lon="4.81729">
        <ele>318.13</ele>
        <time>2018-10-21T08:42:02.000Z</time>
      </trkpt>
      <trkpt lat="46.52343" lon="4.81719">
        <ele>318.84</ele>
        <time>2018-10-21T08:42:07.000Z</time>
      </trkpt>
      <trkpt lat="46.52324" lon="4.81708">
        <ele>319.86</ele>
        <time>2018-10-21T08:42:12.000Z</time>
      </trkpt>
      <trkpt lat="46.52304" lon="4.81701">
        <ele>320.93</ele>
        <time>2018-10-21T08:42:17.000Z</time>
      </trkpt>
      <trkpt lat="46.52284" lon="4.81694">
        <ele>321.96</ele>
        <time>2018-10-21T08:42:22.000Z</time>
      </trkpt>
      <trkpt lat="46.52265" lon="4.81686">
        <ele>322.86</ele>
        <time>2018-10-21T08:42:27.000Z</time>
      </trkpt>
      <trkpt lat="46.52246" lon="4.81682">
        <ele>323.74</ele>
        <time>2018-10-21T08:42:32.000Z</time>
      </trkpt>
      <trkpt lat="46.52231" lon="4.81679">
        <ele>324.66</ele>
        <time>2018-10-21T08:42:37.000Z</time>
      </trkpt>
      <trkpt lat="46.52217" lon="4.81679">
        <ele>325.73</ele>
        <time>2018-10-21T08:42:42.000Z</time>
      </trkpt>
      <trkpt lat="46.52204" lon="4.81683">
        <ele>326.64</ele>
        <time>2018-10-21T08:42:47.000Z</time>
      </trkpt>
      <trkpt lat="46.5219" lon="4.81681">
        <ele>327</ele>
        <time>2018-10-21T08:42:52.000Z</time>
      </trkpt>
      <trkpt lat="46.52178" lon="4.81679">
        <ele>327.56</ele>
        <time>2018-10-21T08:42:57.000Z</time>
      </trkpt>
      <trkpt lat="46.52164" lon="4.81678">
        <ele>328.24</ele>
        <time>2018-10-21T08:43:02.000Z</time>
      </trkpt>
      <trkpt lat="46.52151" lon="4.81676">
        <ele>328.85</ele>
        <time>2018-10-21T08:43:07.000Z</time>
      </trkpt>
      <trkpt lat="46.52139" lon="4.81674">
        <ele>329.64</ele>
        <time>2018-10-21T08:43:12.000Z</time>
      </trkpt>
      <trkpt lat="46.52127" lon="4.8167">
        <ele>330.44</ele>
        <time>2018-10-21T08:43:17.000Z</time>
      </trkpt>
      <trkpt lat="46.52114" lon="4.81666">
        <ele>330.9</ele>
        <time>2018-10-21T08:43:22.000Z</time>
      </trkpt>
      <trkpt lat="46.52102" lon="4.81665">
        <ele>331.37</ele>
        <time>2018-10-21T08:43:27.000Z</time>
      </trkpt>
      <trkpt lat="46.52091" lon="4.81662">
        <ele>332.24</ele>
        <time>2018-10-21T08:43:32.000Z</time>
      </trkpt>
      <trkpt lat="46.52081" lon="4.8166">
        <ele>332.87</ele>
        <time>2018-10-21T08:43:37.000Z</time>
      </trkpt>
      <trkpt lat="46.52069" lon="4.81654">
        <ele>333.64</ele>
        <time>2018-10-21T08:43:42.000Z</time>
      </trkpt>
      <trkpt lat="46.5206" lon="4.81646">
        <ele>334.1</ele>
        <time>2018-10-21T08:43:47.000Z</time>
      </trkpt>
      <trkpt lat="46.52043" lon="4.81633">
        <ele>334.16</ele>
        <time>2018-10-21T08:43:52.000Z</time>
      </trkpt>
      <trkpt lat="46.5203" lon="4.81622">
        <ele>333.78</ele>
        <time>2018-10-21T08:43:57.000Z</time>
      </trkpt>
      <trkpt lat="46.5202" lon="4.81616">
        <ele>334.09</ele>
        <time>2018-10-21T08:44:02.000Z</time>
      </trkpt>
      <trkpt lat="46.52011" lon="4.81613">
        <ele>334.47</ele>
        <time>2018-10-21T08:44:07.000Z</time>
      </trkpt>
      <trkpt lat="46.52002" lon="4.8161">
        <ele>334.88</ele>
        <time>2018-10-21T08:44:13.000Z</time>
      </trkpt>
      <trkpt lat="46.51987" lon="4.81601">
        <ele>335.08</ele>
        <time>2018-10-21T08:44:28.000Z</time>
      </trkpt>
      <trkpt lat="46.51979" lon="4.81596">
        <ele>334.53</ele>
        <time>2018-10-21T08:44:33.000Z</time>
      </trkpt>
      <trkpt lat="46.51968" lon="4.81589">
        <ele>333.31</ele>
        <time>2018-10-21T08:44:39.000Z</time>
      </trkpt>
      <trkpt lat="46.51959" lon="4.81583">
        <ele>332.63</ele>
        <time>2018-10-21T08:44:45.000Z</time>
      </trkpt>
      <trkpt lat="46.5195" lon="4.81575">
        <ele>332.4</ele>
        <time>2018-10-21T08:44:50.000Z</time>
      </trkpt>
      <trkpt lat="46.51942" lon="4.81567">
        <ele>332.3</ele>
        <time>2018-10-21T08:44:55.000Z</time>
      </trkpt>
      <trkpt lat="46.51933" lon="4.8156">
        <ele>332.2</ele>
        <time>2018-10-21T08:45:00.000Z</time>
      </trkpt>
      <trkpt lat="46.51925" lon="4.81551">
        <ele>332.2</ele>
        <time>2018-10-21T08:45:06.000Z</time>
      </trkpt>
      <trkpt lat="46.51915" lon="4.81535">
        <ele>331.83</ele>
        <time>2018-10-21T08:45:16.000Z</time>
      </trkpt>
      <trkpt lat="46.51908" lon="4.81526">
        <ele>331.4</ele>
        <time>2018-10-21T08:45:22.000Z</time>
      </trkpt>
      <trkpt lat="46.519" lon="4.81518">
        <ele>331.33</ele>
        <time>2018-10-21T08:45:28.000Z</time>
      </trkpt>
      <trkpt lat="46.51892" lon="4.81509">
        <ele>331.2</ele>
        <time>2018-10-21T08:45:35.000Z</time>
      </trkpt>
      <trkpt lat="46.51885" lon="4.81498">
        <ele>330.68</ele>
        <time>2018-10-21T08:45:43.000Z</time>
      </trkpt>
      <trkpt lat="46.51872" lon="4.81496">
        <ele>325.25</ele>
        <time>2018-10-21T08:46:17.000Z</time>
      </trkpt>
      <trkpt lat="46.51858" lon="4.81486">
        <ele>321.75</ele>
        <time>2018-10-21T08:46:38.000Z</time>
      </trkpt>
      <trkpt lat="46.51845" lon="4.81484">
        <ele>321.03</ele>
        <time>2018-10-21T08:46:49.000Z</time>
      </trkpt>
      <trkpt lat="46.51832" lon="4.8148">
        <ele>321.98</ele>
        <time>2018-10-21T08:47:00.000Z</time>
      </trkpt>
      <trkpt lat="46.51823" lon="4.81478">
        <ele>321.9</ele>
        <time>2018-10-21T08:47:09.000Z</time>
      </trkpt>
      <trkpt lat="46.51811" lon="4.81476">
        <ele>321.6</ele>
        <time>2018-10-21T08:48:04.000Z</time>
      </trkpt>
      <trkpt lat="46.51803" lon="4.81484">
        <ele>321.58</ele>
        <time>2018-10-21T08:48:13.000Z</time>
      </trkpt>
      <trkpt lat="46.518" lon="4.81497">
        <ele>322.27</ele>
        <time>2018-10-21T08:48:29.000Z</time>
      </trkpt>
      <trkpt lat="46.51792" lon="4.81507">
        <ele>323.24</ele>
        <time>2018-10-21T08:48:37.000Z</time>
      </trkpt>
      <trkpt lat="46.51783" lon="4.81511">
        <ele>324.22</ele>
        <time>2018-10-21T08:48:53.000Z</time>
      </trkpt>
      <trkpt lat="46.51768" lon="4.81512">
        <ele>324.5</ele>
        <time>2018-10-21T08:49:53.000Z</time>
      </trkpt>
      <trkpt lat="46.51758" lon="4.8151">
        <ele>324.6</ele>
        <time>2018-10-21T08:49:59.000Z</time>
      </trkpt>
      <trkpt lat="46.51745" lon="4.81503">
        <ele>324.6</ele>
        <time>2018-10-21T08:50:04.000Z</time>
      </trkpt>
      <trkpt lat="46.51728" lon="4.81501">
        <ele>324.7</ele>
        <time>2018-10-21T08:50:09.000Z</time>
      </trkpt>
      <trkpt lat="46.51712" lon="4.81506">
        <ele>324.97</ele>
        <time>2018-10-21T08:50:14.000Z</time>
      </trkpt>
      <trkpt lat="46.51692" lon="4.81532">
        <ele>325.12</ele>
        <time>2018-10-21T08:50:19.000Z</time>
      </trkpt>
      <trkpt lat="46.51688" lon="4.81561">
        <ele>325.17</ele>
        <time>2018-10-21T08:50:24.000Z</time>
      </trkpt>
      <trkpt lat="46.51682" lon="4.81591">
        <ele>325.2</ele>
        <time>2018-10-21T08:50:29.000Z</time>
      </trkpt>
      <trkpt lat="46.51675" lon="4.81614">
        <ele>325.4</ele>
        <time>2018-10-21T08:50:34.000Z</time>
      </trkpt>
      <trkpt lat="46.51668" lon="4.81635">
        <ele>325.41</ele>
        <time>2018-10-21T08:50:39.000Z</time>
      </trkpt>
      <trkpt lat="46.51665" lon="4.8165">
        <ele>325.28</ele>
        <time>2018-10-21T08:50:44.000Z</time>
      </trkpt>
      <trkpt lat="46.51655" lon="4.81655">
        <ele>325.59</ele>
        <time>2018-10-21T08:50:54.000Z</time>
      </trkpt>
      <trkpt lat="46.51639" lon="4.81655">
        <ele>324.45</ele>
        <time>2018-10-21T08:55:00.000Z</time>
      </trkpt>
      <trkpt lat="46.51632" lon="4.81644">
        <ele>325.1</ele>
        <time>2018-10-21T08:59:51.000Z</time>
      </trkpt>
      <trkpt lat="46.51626" lon="4.81628">
        <ele>325.2</ele>
        <time>2018-10-21T09:00:21.000Z</time>
      </trkpt>
      <trkpt lat="46.51617" lon="4.81625">
        <ele>324.5</ele>
        <time>2018-10-21T09:04:52.000Z</time>
      </trkpt>
      <trkpt lat="46.51608" lon="4.81626">
        <ele>323.2</ele>
        <time>2018-10-21T09:05:49.000Z</time>
      </trkpt>
      <trkpt lat="46.51601" lon="4.81635">
        <ele>319.23</ele>
        <time>2018-10-21T09:09:20.000Z</time>
      </trkpt>
      <trkpt lat="46.51592" lon="4.8164">
        <ele>318.44</ele>
        <time>2018-10-21T09:14:51.000Z</time>
      </trkpt>
      <trkpt lat="46.51584" lon="4.81632">
        <ele>319.7</ele>
        <time>2018-10-21T09:14:57.000Z</time>
      </trkpt>
      <trkpt lat="46.51578" lon="4.81622">
        <ele>321.4</ele>
        <time>2018-10-21T09:15:03.000Z</time>
      </trkpt>
      <trkpt lat="46.51568" lon="4.81616">
        <ele>322.9</ele>
        <time>2018-10-21T09:15:08.000Z</time>
      </trkpt>
      <trkpt lat="46.51557" lon="4.81607">
        <ele>324.49</ele>
        <time>2018-10-21T09:15:13.000Z</time>
      </trkpt>
      <trkpt lat="46.51537" lon="4.81592">
        <ele>325.93</ele>
        <time>2018-10-21T09:15:18.000Z</time>
      </trkpt>
      <trkpt lat="46.51508" lon="4.81579">
        <ele>327.57</ele>
        <time>2018-10-21T09:15:23.000Z</time>
      </trkpt>
      <trkpt lat="46.51484" lon="4.8157">
        <ele>329.17</ele>
        <time>2018-10-21T09:15:28.000Z</time>
      </trkpt>
      <trkpt lat="46.51466" lon="4.81563">
        <ele>330.99</ele>
        <time>2018-10-21T09:15:33.000Z</time>
      </trkpt>
      <trkpt lat="46.51454" lon="4.81565">
        <ele>332.87</ele>
        <time>2018-10-21T09:15:38.000Z</time>
      </trkpt>
      <trkpt lat="46.51446" lon="4.81575">
        <ele>336.15</ele>
        <time>2018-10-21T09:16:40.000Z</time>
      </trkpt>
      <trkpt lat="46.51441" lon="4.8159">
        <ele>336.2</ele>
        <time>2018-10-21T09:16:46.000Z</time>
      </trkpt>
      <trkpt lat="46.51437" lon="4.81603">
        <ele>336.1</ele>
        <time>2018-10-21T09:16:51.000Z</time>
      </trkpt>
      <trkpt lat="46.5143" lon="4.81618">
        <ele>335.82</ele>
        <time>2018-10-21T09:16:57.000Z</time>
      </trkpt>
      <trkpt lat="46.51425" lon="4.81636">
        <ele>335.6</ele>
        <time>2018-10-21T09:17:02.000Z</time>
      </trkpt>
      <trkpt lat="46.51423" lon="4.81652">
        <ele>335.23</ele>
        <time>2018-10-21T09:17:07.000Z</time>
      </trkpt>
      <trkpt lat="46.51418" lon="4.81671">
        <ele>334.73</ele>
        <time>2018-10-21T09:17:12.000Z</time>
      </trkpt>
      <trkpt lat="46.51416" lon="4.81685">
        <ele>334.03</ele>
        <time>2018-10-21T09:17:17.000Z</time>
      </trkpt>
      <trkpt lat="46.51414" lon="4.81701">
        <ele>333.25</ele>
        <time>2018-10-21T09:17:23.000Z</time>
      </trkpt>
      <trkpt lat="46.51405" lon="4.81702">
        <ele>332.72</ele>
        <time>2018-10-21T09:17:29.000Z</time>
      </trkpt>
      <trkpt lat="46.51396" lon="4.81706">
        <ele>332.23</ele>
        <time>2018-10-21T09:17:34.000Z</time>
      </trkpt>
      <trkpt lat="46.51376" lon="4.81715">
        <ele>331.27</ele>
        <time>2018-10-21T09:17:39.000Z</time>
      </trkpt>
      <trkpt lat="46.51356" lon="4.81711">
        <ele>330.63</ele>
        <time>2018-10-21T09:17:44.000Z</time>
      </trkpt>
      <trkpt lat="46.51324" lon="4.81725">
        <ele>329.47</ele>
        <time>2018-10-21T09:17:49.000Z</time>
      </trkpt>
      <trkpt lat="46.51304" lon="4.81726">
        <ele>328.86</ele>
        <time>2018-10-21T09:17:54.000Z</time>
      </trkpt>
      <trkpt lat="46.51282" lon="4.81715">
        <ele>327.96</ele>
        <time>2018-10-21T09:17:59.000Z</time>
      </trkpt>
      <trkpt lat="46.51259" lon="4.81708">
        <ele>327.43</ele>
        <time>2018-10-21T09:18:04.000Z</time>
      </trkpt>
      <trkpt lat="46.51232" lon="4.817">
        <ele>326.65</ele>
        <time>2018-10-21T09:18:09.000Z</time>
      </trkpt>
      <trkpt lat="46.512" lon="4.81691">
        <ele>325.78</ele>
        <time>2018-10-21T09:18:14.000Z</time>
      </trkpt>
      <trkpt lat="46.51164" lon="4.81684">
        <ele>324.85</ele>
        <time>2018-10-21T09:18:19.000Z</time>
      </trkpt>
      <trkpt lat="46.51125" lon="4.81685">
        <ele>323.49</ele>
        <time>2018-10-21T09:18:24.000Z</time>
      </trkpt>
      <trkpt lat="46.51087" lon="4.8168">
        <ele>322.26</ele>
        <time>2018-10-21T09:18:29.000Z</time>
      </trkpt>
      <trkpt lat="46.51053" lon="4.81673">
        <ele>321.45</ele>
        <time>2018-10-21T09:18:34.000Z</time>
      </trkpt>
      <trkpt lat="46.51023" lon="4.81675">
        <ele>320.46</ele>
        <time>2018-10-21T09:18:39.000Z</time>
      </trkpt>
      <trkpt lat="46.50996" lon="4.81685">
        <ele>319.4</ele>
        <time>2018-10-21T09:18:44.000Z</time>
      </trkpt>
      <trkpt lat="46.50973" lon="4.8169">
        <ele>318.9</ele>
        <time>2018-10-21T09:18:49.000Z</time>
      </trkpt>
      <trkpt lat="46.5095" lon="4.81694">
        <ele>318.87</ele>
        <time>2018-10-21T09:18:54.000Z</time>
      </trkpt>
      <trkpt lat="46.50921" lon="4.81698">
        <ele>318.32</ele>
        <time>2018-10-21T09:18:59.000Z</time>
      </trkpt>
      <trkpt lat="46.509" lon="4.81716">
        <ele>317.45</ele>
        <time>2018-10-21T09:19:04.000Z</time>
      </trkpt>
      <trkpt lat="46.50891" lon="4.81733">
        <ele>317.48</ele>
        <time>2018-10-21T09:19:09.000Z</time>
      </trkpt>
      <trkpt lat="46.50885" lon="4.81747">
        <ele>317.69</ele>
        <time>2018-10-21T09:19:14.000Z</time>
      </trkpt>
      <trkpt lat="46.50878" lon="4.81757">
        <ele>317.68</ele>
        <time>2018-10-21T09:19:19.000Z</time>
      </trkpt>
      <trkpt lat="46.50871" lon="4.8177">
        <ele>317.87</ele>
        <time>2018-10-21T09:19:24.000Z</time>
      </trkpt>
      <trkpt lat="46.50864" lon="4.81781">
        <ele>318.06</ele>
        <time>2018-10-21T09:19:29.000Z</time>
      </trkpt>
      <trkpt lat="46.50858" lon="4.81793">
        <ele>318.26</ele>
        <time>2018-10-21T09:19:34.000Z</time>
      </trkpt>
      <trkpt lat="46.50852" lon="4.81805">
        <ele>318.38</ele>
        <time>2018-10-21T09:19:39.000Z</time>
      </trkpt>
      <trkpt lat="46.50846" lon="4.81817">
        <ele>318.93</ele>
        <time>2018-10-21T09:19:44.000Z</time>
      </trkpt>
      <trkpt lat="46.50842" lon="4.81831">
        <ele>319.65</ele>
        <time>2018-10-21T09:19:50.000Z</time>
      </trkpt>
      <trkpt lat="46.50838" lon="4.81845">
        <ele>320.33</ele>
        <time>2018-10-21T09:19:56.000Z</time>
      </trkpt>
      <trkpt lat="46.50834" lon="4.8186">
        <ele>320.86</ele>
        <time>2018-10-21T09:20:01.000Z</time>
      </trkpt>
      <trkpt lat="46.50826" lon="4.81872">
        <ele>321.26</ele>
        <time>2018-10-21T09:20:06.000Z</time>
      </trkpt>
      <trkpt lat="46.50821" lon="4.81886">
        <ele>321.93</ele>
        <time>2018-10-21T09:20:11.000Z</time>
      </trkpt>
      <trkpt lat="46.50814" lon="4.81895">
        <ele>322.55</ele>
        <time>2018-10-21T09:20:16.000Z</time>
      </trkpt>
      <trkpt lat="46.50804" lon="4.81906">
        <ele>323.15</ele>
        <time>2018-10-21T09:20:21.000Z</time>
      </trkpt>
      <trkpt lat="46.50791" lon="4.81918">
        <ele>323.85</ele>
        <time>2018-10-21T09:20:26.000Z</time>
      </trkpt>
      <trkpt lat="46.50774" lon="4.81924">
        <ele>324.74</ele>
        <time>2018-10-21T09:20:31.000Z</time>
      </trkpt>
      <trkpt lat="46.50755" lon="4.81927">
        <ele>326.35</ele>
        <time>2018-10-21T09:20:36.000Z</time>
      </trkpt>
      <trkpt lat="46.50746" lon="4.81935">
        <ele>328.53</ele>
        <time>2018-10-21T09:20:41.000Z</time>
      </trkpt>
      <trkpt lat="46.5075" lon="4.81948">
        <ele>328.21</ele>
        <time>2018-10-21T09:21:25.000Z</time>
      </trkpt>
      <trkpt lat="46.50759" lon="4.81947">
        <ele>328.09</ele>
        <time>2018-10-21T09:21:30.000Z</time>
      </trkpt>
      <trkpt lat="46.50787" lon="4.81927">
        <ele>328.09</ele>
        <time>2018-10-21T09:21:35.000Z</time>
      </trkpt>
      <trkpt lat="46.50818" lon="4.81977">
        <ele>327.99</ele>
        <time>2018-10-21T09:21:40.000Z</time>
      </trkpt>
      <trkpt lat="46.50798" lon="4.82026">
        <ele>319.4</ele>
        <time>2018-10-21T09:21:45.000Z</time>
      </trkpt>
      <trkpt lat="46.5077" lon="4.81997">
        <ele>316.8</ele>
        <time>2018-10-21T09:21:50.000Z</time>
      </trkpt>
      <trkpt lat="46.50752" lon="4.81974">
        <ele>315.89</ele>
        <time>2018-10-21T09:21:55.000Z</time>
      </trkpt>
      <trkpt lat="46.50743" lon="4.81974">
        <ele>317.78</ele>
        <time>2018-10-21T09:23:51.000Z</time>
      </trkpt>
      <trkpt lat="46.50732" lon="4.81983">
        <ele>319.56</ele>
        <time>2018-10-21T09:23:56.000Z</time>
      </trkpt>
      <trkpt lat="46.50723" lon="4.81988">
        <ele>321.55</ele>
        <time>2018-10-21T09:24:01.000Z</time>
      </trkpt>
      <trkpt lat="46.50713" lon="4.82002">
        <ele>323.75</ele>
        <time>2018-10-21T09:24:06.000Z</time>
      </trkpt>
      <trkpt lat="46.50699" lon="4.82021">
        <ele>325.83</ele>
        <time>2018-10-21T09:24:11.000Z</time>
      </trkpt>
      <trkpt lat="46.5069" lon="4.82045">
        <ele>327.85</ele>
        <time>2018-10-21T09:24:16.000Z</time>
      </trkpt>
      <trkpt lat="46.50685" lon="4.82066">
        <ele>330.15</ele>
        <time>2018-10-21T09:24:21.000Z</time>
      </trkpt>
      <trkpt lat="46.50679" lon="4.82085">
        <ele>332.52</ele>
        <time>2018-10-21T09:24:26.000Z</time>
      </trkpt>
      <trkpt lat="46.50674" lon="4.82104">
        <ele>334.75</ele>
        <time>2018-10-21T09:24:31.000Z</time>
      </trkpt>
      <trkpt lat="46.50673" lon="4.82125">
        <ele>337.05</ele>
        <time>2018-10-21T09:24:36.000Z</time>
      </trkpt>
      <trkpt lat="46.50672" lon="4.82147">
        <ele>338.98</ele>
        <time>2018-10-21T09:24:41.000Z</time>
      </trkpt>
      <trkpt lat="46.50669" lon="4.8217">
        <ele>340.39</ele>
        <time>2018-10-21T09:24:46.000Z</time>
      </trkpt>
      <trkpt lat="46.50666" lon="4.82189">
        <ele>341.69</ele>
        <time>2018-10-21T09:24:51.000Z</time>
      </trkpt>
      <trkpt lat="46.50662" lon="4.82203">
        <ele>343.18</ele>
        <time>2018-10-21T09:24:56.000Z</time>
      </trkpt>
      <trkpt lat="46.50659" lon="4.82217">
        <ele>345.35</ele>
        <time>2018-10-21T09:25:02.000Z</time>
      </trkpt>
      <trkpt lat="46.50655" lon="4.8223">
        <ele>347.45</ele>
        <time>2018-10-21T09:25:07.000Z</time>
      </trkpt>
      <trkpt lat="46.50651" lon="4.82243">
        <ele>349.75</ele>
        <time>2018-10-21T09:25:12.000Z</time>
      </trkpt>
      <trkpt lat="46.50649" lon="4.82265">
        <ele>352.15</ele>
        <time>2018-10-21T09:25:17.000Z</time>
      </trkpt>
      <trkpt lat="46.50647" lon="4.82287">
        <ele>354.25</ele>
        <time>2018-10-21T09:25:22.000Z</time>
      </trkpt>
      <trkpt lat="46.50639" lon="4.82315">
        <ele>355.44</ele>
        <time>2018-10-21T09:25:27.000Z</time>
      </trkpt>
      <trkpt lat="46.50637" lon="4.82335">
        <ele>357.55</ele>
        <time>2018-10-21T09:25:32.000Z</time>
      </trkpt>
      <trkpt lat="46.50631" lon="4.82347">
        <ele>360.1</ele>
        <time>2018-10-21T09:25:37.000Z</time>
      </trkpt>
      <trkpt lat="46.50622" lon="4.82371">
        <ele>362.04</ele>
        <time>2018-10-21T09:25:42.000Z</time>
      </trkpt>
      <trkpt lat="46.50614" lon="4.82405">
        <ele>360.34</ele>
        <time>2018-10-21T09:25:47.000Z</time>
      </trkpt>
      <trkpt lat="46.50608" lon="4.82427">
        <ele>358.63</ele>
        <time>2018-10-21T09:25:52.000Z</time>
      </trkpt>
      <trkpt lat="46.50596" lon="4.82427">
        <ele>360.06</ele>
        <time>2018-10-21T09:25:57.000Z</time>
      </trkpt>
      <trkpt lat="46.50585" lon="4.82423">
        <ele>361.93</ele>
        <time>2018-10-21T09:26:02.000Z</time>
      </trkpt>
      <trkpt lat="46.50573" lon="4.82419">
        <ele>364.03</ele>
        <time>2018-10-21T09:26:07.000Z</time>
      </trkpt>
      <trkpt lat="46.50556" lon="4.82421">
        <ele>366.25</ele>
        <time>2018-10-21T09:26:12.000Z</time>
      </trkpt>
      <trkpt lat="46.5054" lon="4.82417">
        <ele>368.53</ele>
        <time>2018-10-21T09:26:17.000Z</time>
      </trkpt>
      <trkpt lat="46.50523" lon="4.82411">
        <ele>370.25</ele>
        <time>2018-10-21T09:26:22.000Z</time>
      </trkpt>
      <trkpt lat="46.50508" lon="4.82404">
        <ele>372.17</ele>
        <time>2018-10-21T09:26:27.000Z</time>
      </trkpt>
      <trkpt lat="46.50489" lon="4.82399">
        <ele>373.32</ele>
        <time>2018-10-21T09:26:32.000Z</time>
      </trkpt>
      <trkpt lat="46.50473" lon="4.82391">
        <ele>375.23</ele>
        <time>2018-10-21T09:26:37.000Z</time>
      </trkpt>
      <trkpt lat="46.5044" lon="4.824">
        <ele>377.22</ele>
        <time>2018-10-21T09:26:42.000Z</time>
      </trkpt>
      <trkpt lat="46.50414" lon="4.82452">
        <ele>377.64</ele>
        <time>2018-10-21T09:26:47.000Z</time>
      </trkpt>
      <trkpt lat="46.50401" lon="4.8251">
        <ele>375.88</ele>
        <time>2018-10-21T09:26:52.000Z</time>
      </trkpt>
      <trkpt lat="46.50398" lon="4.82559">
        <ele>369.42</ele>
        <time>2018-10-21T09:26:57.000Z</time>
      </trkpt>
      <trkpt lat="46.50389" lon="4.82565">
        <ele>361.19</ele>
        <time>2018-10-21T09:27:03.000Z</time>
      </trkpt>
      <trkpt lat="46.50374" lon="4.8256">
        <ele>356.65</ele>
        <time>2018-10-21T09:27:08.000Z</time>
      </trkpt>
      <trkpt lat="46.50357" lon="4.82555">
        <ele>353.07</ele>
        <time>2018-10-21T09:27:13.000Z</time>
      </trkpt>
      <trkpt lat="46.50337" lon="4.82546">
        <ele>346.93</ele>
        <time>2018-10-21T09:27:18.000Z</time>
      </trkpt>
      <trkpt lat="46.50305" lon="4.82534">
        <ele>340.18</ele>
        <time>2018-10-21T09:27:23.000Z</time>
      </trkpt>
      <trkpt lat="46.50278" lon="4.82526">
        <ele>336.38</ele>
        <time>2018-10-21T09:27:28.000Z</time>
      </trkpt>
      <trkpt lat="46.50256" lon="4.82519">
        <ele>333.46</ele>
        <time>2018-10-21T09:27:33.000Z</time>
      </trkpt>
      <trkpt lat="46.50236" lon="4.82528">
        <ele>330.07</ele>
        <time>2018-10-21T09:27:38.000Z</time>
      </trkpt>
      <trkpt lat="46.50215" lon="4.82535">
        <ele>326.57</ele>
        <time>2018-10-21T09:27:43.000Z</time>
      </trkpt>
      <trkpt lat="46.50192" lon="4.82529">
        <ele>323.66</ele>
        <time>2018-10-21T09:27:48.000Z</time>
      </trkpt>
      <trkpt lat="46.50169" lon="4.82522">
        <ele>320.46</ele>
        <time>2018-10-21T09:27:53.000Z</time>
      </trkpt>
      <trkpt lat="46.50144" lon="4.82509">
        <ele>317.5</ele>
        <time>2018-10-21T09:27:58.000Z</time>
      </trkpt>
      <trkpt lat="46.50116" lon="4.82498">
        <ele>313.21</ele>
        <time>2018-10-21T09:28:03.000Z</time>
      </trkpt>
      <trkpt lat="46.50088" lon="4.82507">
        <ele>304.65</ele>
        <time>2018-10-21T09:28:08.000Z</time>
      </trkpt>
      <trkpt lat="46.50064" lon="4.82499">
        <ele>298.94</ele>
        <time>2018-10-21T09:28:13.000Z</time>
      </trkpt>
      <trkpt lat="46.50041" lon="4.82486">
        <ele>295.85</ele>
        <time>2018-10-21T09:28:18.000Z</time>
      </trkpt>
      <trkpt lat="46.50017" lon="4.82474">
        <ele>290.59</ele>
        <time>2018-10-21T09:28:23.000Z</time>
      </trkpt>
      <trkpt lat="46.49991" lon="4.82465">
        <ele>283.76</ele>
        <time>2018-10-21T09:28:28.000Z</time>
      </trkpt>
      <trkpt lat="46.49963" lon="4.82459">
        <ele>277.51</ele>
        <time>2018-10-21T09:28:33.000Z</time>
      </trkpt>
      <trkpt lat="46.49932" lon="4.82461">
        <ele>274.32</ele>
        <time>2018-10-21T09:28:38.000Z</time>
      </trkpt>
      <trkpt lat="46.49903" lon="4.82452">
        <ele>271.3</ele>
        <time>2018-10-21T09:28:43.000Z</time>
      </trkpt>
      <trkpt lat="46.49872" lon="4.82439">
        <ele>268.26</ele>
        <time>2018-10-21T09:28:48.000Z</time>
      </trkpt>
      <trkpt lat="46.49845" lon="4.82425">
        <ele>265.2</ele>
        <time>2018-10-21T09:28:53.000Z</time>
      </trkpt>
      <trkpt lat="46.49817" lon="4.82416">
        <ele>261.72</ele>
        <time>2018-10-21T09:28:58.000Z</time>
      </trkpt>
      <trkpt lat="46.49789" lon="4.82402">
        <ele>258.11</ele>
        <time>2018-10-21T09:29:03.000Z</time>
      </trkpt>
      <trkpt lat="46.4976" lon="4.82382">
        <ele>254.52</ele>
        <time>2018-10-21T09:29:08.000Z</time>
      </trkpt>
      <trkpt lat="46.49735" lon="4.82367">
        <ele>250.32</ele>
        <time>2018-10-21T09:29:13.000Z</time>
      </trkpt>
      <trkpt lat="46.49717" lon="4.82368">
        <ele>246.92</ele>
        <time>2018-10-21T09:29:18.000Z</time>
      </trkpt>
      <trkpt lat="46.49695" lon="4.82363">
        <ele>243.31</ele>
        <time>2018-10-21T09:29:23.000Z</time>
      </trkpt>
      <trkpt lat="46.49674" lon="4.82359">
        <ele>239.73</ele>
        <time>2018-10-21T09:29:28.000Z</time>
      </trkpt>
      <trkpt lat="46.49648" lon="4.8236">
        <ele>235.81</ele>
        <time>2018-10-21T09:29:33.000Z</time>
      </trkpt>
      <trkpt lat="46.49621" lon="4.82362">
        <ele>232.01</ele>
        <time>2018-10-21T09:29:38.000Z</time>
      </trkpt>
      <trkpt lat="46.49601" lon="4.8235">
        <ele>228.46</ele>
        <time>2018-10-21T09:29:43.000Z</time>
      </trkpt>
      <trkpt lat="46.49576" lon="4.82347">
        <ele>224.32</ele>
        <time>2018-10-21T09:29:48.000Z</time>
      </trkpt>
      <trkpt lat="46.49547" lon="4.82351">
        <ele>220.63</ele>
        <time>2018-10-21T09:29:53.000Z</time>
      </trkpt>
      <trkpt lat="46.49517" lon="4.82353">
        <ele>217.7</ele>
        <time>2018-10-21T09:29:58.000Z</time>
      </trkpt>
      <trkpt lat="46.49488" lon="4.82362">
        <ele>215.22</ele>
        <time>2018-10-21T09:30:03.000Z</time>
      </trkpt>
      <trkpt lat="46.4947" lon="4.82374">
        <ele>212.3</ele>
        <time>2018-10-21T09:30:08.000Z</time>
      </trkpt>
      <trkpt lat="46.49451" lon="4.82379">
        <ele>209.37</ele>
        <time>2018-10-21T09:30:13.000Z</time>
      </trkpt>
      <trkpt lat="46.49433" lon="4.82378">
        <ele>206.17</ele>
        <time>2018-10-21T09:30:18.000Z</time>
      </trkpt>
      <trkpt lat="46.49417" lon="4.82378">
        <ele>203.26</ele>
        <time>2018-10-21T09:30:23.000Z</time>
      </trkpt>
      <trkpt lat="46.49399" lon="4.82375">
        <ele>200.37</ele>
        <time>2018-10-21T09:30:28.000Z</time>
      </trkpt>
      <trkpt lat="46.4938" lon="4.82374">
        <ele>198.04</ele>
        <time>2018-10-21T09:30:33.000Z</time>
      </trkpt>
      <trkpt lat="46.49369" lon="4.82356">
        <ele>195.27</ele>
        <time>2018-10-21T09:30:38.000Z</time>
      </trkpt>
      <trkpt lat="46.49376" lon="4.82324">
        <ele>192.35</ele>
        <time>2018-10-21T09:30:43.000Z</time>
      </trkpt>
      <trkpt lat="46.49389" lon="4.82297">
        <ele>189.74</ele>
        <time>2018-10-21T09:30:48.000Z</time>
      </trkpt>
      <trkpt lat="46.49397" lon="4.8227">
        <ele>187.31</ele>
        <time>2018-10-21T09:30:53.000Z</time>
      </trkpt>
      <trkpt lat="46.49399" lon="4.82242">
        <ele>185.09</ele>
        <time>2018-10-21T09:30:58.000Z</time>
      </trkpt>
      <trkpt lat="46.49398" lon="4.82213">
        <ele>183.5</ele>
        <time>2018-10-21T09:31:03.000Z</time>
      </trkpt>
      <trkpt lat="46.49402" lon="4.82187">
        <ele>181.5</ele>
        <time>2018-10-21T09:31:08.000Z</time>
      </trkpt>
      <trkpt lat="46.49399" lon="4.8217">
        <ele>180.3</ele>
        <time>2018-10-21T09:31:13.000Z</time>
      </trkpt>
      <trkpt lat="46.49388" lon="4.82163">
        <ele>177.67</ele>
        <time>2018-10-21T09:31:26.000Z</time>
      </trkpt>
      <trkpt lat="46.49378" lon="4.82158">
        <ele>176.54</ele>
        <time>2018-10-21T09:31:31.000Z</time>
      </trkpt>
      <trkpt lat="46.49371" lon="4.82148">
        <ele>174.87</ele>
        <time>2018-10-21T09:31:37.000Z</time>
      </trkpt>
      <trkpt lat="46.49365" lon="4.82138">
        <ele>173.44</ele>
        <time>2018-10-21T09:31:44.000Z</time>
      </trkpt>
      <trkpt lat="46.49356" lon="4.82129">
        <ele>172.32</ele>
        <time>2018-10-21T09:31:49.000Z</time>
      </trkpt>
      <trkpt lat="46.49349" lon="4.8212">
        <ele>171.97</ele>
        <time>2018-10-21T09:31:54.000Z</time>
      </trkpt>
      <trkpt lat="46.49337" lon="4.82125">
        <ele>171.73</ele>
        <time>2018-10-21T09:31:59.000Z</time>
      </trkpt>
      <trkpt lat="46.49311" lon="4.82132">
        <ele>173</ele>
        <time>2018-10-21T09:32:04.000Z</time>
      </trkpt>
      <trkpt lat="46.49283" lon="4.82143">
        <ele>175.24</ele>
        <time>2018-10-21T09:32:09.000Z</time>
      </trkpt>
      <trkpt lat="46.49259" lon="4.8215">
        <ele>177.11</ele>
        <time>2018-10-21T09:32:14.000Z</time>
      </trkpt>
      <trkpt lat="46.49234" lon="4.82154">
        <ele>181.16</ele>
        <time>2018-10-21T09:32:19.000Z</time>
      </trkpt>
      <trkpt lat="46.4921" lon="4.82151">
        <ele>183.43</ele>
        <time>2018-10-21T09:32:24.000Z</time>
      </trkpt>
      <trkpt lat="46.49187" lon="4.82146">
        <ele>185.57</ele>
        <time>2018-10-21T09:32:29.000Z</time>
      </trkpt>
      <trkpt lat="46.49158" lon="4.82138">
        <ele>186.77</ele>
        <time>2018-10-21T09:32:34.000Z</time>
      </trkpt>
      <trkpt lat="46.49127" lon="4.82129">
        <ele>188.49</ele>
        <time>2018-10-21T09:32:39.000Z</time>
      </trkpt>
      <trkpt lat="46.49095" lon="4.82119">
        <ele>189.57</ele>
        <time>2018-10-21T09:32:44.000Z</time>
      </trkpt>
      <trkpt lat="46.49067" lon="4.82114">
        <ele>190.01</ele>
        <time>2018-10-21T09:32:49.000Z</time>
      </trkpt>
      <trkpt lat="46.49046" lon="4.82109">
        <ele>190.74</ele>
        <time>2018-10-21T09:32:54.000Z</time>
      </trkpt>
      <trkpt lat="46.49034" lon="4.82096">
        <ele>191.31</ele>
        <time>2018-10-21T09:32:59.000Z</time>
      </trkpt>
      <trkpt lat="46.49026" lon="4.82083">
        <ele>192.1</ele>
        <time>2018-10-21T09:33:04.000Z</time>
      </trkpt>
      <trkpt lat="46.49018" lon="4.82072">
        <ele>192.46</ele>
        <time>2018-10-21T09:33:09.000Z</time>
      </trkpt>
      <trkpt lat="46.4901" lon="4.82065">
        <ele>193.11</ele>
        <time>2018-10-21T09:33:15.000Z</time>
      </trkpt>
      <trkpt lat="46.49001" lon="4.82059">
        <ele>193.98</ele>
        <time>2018-10-21T09:33:20.000Z</time>
      </trkpt>
      <trkpt lat="46.48993" lon="4.8205">
        <ele>195.54</ele>
        <time>2018-10-21T09:33:25.000Z</time>
      </trkpt>
      <trkpt lat="46.48984" lon="4.82044">
        <ele>196.97</ele>
        <time>2018-10-21T09:33:30.000Z</time>
      </trkpt>
      <trkpt lat="46.48976" lon="4.82036">
        <ele>198.47</ele>
        <time>2018-10-21T09:33:35.000Z</time>
      </trkpt>
      <trkpt lat="46.48968" lon="4.82028">
        <ele>200.66</ele>
        <time>2018-10-21T09:33:42.000Z</time>
      </trkpt>
      <trkpt lat="46.4896" lon="4.82021">
        <ele>202.29</ele>
        <time>2018-10-21T09:33:48.000Z</time>
      </trkpt>
      <trkpt lat="46.48951" lon="4.82013">
        <ele>204.24</ele>
        <time>2018-10-21T09:33:54.000Z</time>
      </trkpt>
      <trkpt lat="46.48943" lon="4.82004">
        <ele>205.73</ele>
        <time>2018-10-21T09:33:59.000Z</time>
      </trkpt>
      <trkpt lat="46.48932" lon="4.81998">
        <ele>207.63</ele>
        <time>2018-10-21T09:34:04.000Z</time>
      </trkpt>
      <trkpt lat="46.48919" lon="4.81987">
        <ele>209.43</ele>
        <time>2018-10-21T09:34:09.000Z</time>
      </trkpt>
      <trkpt lat="46.48906" lon="4.81974">
        <ele>212.41</ele>
        <time>2018-10-21T09:34:14.000Z</time>
      </trkpt>
      <trkpt lat="46.48892" lon="4.81962">
        <ele>214.26</ele>
        <time>2018-10-21T09:34:19.000Z</time>
      </trkpt>
      <trkpt lat="46.48879" lon="4.81954">
        <ele>216.13</ele>
        <time>2018-10-21T09:34:24.000Z</time>
      </trkpt>
      <trkpt lat="46.48863" lon="4.81946">
        <ele>217.96</ele>
        <time>2018-10-21T09:34:29.000Z</time>
      </trkpt>
      <trkpt lat="46.48847" lon="4.81936">
        <ele>219.26</ele>
        <time>2018-10-21T09:34:34.000Z</time>
      </trkpt>
      <trkpt lat="46.48834" lon="4.81919">
        <ele>220.3</ele>
        <time>2018-10-21T09:34:39.000Z</time>
      </trkpt>
      <trkpt lat="46.48833" lon="4.81893">
        <ele>221.2</ele>
        <time>2018-10-21T09:34:44.000Z</time>
      </trkpt>
      <trkpt lat="46.48828" lon="4.81865">
        <ele>222.44</ele>
        <time>2018-10-21T09:34:49.000Z</time>
      </trkpt>
      <trkpt lat="46.48817" lon="4.81843">
        <ele>223.67</ele>
        <time>2018-10-21T09:34:54.000Z</time>
      </trkpt>
      <trkpt lat="46.48803" lon="4.81821">
        <ele>224.33</ele>
        <time>2018-10-21T09:34:59.000Z</time>
      </trkpt>
      <trkpt lat="46.48787" lon="4.81796">
        <ele>224.66</ele>
        <time>2018-10-21T09:35:04.000Z</time>
      </trkpt>
      <trkpt lat="46.4877" lon="4.81775">
        <ele>224.95</ele>
        <time>2018-10-21T09:35:09.000Z</time>
      </trkpt>
      <trkpt lat="46.48753" lon="4.81753">
        <ele>224.69</ele>
        <time>2018-10-21T09:35:14.000Z</time>
      </trkpt>
      <trkpt lat="46.48735" lon="4.81735">
        <ele>224.66</ele>
        <time>2018-10-21T09:35:19.000Z</time>
      </trkpt>
      <trkpt lat="46.48717" lon="4.81717">
        <ele>224.92</ele>
        <time>2018-10-21T09:35:24.000Z</time>
      </trkpt>
      <trkpt lat="46.48701" lon="4.81698">
        <ele>225.23</ele>
        <time>2018-10-21T09:35:29.000Z</time>
      </trkpt>
      <trkpt lat="46.48682" lon="4.81682">
        <ele>225.56</ele>
        <time>2018-10-21T09:35:34.000Z</time>
      </trkpt>
      <trkpt lat="46.48663" lon="4.81666">
        <ele>225.09</ele>
        <time>2018-10-21T09:35:39.000Z</time>
      </trkpt>
      <trkpt lat="46.48644" lon="4.81649">
        <ele>224.88</ele>
        <time>2018-10-21T09:35:44.000Z</time>
      </trkpt>
      <trkpt lat="46.48623" lon="4.81631">
        <ele>224.69</ele>
        <time>2018-10-21T09:35:49.000Z</time>
      </trkpt>
      <trkpt lat="46.48594" lon="4.81617">
        <ele>224.48</ele>
        <time>2018-10-21T09:35:54.000Z</time>
      </trkpt>
      <trkpt lat="46.48557" lon="4.81606">
        <ele>223.28</ele>
        <time>2018-10-21T09:35:59.000Z</time>
      </trkpt>
      <trkpt lat="46.48508" lon="4.81594">
        <ele>221.59</ele>
        <time>2018-10-21T09:36:04.000Z</time>
      </trkpt>
      <trkpt lat="46.48457" lon="4.81577">
        <ele>219.69</ele>
        <time>2018-10-21T09:36:09.000Z</time>
      </trkpt>
      <trkpt lat="46.48404" lon="4.81563">
        <ele>217.25</ele>
        <time>2018-10-21T09:36:14.000Z</time>
      </trkpt>
      <trkpt lat="46.4836" lon="4.81542">
        <ele>214.18</ele>
        <time>2018-10-21T09:36:19.000Z</time>
      </trkpt>
      <trkpt lat="46.48336" lon="4.81523">
        <ele>210.94</ele>
        <time>2018-10-21T09:36:24.000Z</time>
      </trkpt>
      <trkpt lat="46.48313" lon="4.81511">
        <ele>207.95</ele>
        <time>2018-10-21T09:36:29.000Z</time>
      </trkpt>
      <trkpt lat="46.48286" lon="4.81497">
        <ele>204.71</ele>
        <time>2018-10-21T09:36:34.000Z</time>
      </trkpt>
      <trkpt lat="46.48263" lon="4.81485">
        <ele>201.16</ele>
        <time>2018-10-21T09:36:39.000Z</time>
      </trkpt>
      <trkpt lat="46.48236" lon="4.81473">
        <ele>198.62</ele>
        <time>2018-10-21T09:36:44.000Z</time>
      </trkpt>
      <trkpt lat="46.48205" lon="4.81455">
        <ele>196.49</ele>
        <time>2018-10-21T09:36:49.000Z</time>
      </trkpt>
      <trkpt lat="46.48182" lon="4.81431">
        <ele>194.32</ele>
        <time>2018-10-21T09:36:54.000Z</time>
      </trkpt>
      <trkpt lat="46.48157" lon="4.81409">
        <ele>192.12</ele>
        <time>2018-10-21T09:36:59.000Z</time>
      </trkpt>
      <trkpt lat="46.48118" lon="4.81395">
        <ele>189.43</ele>
        <time>2018-10-21T09:37:04.000Z</time>
      </trkpt>
      <trkpt lat="46.48085" lon="4.81363">
        <ele>186.67</ele>
        <time>2018-10-21T09:37:09.000Z</time>
      </trkpt>
      <trkpt lat="46.48059" lon="4.8134">
        <ele>183.75</ele>
        <time>2018-10-21T09:37:14.000Z</time>
      </trkpt>
      <trkpt lat="46.48026" lon="4.81342">
        <ele>180.92</ele>
        <time>2018-10-21T09:37:19.000Z</time>
      </trkpt>
      <trkpt lat="46.47992" lon="4.81343">
        <ele>178.3</ele>
        <time>2018-10-21T09:37:24.000Z</time>
      </trkpt>
      <trkpt lat="46.4796" lon="4.81334">
        <ele>176.06</ele>
        <time>2018-10-21T09:37:29.000Z</time>
      </trkpt>
      <trkpt lat="46.47924" lon="4.81331">
        <ele>174.73</ele>
        <time>2018-10-21T09:37:34.000Z</time>
      </trkpt>
      <trkpt lat="46.47898" lon="4.81336">
        <ele>173.94</ele>
        <time>2018-10-21T09:37:39.000Z</time>
      </trkpt>
      <trkpt lat="46.479" lon="4.8136">
        <ele>173.21</ele>
        <time>2018-10-21T09:37:44.000Z</time>
      </trkpt>
      <trkpt lat="46.47914" lon="4.814">
        <ele>172.55</ele>
        <time>2018-10-21T09:37:49.000Z</time>
      </trkpt>
      <trkpt lat="46.47933" lon="4.8144">
        <ele>172.26</ele>
        <time>2018-10-21T09:37:54.000Z</time>
      </trkpt>
      <trkpt lat="46.47952" lon="4.8147">
        <ele>172.05</ele>
        <time>2018-10-21T09:37:59.000Z</time>
      </trkpt>
      <trkpt lat="46.47972" lon="4.815">
        <ele>171.41</ele>
        <time>2018-10-21T09:38:04.000Z</time>
      </trkpt>
      <trkpt lat="46.47989" lon="4.81528">
        <ele>170.61</ele>
        <time>2018-10-21T09:38:09.000Z</time>
      </trkpt>
      <trkpt lat="46.48004" lon="4.81554">
        <ele>169.89</ele>
        <time>2018-10-21T09:38:14.000Z</time>
      </trkpt>
      <trkpt lat="46.48016" lon="4.81577">
        <ele>169.09</ele>
        <time>2018-10-21T09:38:19.000Z</time>
      </trkpt>
      <trkpt lat="46.48026" lon="4.81594">
        <ele>168.58</ele>
        <time>2018-10-21T09:38:24.000Z</time>
      </trkpt>
      <trkpt lat="46.48031" lon="4.8161">
        <ele>168.52</ele>
        <time>2018-10-21T09:38:29.000Z</time>
      </trkpt>
      <trkpt lat="46.48036" lon="4.81625">
        <ele>170.25</ele>
        <time>2018-10-21T09:38:34.000Z</time>
      </trkpt>
      <trkpt lat="46.48045" lon="4.81638">
        <ele>171.77</ele>
        <time>2018-10-21T09:38:39.000Z</time>
      </trkpt>
      <trkpt lat="46.48053" lon="4.81631">
        <ele>173.93</ele>
        <time>2018-10-21T09:38:46.000Z</time>
      </trkpt>
      <trkpt lat="46.48063" lon="4.81614">
        <ele>177.5</ele>
        <time>2018-10-21T09:40:00.000Z</time>
      </trkpt>
      <trkpt lat="46.48066" lon="4.816">
        <ele>178.22</ele>
        <time>2018-10-21T09:40:06.000Z</time>
      </trkpt>
      <trkpt lat="46.48067" lon="4.81587">
        <ele>179.28</ele>
        <time>2018-10-21T09:40:12.000Z</time>
      </trkpt>
      <trkpt lat="46.4807" lon="4.81573">
        <ele>180.78</ele>
        <time>2018-10-21T09:40:19.000Z</time>
      </trkpt>
      <trkpt lat="46.48074" lon="4.8156">
        <ele>179.63</ele>
        <time>2018-10-21T09:40:38.000Z</time>
      </trkpt>
      <trkpt lat="46.48078" lon="4.81548">
        <ele>175.74</ele>
        <time>2018-10-21T09:40:59.000Z</time>
      </trkpt>
      <trkpt lat="46.48081" lon="4.81562">
        <ele>174.53</ele>
        <time>2018-10-21T09:42:50.000Z</time>
      </trkpt>
      <trkpt lat="46.4808" lon="4.81576">
        <ele>178.41</ele>
        <time>2018-10-21T09:43:48.000Z</time>
      </trkpt>
      <trkpt lat="46.48076" lon="4.81588">
        <ele>186.09</ele>
        <time>2018-10-21T09:44:11.000Z</time>
      </trkpt>
      <trkpt lat="46.48084" lon="4.81596">
        <ele>190.07</ele>
        <time>2018-10-21T09:44:49.000Z</time>
      </trkpt>
      <trkpt lat="46.48093" lon="4.81599">
        <ele>189.48</ele>
        <time>2018-10-21T09:44:59.000Z</time>
      </trkpt>
      <trkpt lat="46.481" lon="4.81608">
        <ele>188.55</ele>
        <time>2018-10-21T09:46:49.000Z</time>
      </trkpt>
      <trkpt lat="46.4809" lon="4.8161">
        <ele>186.2</ele>
        <time>2018-10-21T09:49:25.000Z</time>
      </trkpt>
      <trkpt lat="46.48083" lon="4.81618">
        <ele>184.48</ele>
        <time>2018-10-21T09:51:06.000Z</time>
      </trkpt>
      <trkpt lat="46.48077" lon="4.81609">
        <ele>182.98</ele>
        <time>2018-10-21T09:51:52.000Z</time>
      </trkpt>
      <trkpt lat="46.48072" lon="4.81623">
        <ele>184.2</ele>
        <time>2018-10-21T09:52:46.000Z</time>
      </trkpt>
      <trkpt lat="46.48064" lon="4.81617">
        <ele>184.91</ele>
        <time>2018-10-21T09:53:21.000Z</time>
      </trkpt>
      <trkpt lat="46.48059" lon="4.81628">
        <ele>183.44</ele>
        <time>2018-10-21T09:55:07.000Z</time>
      </trkpt>
      <trkpt lat="46.48051" lon="4.81636">
        <ele>184.21</ele>
        <time>2018-10-21T09:55:13.000Z</time>
      </trkpt>
      <trkpt lat="46.48047" lon="4.8165">
        <ele>185.09</ele>
        <time>2018-10-21T09:55:18.000Z</time>
      </trkpt>
      <trkpt lat="46.4805" lon="4.81664">
        <ele>186.18</ele>
        <time>2018-10-21T09:55:23.000Z</time>
      </trkpt>
      <trkpt lat="46.48054" lon="4.81679">
        <ele>187.36</ele>
        <time>2018-10-21T09:55:28.000Z</time>
      </trkpt>
      <trkpt lat="46.4806" lon="4.81695">
        <ele>188.75</ele>
        <time>2018-10-21T09:55:33.000Z</time>
      </trkpt>
      <trkpt lat="46.48068" lon="4.81711">
        <ele>190.62</ele>
        <time>2018-10-21T09:55:38.000Z</time>
      </trkpt>
      <trkpt lat="46.48076" lon="4.81728">
        <ele>192.62</ele>
        <time>2018-10-21T09:55:43.000Z</time>
      </trkpt>
      <trkpt lat="46.48087" lon="4.81744">
        <ele>194.42</ele>
        <time>2018-10-21T09:55:48.000Z</time>
      </trkpt>
      <trkpt lat="46.481" lon="4.8176">
        <ele>195.96</ele>
        <time>2018-10-21T09:55:53.000Z</time>
      </trkpt>
      <trkpt lat="46.48116" lon="4.81777">
        <ele>197.55</ele>
        <time>2018-10-21T09:55:58.000Z</time>
      </trkpt>
      <trkpt lat="46.48133" lon="4.81795">
        <ele>199.05</ele>
        <time>2018-10-21T09:56:03.000Z</time>
      </trkpt>
      <trkpt lat="46.48149" lon="4.81812">
        <ele>200.73</ele>
        <time>2018-10-21T09:56:08.000Z</time>
      </trkpt>
      <trkpt lat="46.48165" lon="4.81833">
        <ele>202.43</ele>
        <time>2018-10-21T09:56:13.000Z</time>
      </trkpt>
      <trkpt lat="46.48178" lon="4.81853">
        <ele>204.3</ele>
        <time>2018-10-21T09:56:18.000Z</time>
      </trkpt>
      <trkpt lat="46.48177" lon="4.81867">
        <ele>205.04</ele>
        <time>2018-10-21T09:56:23.000Z</time>
      </trkpt>
      <trkpt lat="46.48171" lon="4.81884">
        <ele>205.96</ele>
        <time>2018-10-21T09:56:28.000Z</time>
      </trkpt>
      <trkpt lat="46.48164" lon="4.81905">
        <ele>207.46</ele>
        <time>2018-10-21T09:56:33.000Z</time>
      </trkpt>
      <trkpt lat="46.48157" lon="4.81926">
        <ele>208.78</ele>
        <time>2018-10-21T09:56:38.000Z</time>
      </trkpt>
      <trkpt lat="46.4815" lon="4.81944">
        <ele>210.26</ele>
        <time>2018-10-21T09:56:43.000Z</time>
      </trkpt>
      <trkpt lat="46.48145" lon="4.81963">
        <ele>211.36</ele>
        <time>2018-10-21T09:56:48.000Z</time>
      </trkpt>
      <trkpt lat="46.48138" lon="4.81979">
        <ele>212.56</ele>
        <time>2018-10-21T09:56:53.000Z</time>
      </trkpt>
      <trkpt lat="46.48132" lon="4.81991">
        <ele>214.13</ele>
        <time>2018-10-21T09:56:58.000Z</time>
      </trkpt>
      <trkpt lat="46.48123" lon="4.81997">
        <ele>215.65</ele>
        <time>2018-10-21T09:57:03.000Z</time>
      </trkpt>
      <trkpt lat="46.48112" lon="4.82001">
        <ele>216.53</ele>
        <time>2018-10-21T09:57:08.000Z</time>
      </trkpt>
      <trkpt lat="46.48102" lon="4.82005">
        <ele>217.13</ele>
        <time>2018-10-21T09:57:13.000Z</time>
      </trkpt>
      <trkpt lat="46.48091" lon="4.82009">
        <ele>217.77</ele>
        <time>2018-10-21T09:57:18.000Z</time>
      </trkpt>
      <trkpt lat="46.48082" lon="4.82011">
        <ele>218.76</ele>
        <time>2018-10-21T09:57:23.000Z</time>
      </trkpt>
      <trkpt lat="46.48073" lon="4.82013">
        <ele>220.16</ele>
        <time>2018-10-21T09:57:28.000Z</time>
      </trkpt>
      <trkpt lat="46.48064" lon="4.82012">
        <ele>221.65</ele>
        <time>2018-10-21T09:57:33.000Z</time>
      </trkpt>
      <trkpt lat="46.48055" lon="4.82004">
        <ele>223.42</ele>
        <time>2018-10-21T09:57:38.000Z</time>
      </trkpt>
      <trkpt lat="46.48044" lon="4.81992">
        <ele>225.42</ele>
        <time>2018-10-21T09:57:43.000Z</time>
      </trkpt>
      <trkpt lat="46.48032" lon="4.81982">
        <ele>226.36</ele>
        <time>2018-10-21T09:57:48.000Z</time>
      </trkpt>
      <trkpt lat="46.48018" lon="4.81973">
        <ele>227.48</ele>
        <time>2018-10-21T09:57:53.000Z</time>
      </trkpt>
      <trkpt lat="46.48001" lon="4.81964">
        <ele>227.65</ele>
        <time>2018-10-21T09:57:58.000Z</time>
      </trkpt>
      <trkpt lat="46.47984" lon="4.81954">
        <ele>227.28</ele>
        <time>2018-10-21T09:58:03.000Z</time>
      </trkpt>
      <trkpt lat="46.47968" lon="4.81945">
        <ele>227.4</ele>
        <time>2018-10-21T09:58:08.000Z</time>
      </trkpt>
      <trkpt lat="46.47949" lon="4.81936">
        <ele>227.06</ele>
        <time>2018-10-21T09:58:13.000Z</time>
      </trkpt>
      <trkpt lat="46.47932" lon="4.81928">
        <ele>225.66</ele>
        <time>2018-10-21T09:58:18.000Z</time>
      </trkpt>
      <trkpt lat="46.47915" lon="4.81921">
        <ele>225.57</ele>
        <time>2018-10-21T09:58:23.000Z</time>
      </trkpt>
      <trkpt lat="46.47899" lon="4.81918">
        <ele>224.21</ele>
        <time>2018-10-21T09:58:28.000Z</time>
      </trkpt>
      <trkpt lat="46.47886" lon="4.81913">
        <ele>222.7</ele>
        <time>2018-10-21T09:58:33.000Z</time>
      </trkpt>
      <trkpt lat="46.47873" lon="4.81906">
        <ele>221.68</ele>
        <time>2018-10-21T09:58:38.000Z</time>
      </trkpt>
      <trkpt lat="46.4786" lon="4.81899">
        <ele>221.38</ele>
        <time>2018-10-21T09:58:43.000Z</time>
      </trkpt>
      <trkpt lat="46.47842" lon="4.8189">
        <ele>219.14</ele>
        <time>2018-10-21T09:58:48.000Z</time>
      </trkpt>
      <trkpt lat="46.47822" lon="4.81878">
        <ele>216.88</ele>
        <time>2018-10-21T09:58:53.000Z</time>
      </trkpt>
      <trkpt lat="46.47798" lon="4.81869">
        <ele>214.01</ele>
        <time>2018-10-21T09:58:58.000Z</time>
      </trkpt>
      <trkpt lat="46.47776" lon="4.81863">
        <ele>211.07</ele>
        <time>2018-10-21T09:59:03.000Z</time>
      </trkpt>
      <trkpt lat="46.47753" lon="4.81857">
        <ele>207.86</ele>
        <time>2018-10-21T09:59:08.000Z</time>
      </trkpt>
      <trkpt lat="46.47729" lon="4.81852">
        <ele>204.47</ele>
        <time>2018-10-21T09:59:13.000Z</time>
      </trkpt>
      <trkpt lat="46.47712" lon="4.81848">
        <ele>201.72</ele>
        <time>2018-10-21T09:59:18.000Z</time>
      </trkpt>
      <trkpt lat="46.47701" lon="4.81859">
        <ele>199.92</ele>
        <time>2018-10-21T09:59:23.000Z</time>
      </trkpt>
      <trkpt lat="46.47698" lon="4.81885">
        <ele>198.65</ele>
        <time>2018-10-21T09:59:28.000Z</time>
      </trkpt>
      <trkpt lat="46.47695" lon="4.81913">
        <ele>197.25</ele>
        <time>2018-10-21T09:59:33.000Z</time>
      </trkpt>
      <trkpt lat="46.47692" lon="4.81944">
        <ele>196.11</ele>
        <time>2018-10-21T09:59:38.000Z</time>
      </trkpt>
      <trkpt lat="46.47689" lon="4.81977">
        <ele>195.11</ele>
        <time>2018-10-21T09:59:43.000Z</time>
      </trkpt>
      <trkpt lat="46.47687" lon="4.82011">
        <ele>194.36</ele>
        <time>2018-10-21T09:59:48.000Z</time>
      </trkpt>
      <trkpt lat="46.47684" lon="4.82042">
        <ele>194.23</ele>
        <time>2018-10-21T09:59:53.000Z</time>
      </trkpt>
      <trkpt lat="46.47683" lon="4.8207">
        <ele>194.45</ele>
        <time>2018-10-21T09:59:58.000Z</time>
      </trkpt>
      <trkpt lat="46.47681" lon="4.82097">
        <ele>194.52</ele>
        <time>2018-10-21T10:00:03.000Z</time>
      </trkpt>
      <trkpt lat="46.47683" lon="4.82122">
        <ele>194.65</ele>
        <time>2018-10-21T10:00:08.000Z</time>
      </trkpt>
      <trkpt lat="46.47699" lon="4.82133">
        <ele>194.44</ele>
        <time>2018-10-21T10:00:13.000Z</time>
      </trkpt>
      <trkpt lat="46.47714" lon="4.82142">
        <ele>194.65</ele>
        <time>2018-10-21T10:00:18.000Z</time>
      </trkpt>
      <trkpt lat="46.47726" lon="4.82152">
        <ele>194.91</ele>
        <time>2018-10-21T10:00:23.000Z</time>
      </trkpt>
      <trkpt lat="46.47736" lon="4.82153">
        <ele>196.33</ele>
        <time>2018-10-21T10:01:24.000Z</time>
      </trkpt>
      <trkpt lat="46.4775" lon="4.82159">
        <ele>196.81</ele>
        <time>2018-10-21T10:01:29.000Z</time>
      </trkpt>
      <trkpt lat="46.4776" lon="4.82163">
        <ele>197.68</ele>
        <time>2018-10-21T10:01:34.000Z</time>
      </trkpt>
      <trkpt lat="46.4776" lon="4.82184">
        <ele>198.39</ele>
        <time>2018-10-21T10:01:39.000Z</time>
      </trkpt>
      <trkpt lat="46.47761" lon="4.82216">
        <ele>199.19</ele>
        <time>2018-10-21T10:01:44.000Z</time>
      </trkpt>
      <trkpt lat="46.47761" lon="4.82248">
        <ele>200.08</ele>
        <time>2018-10-21T10:01:49.000Z</time>
      </trkpt>
      <trkpt lat="46.4776" lon="4.82295">
        <ele>200.91</ele>
        <time>2018-10-21T10:01:56.000Z</time>
      </trkpt>
      <trkpt lat="46.47762" lon="4.82325">
        <ele>201.78</ele>
        <time>2018-10-21T10:02:01.000Z</time>
      </trkpt>
      <trkpt lat="46.47779" lon="4.82336">
        <ele>202.39</ele>
        <time>2018-10-21T10:02:06.000Z</time>
      </trkpt>
      <trkpt lat="46.47798" lon="4.82339">
        <ele>203.46</ele>
        <time>2018-10-21T10:02:11.000Z</time>
      </trkpt>
      <trkpt lat="46.47814" lon="4.82341">
        <ele>204.68</ele>
        <time>2018-10-21T10:02:16.000Z</time>
      </trkpt>
      <trkpt lat="46.47827" lon="4.82345">
        <ele>205.76</ele>
        <time>2018-10-21T10:02:21.000Z</time>
      </trkpt>
      <trkpt lat="46.47841" lon="4.82348">
        <ele>207.42</ele>
        <time>2018-10-21T10:02:26.000Z</time>
      </trkpt>
      <trkpt lat="46.47854" lon="4.8235">
        <ele>208.78</ele>
        <time>2018-10-21T10:02:31.000Z</time>
      </trkpt>
      <trkpt lat="46.47864" lon="4.82353">
        <ele>209.9</ele>
        <time>2018-10-21T10:02:36.000Z</time>
      </trkpt>
      <trkpt lat="46.47851" lon="4.82368">
        <ele>210.88</ele>
        <time>2018-10-21T10:02:41.000Z</time>
      </trkpt>
      <trkpt lat="46.47829" lon="4.82404">
        <ele>212.25</ele>
        <time>2018-10-21T10:02:46.000Z</time>
      </trkpt>
      <trkpt lat="46.47801" lon="4.82452">
        <ele>212.78</ele>
        <time>2018-10-21T10:02:51.000Z</time>
      </trkpt>
      <trkpt lat="46.47776" lon="4.82499">
        <ele>212.09</ele>
        <time>2018-10-21T10:02:56.000Z</time>
      </trkpt>
      <trkpt lat="46.47754" lon="4.82544">
        <ele>211.29</ele>
        <time>2018-10-21T10:03:01.000Z</time>
      </trkpt>
      <trkpt lat="46.47735" lon="4.82588">
        <ele>210.88</ele>
        <time>2018-10-21T10:03:06.000Z</time>
      </trkpt>
      <trkpt lat="46.47721" lon="4.82634">
        <ele>210.09</ele>
        <time>2018-10-21T10:03:11.000Z</time>
      </trkpt>
      <trkpt lat="46.47708" lon="4.82676">
        <ele>209.58</ele>
        <time>2018-10-21T10:03:16.000Z</time>
      </trkpt>
      <trkpt lat="46.47714" lon="4.82698">
        <ele>209.15</ele>
        <time>2018-10-21T10:03:21.000Z</time>
      </trkpt>
      <trkpt lat="46.4772" lon="4.82721">
        <ele>209.32</ele>
        <time>2018-10-21T10:03:26.000Z</time>
      </trkpt>
      <trkpt lat="46.4772" lon="4.82751">
        <ele>209.28</ele>
        <time>2018-10-21T10:03:31.000Z</time>
      </trkpt>
      <trkpt lat="46.47723" lon="4.82784">
        <ele>208.41</ele>
        <time>2018-10-21T10:03:36.000Z</time>
      </trkpt>
      <trkpt lat="46.47728" lon="4.82818">
        <ele>207.54</ele>
        <time>2018-10-21T10:03:41.000Z</time>
      </trkpt>
      <trkpt lat="46.47729" lon="4.82852">
        <ele>206.22</ele>
        <time>2018-10-21T10:03:46.000Z</time>
      </trkpt>
      <trkpt lat="46.47734" lon="4.82886">
        <ele>204.62</ele>
        <time>2018-10-21T10:03:51.000Z</time>
      </trkpt>
      <trkpt lat="46.47755" lon="4.82893">
        <ele>203.71</ele>
        <time>2018-10-21T10:03:56.000Z</time>
      </trkpt>
      <trkpt lat="46.4777" lon="4.829">
        <ele>203.11</ele>
        <time>2018-10-21T10:04:01.000Z</time>
      </trkpt>
      <trkpt lat="46.47776" lon="4.82923">
        <ele>202.75</ele>
        <time>2018-10-21T10:04:06.000Z</time>
      </trkpt>
      <trkpt lat="46.47782" lon="4.8295">
        <ele>202.38</ele>
        <time>2018-10-21T10:04:11.000Z</time>
      </trkpt>
      <trkpt lat="46.47787" lon="4.82977">
        <ele>202.08</ele>
        <time>2018-10-21T10:04:16.000Z</time>
      </trkpt>
      <trkpt lat="46.47792" lon="4.83002">
        <ele>201.76</ele>
        <time>2018-10-21T10:04:21.000Z</time>
      </trkpt>
      <trkpt lat="46.47807" lon="4.83014">
        <ele>201.18</ele>
        <time>2018-10-21T10:04:26.000Z</time>
      </trkpt>
      <trkpt lat="46.47824" lon="4.83018">
        <ele>200.9</ele>
        <time>2018-10-21T10:04:31.000Z</time>
      </trkpt>
      <trkpt lat="46.47842" lon="4.83022">
        <ele>200.63</ele>
        <time>2018-10-21T10:04:36.000Z</time>
      </trkpt>
      <trkpt lat="46.47858" lon="4.83025">
        <ele>201.11</ele>
        <time>2018-10-21T10:04:41.000Z</time>
      </trkpt>
      <trkpt lat="46.47872" lon="4.83027">
        <ele>202.08</ele>
        <time>2018-10-21T10:04:46.000Z</time>
      </trkpt>
      <trkpt lat="46.47887" lon="4.83027">
        <ele>202.98</ele>
        <time>2018-10-21T10:04:51.000Z</time>
      </trkpt>
      <trkpt lat="46.47903" lon="4.83029">
        <ele>203.86</ele>
        <time>2018-10-21T10:04:56.000Z</time>
      </trkpt>
      <trkpt lat="46.47917" lon="4.83037">
        <ele>204.52</ele>
        <time>2018-10-21T10:05:01.000Z</time>
      </trkpt>
      <trkpt lat="46.47913" lon="4.8308">
        <ele>205.52</ele>
        <time>2018-10-21T10:05:06.000Z</time>
      </trkpt>
      <trkpt lat="46.47901" lon="4.83133">
        <ele>205.49</ele>
        <time>2018-10-21T10:05:11.000Z</time>
      </trkpt>
      <trkpt lat="46.47887" lon="4.83187">
        <ele>205.35</ele>
        <time>2018-10-21T10:05:16.000Z</time>
      </trkpt>
      <trkpt lat="46.47868" lon="4.8324">
        <ele>204.81</ele>
        <time>2018-10-21T10:05:21.000Z</time>
      </trkpt>
      <trkpt lat="46.47857" lon="4.8329">
        <ele>204.04</ele>
        <time>2018-10-21T10:05:26.000Z</time>
      </trkpt>
      <trkpt lat="46.47847" lon="4.83352">
        <ele>202.6</ele>
        <time>2018-10-21T10:05:31.000Z</time>
      </trkpt>
      <trkpt lat="46.47831" lon="4.83424">
        <ele>201.12</ele>
        <time>2018-10-21T10:05:36.000Z</time>
      </trkpt>
      <trkpt lat="46.47822" lon="4.83501">
        <ele>198.28</ele>
        <time>2018-10-21T10:05:41.000Z</time>
      </trkpt>
      <trkpt lat="46.47829" lon="4.83539">
        <ele>196.02</ele>
        <time>2018-10-21T10:05:46.000Z</time>
      </trkpt>
      <trkpt lat="46.47865" lon="4.83543">
        <ele>194.76</ele>
        <time>2018-10-21T10:05:51.000Z</time>
      </trkpt>
      <trkpt lat="46.47896" lon="4.83552">
        <ele>192.98</ele>
        <time>2018-10-21T10:05:56.000Z</time>
      </trkpt>
      <trkpt lat="46.47894" lon="4.83585">
        <ele>191.24</ele>
        <time>2018-10-21T10:06:01.000Z</time>
      </trkpt>
      <trkpt lat="46.47881" lon="4.8363">
        <ele>189.15</ele>
        <time>2018-10-21T10:06:06.000Z</time>
      </trkpt>
      <trkpt lat="46.47871" lon="4.83674">
        <ele>187.42</ele>
        <time>2018-10-21T10:06:11.000Z</time>
      </trkpt>
      <trkpt lat="46.47861" lon="4.83719">
        <ele>185.6</ele>
        <time>2018-10-21T10:06:16.000Z</time>
      </trkpt>
      <trkpt lat="46.47871" lon="4.8375">
        <ele>183.11</ele>
        <time>2018-10-21T10:06:21.000Z</time>
      </trkpt>
      <trkpt lat="46.47902" lon="4.83753">
        <ele>181.03</ele>
        <time>2018-10-21T10:06:26.000Z</time>
      </trkpt>
      <trkpt lat="46.47931" lon="4.83755">
        <ele>178.68</ele>
        <time>2018-10-21T10:06:31.000Z</time>
      </trkpt>
      <trkpt lat="46.47961" lon="4.83758">
        <ele>177.25</ele>
        <time>2018-10-21T10:06:36.000Z</time>
      </trkpt>
      <trkpt lat="46.4799" lon="4.83764">
        <ele>175.75</ele>
        <time>2018-10-21T10:06:41.000Z</time>
      </trkpt>
      <trkpt lat="46.48016" lon="4.83769">
        <ele>174.52</ele>
        <time>2018-10-21T10:06:46.000Z</time>
      </trkpt>
      <trkpt lat="46.4804" lon="4.83777">
        <ele>173.54</ele>
        <time>2018-10-21T10:06:51.000Z</time>
      </trkpt>
      <trkpt lat="46.48056" lon="4.83788">
        <ele>172.16</ele>
        <time>2018-10-21T10:06:56.000Z</time>
      </trkpt>
      <trkpt lat="46.4806" lon="4.83815">
        <ele>171.29</ele>
        <time>2018-10-21T10:07:01.000Z</time>
      </trkpt>
      <trkpt lat="46.48073" lon="4.83835">
        <ele>170.88</ele>
        <time>2018-10-21T10:07:06.000Z</time>
      </trkpt>
      <trkpt lat="46.48085" lon="4.83845">
        <ele>169.65</ele>
        <time>2018-10-21T10:07:11.000Z</time>
      </trkpt>
      <trkpt lat="46.48092" lon="4.83857">
        <ele>168.72</ele>
        <time>2018-10-21T10:07:16.000Z</time>
      </trkpt>
      <trkpt lat="46.48098" lon="4.83869">
        <ele>168.55</ele>
        <time>2018-10-21T10:07:21.000Z</time>
      </trkpt>
      <trkpt lat="46.48103" lon="4.83882">
        <ele>168.29</ele>
        <time>2018-10-21T10:07:26.000Z</time>
      </trkpt>
      <trkpt lat="46.48107" lon="4.83899">
        <ele>168.26</ele>
        <time>2018-10-21T10:07:31.000Z</time>
      </trkpt>
      <trkpt lat="46.48113" lon="4.83913">
        <ele>168.06</ele>
        <time>2018-10-21T10:07:36.000Z</time>
      </trkpt>
      <trkpt lat="46.4812" lon="4.83925">
        <ele>167.98</ele>
        <time>2018-10-21T10:07:41.000Z</time>
      </trkpt>
      <trkpt lat="46.48129" lon="4.83937">
        <ele>167.96</ele>
        <time>2018-10-21T10:07:46.000Z</time>
      </trkpt>
      <trkpt lat="46.48137" lon="4.83945">
        <ele>167.88</ele>
        <time>2018-10-21T10:07:51.000Z</time>
      </trkpt>
      <trkpt lat="46.48145" lon="4.83954">
        <ele>167.76</ele>
        <time>2018-10-21T10:07:56.000Z</time>
      </trkpt>
      <trkpt lat="46.48155" lon="4.83964">
        <ele>167.66</ele>
        <time>2018-10-21T10:08:01.000Z</time>
      </trkpt>
      <trkpt lat="46.48165" lon="4.83974">
        <ele>167.83</ele>
        <time>2018-10-21T10:08:06.000Z</time>
      </trkpt>
      <trkpt lat="46.48174" lon="4.83982">
        <ele>167.95</ele>
        <time>2018-10-21T10:08:11.000Z</time>
      </trkpt>
      <trkpt lat="46.48184" lon="4.83993">
        <ele>168.03</ele>
        <time>2018-10-21T10:08:16.000Z</time>
      </trkpt>
      <trkpt lat="46.48196" lon="4.83994">
        <ele>168.62</ele>
        <time>2018-10-21T10:08:21.000Z</time>
      </trkpt>
      <trkpt lat="46.48201" lon="4.83982">
        <ele>169.32</ele>
        <time>2018-10-21T10:08:26.000Z</time>
      </trkpt>
      <trkpt lat="46.48205" lon="4.83967">
        <ele>169.92</ele>
        <time>2018-10-21T10:08:32.000Z</time>
      </trkpt>
      <trkpt lat="46.48207" lon="4.83954">
        <ele>170.49</ele>
        <time>2018-10-21T10:08:37.000Z</time>
      </trkpt>
      <trkpt lat="46.48211" lon="4.8394">
        <ele>171.49</ele>
        <time>2018-10-21T10:08:44.000Z</time>
      </trkpt>
      <trkpt lat="46.48214" lon="4.83927">
        <ele>172.25</ele>
        <time>2018-10-21T10:08:51.000Z</time>
      </trkpt>
      <trkpt lat="46.48217" lon="4.83913">
        <ele>173.42</ele>
        <time>2018-10-21T10:08:58.000Z</time>
      </trkpt>
      <trkpt lat="46.48221" lon="4.839">
        <ele>174.88</ele>
        <time>2018-10-21T10:09:05.000Z</time>
      </trkpt>
      <trkpt lat="46.48231" lon="4.83899">
        <ele>177.25</ele>
        <time>2018-10-21T10:09:18.000Z</time>
      </trkpt>
      <trkpt lat="46.4824" lon="4.83906">
        <ele>178</ele>
        <time>2018-10-21T10:09:23.000Z</time>
      </trkpt>
      <trkpt lat="46.4825" lon="4.83911">
        <ele>179.27</ele>
        <time>2018-10-21T10:09:28.000Z</time>
      </trkpt>
      <trkpt lat="46.48261" lon="4.83917">
        <ele>180.49</ele>
        <time>2018-10-21T10:09:33.000Z</time>
      </trkpt>
      <trkpt lat="46.48273" lon="4.83925">
        <ele>181.67</ele>
        <time>2018-10-21T10:09:38.000Z</time>
      </trkpt>
      <trkpt lat="46.48285" lon="4.83932">
        <ele>183.16</ele>
        <time>2018-10-21T10:09:43.000Z</time>
      </trkpt>
      <trkpt lat="46.48298" lon="4.83941">
        <ele>184.86</ele>
        <time>2018-10-21T10:09:48.000Z</time>
      </trkpt>
      <trkpt lat="46.48311" lon="4.83949">
        <ele>186.26</ele>
        <time>2018-10-21T10:09:53.000Z</time>
      </trkpt>
      <trkpt lat="46.48325" lon="4.83957">
        <ele>187.49</ele>
        <time>2018-10-21T10:09:58.000Z</time>
      </trkpt>
      <trkpt lat="46.48339" lon="4.83965">
        <ele>189.05</ele>
        <time>2018-10-21T10:10:03.000Z</time>
      </trkpt>
      <trkpt lat="46.48353" lon="4.83975">
        <ele>190.76</ele>
        <time>2018-10-21T10:10:08.000Z</time>
      </trkpt>
      <trkpt lat="46.48366" lon="4.83984">
        <ele>192.36</ele>
        <time>2018-10-21T10:10:13.000Z</time>
      </trkpt>
      <trkpt lat="46.48375" lon="4.83992">
        <ele>193.93</ele>
        <time>2018-10-21T10:10:18.000Z</time>
      </trkpt>
      <trkpt lat="46.48385" lon="4.84">
        <ele>195.83</ele>
        <time>2018-10-21T10:10:23.000Z</time>
      </trkpt>
      <trkpt lat="46.48395" lon="4.84007">
        <ele>197.18</ele>
        <time>2018-10-21T10:10:28.000Z</time>
      </trkpt>
      <trkpt lat="46.48405" lon="4.84012">
        <ele>198.73</ele>
        <time>2018-10-21T10:10:33.000Z</time>
      </trkpt>
      <trkpt lat="46.48415" lon="4.84015">
        <ele>200.16</ele>
        <time>2018-10-21T10:10:38.000Z</time>
      </trkpt>
      <trkpt lat="46.48425" lon="4.84019">
        <ele>201.47</ele>
        <time>2018-10-21T10:10:43.000Z</time>
      </trkpt>
      <trkpt lat="46.48436" lon="4.84024">
        <ele>202.59</ele>
        <time>2018-10-21T10:10:48.000Z</time>
      </trkpt>
      <trkpt lat="46.48446" lon="4.84029">
        <ele>203.86</ele>
        <time>2018-10-21T10:10:53.000Z</time>
      </trkpt>
      <trkpt lat="46.48457" lon="4.84033">
        <ele>205.09</ele>
        <time>2018-10-21T10:10:58.000Z</time>
      </trkpt>
      <trkpt lat="46.48468" lon="4.84035">
        <ele>205.92</ele>
        <time>2018-10-21T10:11:03.000Z</time>
      </trkpt>
      <trkpt lat="46.48478" lon="4.84036">
        <ele>206.72</ele>
        <time>2018-10-21T10:11:08.000Z</time>
      </trkpt>
      <trkpt lat="46.4849" lon="4.84035">
        <ele>207.1</ele>
        <time>2018-10-21T10:11:13.000Z</time>
      </trkpt>
      <trkpt lat="46.485" lon="4.84032">
        <ele>207.26</ele>
        <time>2018-10-21T10:11:18.000Z</time>
      </trkpt>
      <trkpt lat="46.48508" lon="4.84026">
        <ele>207.61</ele>
        <time>2018-10-21T10:11:23.000Z</time>
      </trkpt>
      <trkpt lat="46.48514" lon="4.84013">
        <ele>208.4</ele>
        <time>2018-10-21T10:11:29.000Z</time>
      </trkpt>
      <trkpt lat="46.48521" lon="4.84004">
        <ele>208.68</ele>
        <time>2018-10-21T10:11:35.000Z</time>
      </trkpt>
      <trkpt lat="46.4853" lon="4.84012">
        <ele>208.9</ele>
        <time>2018-10-21T10:11:40.000Z</time>
      </trkpt>
      <trkpt lat="46.48541" lon="4.84025">
        <ele>209.43</ele>
        <time>2018-10-21T10:11:45.000Z</time>
      </trkpt>
      <trkpt lat="46.48552" lon="4.84039">
        <ele>210.13</ele>
        <time>2018-10-21T10:11:50.000Z</time>
      </trkpt>
      <trkpt lat="46.48563" lon="4.84054">
        <ele>210.7</ele>
        <time>2018-10-21T10:11:55.000Z</time>
      </trkpt>
      <trkpt lat="46.48576" lon="4.84068">
        <ele>211.33</ele>
        <time>2018-10-21T10:12:00.000Z</time>
      </trkpt>
      <trkpt lat="46.48592" lon="4.84081">
        <ele>212.1</ele>
        <time>2018-10-21T10:12:05.000Z</time>
      </trkpt>
      <trkpt lat="46.48608" lon="4.84092">
        <ele>213.19</ele>
        <time>2018-10-21T10:12:10.000Z</time>
      </trkpt>
      <trkpt lat="46.48622" lon="4.84101">
        <ele>214.49</ele>
        <time>2018-10-21T10:12:15.000Z</time>
      </trkpt>
      <trkpt lat="46.48636" lon="4.84109">
        <ele>215.69</ele>
        <time>2018-10-21T10:12:20.000Z</time>
      </trkpt>
      <trkpt lat="46.4865" lon="4.84116">
        <ele>216.98</ele>
        <time>2018-10-21T10:12:25.000Z</time>
      </trkpt>
      <trkpt lat="46.48661" lon="4.84124">
        <ele>218.17</ele>
        <time>2018-10-21T10:12:30.000Z</time>
      </trkpt>
      <trkpt lat="46.48674" lon="4.84132">
        <ele>219.3</ele>
        <time>2018-10-21T10:12:35.000Z</time>
      </trkpt>
      <trkpt lat="46.48687" lon="4.8414">
        <ele>220.69</ele>
        <time>2018-10-21T10:12:40.000Z</time>
      </trkpt>
      <trkpt lat="46.48698" lon="4.84146">
        <ele>221.7</ele>
        <time>2018-10-21T10:12:45.000Z</time>
      </trkpt>
      <trkpt lat="46.48707" lon="4.84154">
        <ele>222.89</ele>
        <time>2018-10-21T10:12:50.000Z</time>
      </trkpt>
      <trkpt lat="46.48717" lon="4.84161">
        <ele>224.17</ele>
        <time>2018-10-21T10:12:55.000Z</time>
      </trkpt>
      <trkpt lat="46.48727" lon="4.84166">
        <ele>225.59</ele>
        <time>2018-10-21T10:13:00.000Z</time>
      </trkpt>
      <trkpt lat="46.48738" lon="4.84167">
        <ele>226.97</ele>
        <time>2018-10-21T10:13:05.000Z</time>
      </trkpt>
      <trkpt lat="46.48751" lon="4.84176">
        <ele>228.56</ele>
        <time>2018-10-21T10:13:10.000Z</time>
      </trkpt>
      <trkpt lat="46.48765" lon="4.84183">
        <ele>230.17</ele>
        <time>2018-10-21T10:13:15.000Z</time>
      </trkpt>
      <trkpt lat="46.48779" lon="4.84194">
        <ele>231.64</ele>
        <time>2018-10-21T10:13:20.000Z</time>
      </trkpt>
      <trkpt lat="46.48791" lon="4.842">
        <ele>233.11</ele>
        <time>2018-10-21T10:13:25.000Z</time>
      </trkpt>
      <trkpt lat="46.48804" lon="4.84206">
        <ele>234.49</ele>
        <time>2018-10-21T10:13:30.000Z</time>
      </trkpt>
      <trkpt lat="46.48817" lon="4.84214">
        <ele>236.24</ele>
        <time>2018-10-21T10:13:35.000Z</time>
      </trkpt>
      <trkpt lat="46.4883" lon="4.84223">
        <ele>238.13</ele>
        <time>2018-10-21T10:13:40.000Z</time>
      </trkpt>
      <trkpt lat="46.48843" lon="4.8423">
        <ele>239.86</ele>
        <time>2018-10-21T10:13:45.000Z</time>
      </trkpt>
      <trkpt lat="46.48849" lon="4.84245">
        <ele>241.73</ele>
        <time>2018-10-21T10:13:50.000Z</time>
      </trkpt>
      <trkpt lat="46.48847" lon="4.84263">
        <ele>243.56</ele>
        <time>2018-10-21T10:13:55.000Z</time>
      </trkpt>
      <trkpt lat="46.48844" lon="4.84287">
        <ele>245.33</ele>
        <time>2018-10-21T10:14:00.000Z</time>
      </trkpt>
      <trkpt lat="46.48842" lon="4.84312">
        <ele>246.87</ele>
        <time>2018-10-21T10:14:05.000Z</time>
      </trkpt>
      <trkpt lat="46.48841" lon="4.8435">
        <ele>247.87</ele>
        <time>2018-10-21T10:14:10.000Z</time>
      </trkpt>
      <trkpt lat="46.48839" lon="4.84389">
        <ele>247.71</ele>
        <time>2018-10-21T10:14:15.000Z</time>
      </trkpt>
      <trkpt lat="46.48839" lon="4.84421">
        <ele>246.99</ele>
        <time>2018-10-21T10:14:20.000Z</time>
      </trkpt>
      <trkpt lat="46.48845" lon="4.84455">
        <ele>247.21</ele>
        <time>2018-10-21T10:14:25.000Z</time>
      </trkpt>
      <trkpt lat="46.48851" lon="4.84488">
        <ele>248.19</ele>
        <time>2018-10-21T10:14:30.000Z</time>
      </trkpt>
      <trkpt lat="46.48847" lon="4.84521">
        <ele>248.2</ele>
        <time>2018-10-21T10:14:35.000Z</time>
      </trkpt>
      <trkpt lat="46.48834" lon="4.84562">
        <ele>248.73</ele>
        <time>2018-10-21T10:14:40.000Z</time>
      </trkpt>
      <trkpt lat="46.48822" lon="4.84605">
        <ele>249.16</ele>
        <time>2018-10-21T10:14:45.000Z</time>
      </trkpt>
      <trkpt lat="46.48809" lon="4.8466">
        <ele>249.33</ele>
        <time>2018-10-21T10:14:50.000Z</time>
      </trkpt>
      <trkpt lat="46.48783" lon="4.84726">
        <ele>247.85</ele>
        <time>2018-10-21T10:14:55.000Z</time>
      </trkpt>
      <trkpt lat="46.48762" lon="4.84788">
        <ele>246.41</ele>
        <time>2018-10-21T10:15:00.000Z</time>
      </trkpt>
      <trkpt lat="46.48732" lon="4.84841">
        <ele>245.29</ele>
        <time>2018-10-21T10:15:05.000Z</time>
      </trkpt>
      <trkpt lat="46.48685" lon="4.84882">
        <ele>243.04</ele>
        <time>2018-10-21T10:15:10.000Z</time>
      </trkpt>
      <trkpt lat="46.48649" lon="4.84921">
        <ele>241.38</ele>
        <time>2018-10-21T10:15:15.000Z</time>
      </trkpt>
      <trkpt lat="46.48622" lon="4.84962">
        <ele>239.99</ele>
        <time>2018-10-21T10:15:20.000Z</time>
      </trkpt>
      <trkpt lat="46.48602" lon="4.8501">
        <ele>237.02</ele>
        <time>2018-10-21T10:15:25.000Z</time>
      </trkpt>
      <trkpt lat="46.48582" lon="4.85064">
        <ele>234.7</ele>
        <time>2018-10-21T10:15:30.000Z</time>
      </trkpt>
      <trkpt lat="46.48561" lon="4.85107">
        <ele>232.49</ele>
        <time>2018-10-21T10:15:35.000Z</time>
      </trkpt>
      <trkpt lat="46.48541" lon="4.85146">
        <ele>229.96</ele>
        <time>2018-10-21T10:15:40.000Z</time>
      </trkpt>
      <trkpt lat="46.48523" lon="4.8518">
        <ele>227.9</ele>
        <time>2018-10-21T10:15:45.000Z</time>
      </trkpt>
      <trkpt lat="46.48507" lon="4.85215">
        <ele>225.63</ele>
        <time>2018-10-21T10:15:50.000Z</time>
      </trkpt>
      <trkpt lat="46.48494" lon="4.85247">
        <ele>223.4</ele>
        <time>2018-10-21T10:15:55.000Z</time>
      </trkpt>
      <trkpt lat="46.48481" lon="4.85272">
        <ele>221.57</ele>
        <time>2018-10-21T10:16:00.000Z</time>
      </trkpt>
      <trkpt lat="46.48465" lon="4.85301">
        <ele>220.04</ele>
        <time>2018-10-21T10:16:05.000Z</time>
      </trkpt>
      <trkpt lat="46.48453" lon="4.85338">
        <ele>218.94</ele>
        <time>2018-10-21T10:16:10.000Z</time>
      </trkpt>
      <trkpt lat="46.48444" lon="4.85388">
        <ele>217.84</ele>
        <time>2018-10-21T10:16:15.000Z</time>
      </trkpt>
      <trkpt lat="46.48438" lon="4.85436">
        <ele>216.15</ele>
        <time>2018-10-21T10:16:20.000Z</time>
      </trkpt>
      <trkpt lat="46.48425" lon="4.85482">
        <ele>215.1</ele>
        <time>2018-10-21T10:16:25.000Z</time>
      </trkpt>
      <trkpt lat="46.48407" lon="4.85521">
        <ele>214.37</ele>
        <time>2018-10-21T10:16:30.000Z</time>
      </trkpt>
      <trkpt lat="46.48386" lon="4.85554">
        <ele>212.89</ele>
        <time>2018-10-21T10:16:35.000Z</time>
      </trkpt>
      <trkpt lat="46.4836" lon="4.85587">
        <ele>210.94</ele>
        <time>2018-10-21T10:16:40.000Z</time>
      </trkpt>
      <trkpt lat="46.48334" lon="4.85615">
        <ele>209.79</ele>
        <time>2018-10-21T10:16:45.000Z</time>
      </trkpt>
      <trkpt lat="46.48312" lon="4.85653">
        <ele>208.21</ele>
        <time>2018-10-21T10:16:50.000Z</time>
      </trkpt>
      <trkpt lat="46.48293" lon="4.85689">
        <ele>207.27</ele>
        <time>2018-10-21T10:16:55.000Z</time>
      </trkpt>
      <trkpt lat="46.48273" lon="4.85733">
        <ele>206.46</ele>
        <time>2018-10-21T10:17:00.000Z</time>
      </trkpt>
      <trkpt lat="46.48254" lon="4.85777">
        <ele>205.96</ele>
        <time>2018-10-21T10:17:05.000Z</time>
      </trkpt>
      <trkpt lat="46.48237" lon="4.85826">
        <ele>205.64</ele>
        <time>2018-10-21T10:17:10.000Z</time>
      </trkpt>
      <trkpt lat="46.48224" lon="4.85881">
        <ele>204.33</ele>
        <time>2018-10-21T10:17:15.000Z</time>
      </trkpt>
      <trkpt lat="46.48216" lon="4.85935">
        <ele>202.24</ele>
        <time>2018-10-21T10:17:20.000Z</time>
      </trkpt>
      <trkpt lat="46.4821" lon="4.85989">
        <ele>196.35</ele>
        <time>2018-10-21T10:17:25.000Z</time>
      </trkpt>
      <trkpt lat="46.48209" lon="4.86036">
        <ele>192.82</ele>
        <time>2018-10-21T10:17:30.000Z</time>
      </trkpt>
      <trkpt lat="46.48206" lon="4.86087">
        <ele>186.04</ele>
        <time>2018-10-21T10:17:35.000Z</time>
      </trkpt>
      <trkpt lat="46.48208" lon="4.86135">
        <ele>181.64</ele>
        <time>2018-10-21T10:17:40.000Z</time>
      </trkpt>
      <trkpt lat="46.48213" lon="4.86186">
        <ele>179.13</ele>
        <time>2018-10-21T10:17:45.000Z</time>
      </trkpt>
      <trkpt lat="46.48215" lon="4.86225">
        <ele>176.78</ele>
        <time>2018-10-21T10:17:50.000Z</time>
      </trkpt>
      <trkpt lat="46.48231" lon="4.86255">
        <ele>175.26</ele>
        <time>2018-10-21T10:17:55.000Z</time>
      </trkpt>
      <trkpt lat="46.48259" lon="4.86288">
        <ele>172.56</ele>
        <time>2018-10-21T10:18:00.000Z</time>
      </trkpt>
      <trkpt lat="46.48287" lon="4.86323">
        <ele>170.09</ele>
        <time>2018-10-21T10:18:05.000Z</time>
      </trkpt>
      <trkpt lat="46.48314" lon="4.8638">
        <ele>166.65</ele>
        <time>2018-10-21T10:18:13.000Z</time>
      </trkpt>
      <trkpt lat="46.48325" lon="4.864">
        <ele>163.53</ele>
        <time>2018-10-21T10:18:18.000Z</time>
      </trkpt>
      <trkpt lat="46.48341" lon="4.86399">
        <ele>160.26</ele>
        <time>2018-10-21T10:18:23.000Z</time>
      </trkpt>
      <trkpt lat="46.48363" lon="4.86388">
        <ele>158.1</ele>
        <time>2018-10-21T10:18:28.000Z</time>
      </trkpt>
      <trkpt lat="46.48382" lon="4.8638">
        <ele>156.1</ele>
        <time>2018-10-21T10:18:33.000Z</time>
      </trkpt>
      <trkpt lat="46.48401" lon="4.86375">
        <ele>154.29</ele>
        <time>2018-10-21T10:18:38.000Z</time>
      </trkpt>
      <trkpt lat="46.4842" lon="4.86372">
        <ele>153.13</ele>
        <time>2018-10-21T10:18:43.000Z</time>
      </trkpt>
      <trkpt lat="46.48433" lon="4.86368">
        <ele>153.17</ele>
        <time>2018-10-21T10:18:48.000Z</time>
      </trkpt>
      <trkpt lat="46.48447" lon="4.86372">
        <ele>157.06</ele>
        <time>2018-10-21T10:18:53.000Z</time>
      </trkpt>
      <trkpt lat="46.48455" lon="4.86365">
        <ele>161.13</ele>
        <time>2018-10-21T10:18:58.000Z</time>
      </trkpt>
      <trkpt lat="46.48464" lon="4.86362">
        <ele>165.09</ele>
        <time>2018-10-21T10:19:03.000Z</time>
      </trkpt>
      <trkpt lat="46.48474" lon="4.86358">
        <ele>169.49</ele>
        <time>2018-10-21T10:19:08.000Z</time>
      </trkpt>
      <trkpt lat="46.48484" lon="4.86355">
        <ele>173.37</ele>
        <time>2018-10-21T10:19:13.000Z</time>
      </trkpt>
      <trkpt lat="46.48496" lon="4.86359">
        <ele>177.11</ele>
        <time>2018-10-21T10:19:18.000Z</time>
      </trkpt>
      <trkpt lat="46.48507" lon="4.86362">
        <ele>180.51</ele>
        <time>2018-10-21T10:19:23.000Z</time>
      </trkpt>
      <trkpt lat="46.48518" lon="4.86367">
        <ele>183.77</ele>
        <time>2018-10-21T10:19:28.000Z</time>
      </trkpt>
      <trkpt lat="46.48529" lon="4.86371">
        <ele>186.3</ele>
        <time>2018-10-21T10:19:33.000Z</time>
      </trkpt>
      <trkpt lat="46.48539" lon="4.86372">
        <ele>188.76</ele>
        <time>2018-10-21T10:19:40.000Z</time>
      </trkpt>
      <trkpt lat="46.48549" lon="4.86371">
        <ele>189.22</ele>
        <time>2018-10-21T10:19:45.000Z</time>
      </trkpt>
      <trkpt lat="46.48558" lon="4.86369">
        <ele>190.2</ele>
        <time>2018-10-21T10:19:50.000Z</time>
      </trkpt>
      <trkpt lat="46.48567" lon="4.86361">
        <ele>191.09</ele>
        <time>2018-10-21T10:19:55.000Z</time>
      </trkpt>
      <trkpt lat="46.48576" lon="4.86359">
        <ele>193</ele>
        <time>2018-10-21T10:20:00.000Z</time>
      </trkpt>
      <trkpt lat="46.48585" lon="4.86355">
        <ele>195.22</ele>
        <time>2018-10-21T10:20:05.000Z</time>
      </trkpt>
      <trkpt lat="46.48595" lon="4.86343">
        <ele>197.39</ele>
        <time>2018-10-21T10:20:10.000Z</time>
      </trkpt>
      <trkpt lat="46.48604" lon="4.86329">
        <ele>200.01</ele>
        <time>2018-10-21T10:20:15.000Z</time>
      </trkpt>
      <trkpt lat="46.48612" lon="4.86314">
        <ele>202.26</ele>
        <time>2018-10-21T10:20:20.000Z</time>
      </trkpt>
      <trkpt lat="46.48619" lon="4.86298">
        <ele>204.43</ele>
        <time>2018-10-21T10:20:25.000Z</time>
      </trkpt>
      <trkpt lat="46.48624" lon="4.8628">
        <ele>206.38</ele>
        <time>2018-10-21T10:20:30.000Z</time>
      </trkpt>
      <trkpt lat="46.48631" lon="4.86261">
        <ele>208.02</ele>
        <time>2018-10-21T10:20:35.000Z</time>
      </trkpt>
      <trkpt lat="46.48639" lon="4.86239">
        <ele>209.69</ele>
        <time>2018-10-21T10:20:40.000Z</time>
      </trkpt>
      <trkpt lat="46.48647" lon="4.86218">
        <ele>210.81</ele>
        <time>2018-10-21T10:20:45.000Z</time>
      </trkpt>
      <trkpt lat="46.48658" lon="4.86194">
        <ele>212.47</ele>
        <time>2018-10-21T10:20:50.000Z</time>
      </trkpt>
      <trkpt lat="46.48671" lon="4.86172">
        <ele>213.13</ele>
        <time>2018-10-21T10:20:55.000Z</time>
      </trkpt>
      <trkpt lat="46.48688" lon="4.8616">
        <ele>214.3</ele>
        <time>2018-10-21T10:21:00.000Z</time>
      </trkpt>
      <trkpt lat="46.48706" lon="4.86149">
        <ele>215.3</ele>
        <time>2018-10-21T10:21:05.000Z</time>
      </trkpt>
      <trkpt lat="46.48725" lon="4.86131">
        <ele>216.29</ele>
        <time>2018-10-21T10:21:10.000Z</time>
      </trkpt>
      <trkpt lat="46.48741" lon="4.8611">
        <ele>217.62</ele>
        <time>2018-10-21T10:21:15.000Z</time>
      </trkpt>
      <trkpt lat="46.4876" lon="4.86087">
        <ele>218.43</ele>
        <time>2018-10-21T10:21:20.000Z</time>
      </trkpt>
      <trkpt lat="46.48778" lon="4.86066">
        <ele>219.3</ele>
        <time>2018-10-21T10:21:25.000Z</time>
      </trkpt>
      <trkpt lat="46.48798" lon="4.86047">
        <ele>219.94</ele>
        <time>2018-10-21T10:21:30.000Z</time>
      </trkpt>
      <trkpt lat="46.48819" lon="4.86031">
        <ele>220.5</ele>
        <time>2018-10-21T10:21:35.000Z</time>
      </trkpt>
      <trkpt lat="46.48839" lon="4.86012">
        <ele>221.43</ele>
        <time>2018-10-21T10:21:40.000Z</time>
      </trkpt>
      <trkpt lat="46.48855" lon="4.85985">
        <ele>222.25</ele>
        <time>2018-10-21T10:21:45.000Z</time>
      </trkpt>
      <trkpt lat="46.48862" lon="4.85952">
        <ele>222.66</ele>
        <time>2018-10-21T10:21:50.000Z</time>
      </trkpt>
      <trkpt lat="46.48869" lon="4.85927">
        <ele>223.23</ele>
        <time>2018-10-21T10:21:55.000Z</time>
      </trkpt>
      <trkpt lat="46.4888" lon="4.8591">
        <ele>223.76</ele>
        <time>2018-10-21T10:22:00.000Z</time>
      </trkpt>
      <trkpt lat="46.48895" lon="4.85898">
        <ele>224.16</ele>
        <time>2018-10-21T10:22:05.000Z</time>
      </trkpt>
      <trkpt lat="46.48909" lon="4.8589">
        <ele>224.57</ele>
        <time>2018-10-21T10:22:10.000Z</time>
      </trkpt>
      <trkpt lat="46.48924" lon="4.85887">
        <ele>225.2</ele>
        <time>2018-10-21T10:22:15.000Z</time>
      </trkpt>
      <trkpt lat="46.48938" lon="4.85884">
        <ele>225.93</ele>
        <time>2018-10-21T10:22:20.000Z</time>
      </trkpt>
      <trkpt lat="46.48951" lon="4.85878">
        <ele>226.64</ele>
        <time>2018-10-21T10:22:25.000Z</time>
      </trkpt>
      <trkpt lat="46.48961" lon="4.85868">
        <ele>226.84</ele>
        <time>2018-10-21T10:22:30.000Z</time>
      </trkpt>
      <trkpt lat="46.4897" lon="4.8586">
        <ele>227.41</ele>
        <time>2018-10-21T10:22:35.000Z</time>
      </trkpt>
      <trkpt lat="46.48978" lon="4.85852">
        <ele>228.4</ele>
        <time>2018-10-21T10:22:40.000Z</time>
      </trkpt>
      <trkpt lat="46.48986" lon="4.85844">
        <ele>229.4</ele>
        <time>2018-10-21T10:22:45.000Z</time>
      </trkpt>
      <trkpt lat="46.48996" lon="4.85832">
        <ele>229.88</ele>
        <time>2018-10-21T10:22:50.000Z</time>
      </trkpt>
      <trkpt lat="46.49006" lon="4.85825">
        <ele>231.1</ele>
        <time>2018-10-21T10:22:55.000Z</time>
      </trkpt>
      <trkpt lat="46.4902" lon="4.85814">
        <ele>231.66</ele>
        <time>2018-10-21T10:23:00.000Z</time>
      </trkpt>
      <trkpt lat="46.49032" lon="4.85809">
        <ele>233.34</ele>
        <time>2018-10-21T10:23:05.000Z</time>
      </trkpt>
      <trkpt lat="46.49047" lon="4.85787">
        <ele>233.8</ele>
        <time>2018-10-21T10:23:10.000Z</time>
      </trkpt>
      <trkpt lat="46.49062" lon="4.85781">
        <ele>236.08</ele>
        <time>2018-10-21T10:23:15.000Z</time>
      </trkpt>
      <trkpt lat="46.4908" lon="4.85773">
        <ele>239.44</ele>
        <time>2018-10-21T10:23:20.000Z</time>
      </trkpt>
      <trkpt lat="46.49106" lon="4.85752">
        <ele>241.92</ele>
        <time>2018-10-21T10:23:25.000Z</time>
      </trkpt>
      <trkpt lat="46.4913" lon="4.85749">
        <ele>241.84</ele>
        <time>2018-10-21T10:23:30.000Z</time>
      </trkpt>
      <trkpt lat="46.49152" lon="4.85737">
        <ele>242.69</ele>
        <time>2018-10-21T10:23:35.000Z</time>
      </trkpt>
      <trkpt lat="46.49174" lon="4.85719">
        <ele>243.97</ele>
        <time>2018-10-21T10:23:40.000Z</time>
      </trkpt>
      <trkpt lat="46.49191" lon="4.85706">
        <ele>245.22</ele>
        <time>2018-10-21T10:23:45.000Z</time>
      </trkpt>
      <trkpt lat="46.49205" lon="4.85696">
        <ele>246.08</ele>
        <time>2018-10-21T10:23:50.000Z</time>
      </trkpt>
      <trkpt lat="46.49221" lon="4.85683">
        <ele>247.47</ele>
        <time>2018-10-21T10:23:55.000Z</time>
      </trkpt>
      <trkpt lat="46.49239" lon="4.8567">
        <ele>248.27</ele>
        <time>2018-10-21T10:24:00.000Z</time>
      </trkpt>
      <trkpt lat="46.49256" lon="4.85654">
        <ele>250.14</ele>
        <time>2018-10-21T10:24:05.000Z</time>
      </trkpt>
      <trkpt lat="46.49277" lon="4.85647">
        <ele>250.45</ele>
        <time>2018-10-21T10:24:10.000Z</time>
      </trkpt>
      <trkpt lat="46.49287" lon="4.85649">
        <ele>249.85</ele>
        <time>2018-10-21T10:24:15.000Z</time>
      </trkpt>
      <trkpt lat="46.49298" lon="4.85652">
        <ele>250.95</ele>
        <time>2018-10-21T10:24:20.000Z</time>
      </trkpt>
      <trkpt lat="46.4931" lon="4.85648">
        <ele>251.37</ele>
        <time>2018-10-21T10:24:25.000Z</time>
      </trkpt>
      <trkpt lat="46.49322" lon="4.85622">
        <ele>249.26</ele>
        <time>2018-10-21T10:24:30.000Z</time>
      </trkpt>
      <trkpt lat="46.49331" lon="4.85615">
        <ele>249.93</ele>
        <time>2018-10-21T10:24:35.000Z</time>
      </trkpt>
      <trkpt lat="46.4934" lon="4.85613">
        <ele>251.28</ele>
        <time>2018-10-21T10:24:40.000Z</time>
      </trkpt>
      <trkpt lat="46.49354" lon="4.85615">
        <ele>253.41</ele>
        <time>2018-10-21T10:24:45.000Z</time>
      </trkpt>
      <trkpt lat="46.49365" lon="4.85614">
        <ele>255.51</ele>
        <time>2018-10-21T10:24:50.000Z</time>
      </trkpt>
      <trkpt lat="46.49376" lon="4.85607">
        <ele>257.31</ele>
        <time>2018-10-21T10:24:55.000Z</time>
      </trkpt>
      <trkpt lat="46.49386" lon="4.85602">
        <ele>258.83</ele>
        <time>2018-10-21T10:25:00.000Z</time>
      </trkpt>
      <trkpt lat="46.49399" lon="4.85608">
        <ele>260.54</ele>
        <time>2018-10-21T10:25:05.000Z</time>
      </trkpt>
      <trkpt lat="46.4941" lon="4.85612">
        <ele>262.35</ele>
        <time>2018-10-21T10:25:10.000Z</time>
      </trkpt>
      <trkpt lat="46.49422" lon="4.85612">
        <ele>264.31</ele>
        <time>2018-10-21T10:25:15.000Z</time>
      </trkpt>
      <trkpt lat="46.49432" lon="4.85611">
        <ele>266.88</ele>
        <time>2018-10-21T10:25:20.000Z</time>
      </trkpt>
      <trkpt lat="46.49443" lon="4.85612">
        <ele>269.43</ele>
        <time>2018-10-21T10:25:25.000Z</time>
      </trkpt>
      <trkpt lat="46.49453" lon="4.85618">
        <ele>271.88</ele>
        <time>2018-10-21T10:25:30.000Z</time>
      </trkpt>
      <trkpt lat="46.49465" lon="4.85622">
        <ele>273.76</ele>
        <time>2018-10-21T10:25:35.000Z</time>
      </trkpt>
      <trkpt lat="46.49471" lon="4.85635">
        <ele>275.97</ele>
        <time>2018-10-21T10:25:41.000Z</time>
      </trkpt>
      <trkpt lat="46.49475" lon="4.85647">
        <ele>277.21</ele>
        <time>2018-10-21T10:25:46.000Z</time>
      </trkpt>
      <trkpt lat="46.49478" lon="4.8566">
        <ele>277.67</ele>
        <time>2018-10-21T10:25:51.000Z</time>
      </trkpt>
      <trkpt lat="46.49482" lon="4.85677">
        <ele>277.77</ele>
        <time>2018-10-21T10:25:56.000Z</time>
      </trkpt>
      <trkpt lat="46.49487" lon="4.85697">
        <ele>277.77</ele>
        <time>2018-10-21T10:26:01.000Z</time>
      </trkpt>
      <trkpt lat="46.49493" lon="4.85721">
        <ele>277.8</ele>
        <time>2018-10-21T10:26:06.000Z</time>
      </trkpt>
      <trkpt lat="46.49498" lon="4.85755">
        <ele>276.81</ele>
        <time>2018-10-21T10:26:11.000Z</time>
      </trkpt>
      <trkpt lat="46.49502" lon="4.85787">
        <ele>276.41</ele>
        <time>2018-10-21T10:26:16.000Z</time>
      </trkpt>
      <trkpt lat="46.49507" lon="4.8582">
        <ele>275.74</ele>
        <time>2018-10-21T10:26:21.000Z</time>
      </trkpt>
      <trkpt lat="46.49511" lon="4.85857">
        <ele>274.74</ele>
        <time>2018-10-21T10:26:26.000Z</time>
      </trkpt>
      <trkpt lat="46.49513" lon="4.85888">
        <ele>273.84</ele>
        <time>2018-10-21T10:26:31.000Z</time>
      </trkpt>
      <trkpt lat="46.49517" lon="4.85918">
        <ele>272.85</ele>
        <time>2018-10-21T10:26:36.000Z</time>
      </trkpt>
      <trkpt lat="46.49518" lon="4.8594">
        <ele>272.01</ele>
        <time>2018-10-21T10:26:41.000Z</time>
      </trkpt>
      <trkpt lat="46.49516" lon="4.85964">
        <ele>271.51</ele>
        <time>2018-10-21T10:26:46.000Z</time>
      </trkpt>
      <trkpt lat="46.49512" lon="4.85991">
        <ele>271.28</ele>
        <time>2018-10-21T10:26:51.000Z</time>
      </trkpt>
      <trkpt lat="46.49519" lon="4.86009">
        <ele>269.17</ele>
        <time>2018-10-21T10:26:56.000Z</time>
      </trkpt>
      <trkpt lat="46.49524" lon="4.86023">
        <ele>267.28</ele>
        <time>2018-10-21T10:27:01.000Z</time>
      </trkpt>
      <trkpt lat="46.49526" lon="4.86046">
        <ele>266.69</ele>
        <time>2018-10-21T10:27:06.000Z</time>
      </trkpt>
      <trkpt lat="46.49535" lon="4.86069">
        <ele>266.13</ele>
        <time>2018-10-21T10:27:11.000Z</time>
      </trkpt>
      <trkpt lat="46.49539" lon="4.86085">
        <ele>266.61</ele>
        <time>2018-10-21T10:27:16.000Z</time>
      </trkpt>
      <trkpt lat="46.49543" lon="4.861">
        <ele>266.48</ele>
        <time>2018-10-21T10:27:21.000Z</time>
      </trkpt>
      <trkpt lat="46.49543" lon="4.86117">
        <ele>265.9</ele>
        <time>2018-10-21T10:27:26.000Z</time>
      </trkpt>
      <trkpt lat="46.49543" lon="4.86134">
        <ele>265.34</ele>
        <time>2018-10-21T10:27:31.000Z</time>
      </trkpt>
      <trkpt lat="46.49546" lon="4.86149">
        <ele>265.53</ele>
        <time>2018-10-21T10:27:36.000Z</time>
      </trkpt>
      <trkpt lat="46.49547" lon="4.86166">
        <ele>266.04</ele>
        <time>2018-10-21T10:27:41.000Z</time>
      </trkpt>
      <trkpt lat="46.49548" lon="4.86181">
        <ele>266.83</ele>
        <time>2018-10-21T10:27:46.000Z</time>
      </trkpt>
      <trkpt lat="46.49548" lon="4.86196">
        <ele>268.18</ele>
        <time>2018-10-21T10:27:51.000Z</time>
      </trkpt>
      <trkpt lat="46.49551" lon="4.8622">
        <ele>269.34</ele>
        <time>2018-10-21T10:27:56.000Z</time>
      </trkpt>
      <trkpt lat="46.49552" lon="4.8625">
        <ele>269.48</ele>
        <time>2018-10-21T10:28:01.000Z</time>
      </trkpt>
      <trkpt lat="46.49559" lon="4.86271">
        <ele>267.64</ele>
        <time>2018-10-21T10:28:06.000Z</time>
      </trkpt>
      <trkpt lat="46.49566" lon="4.86298">
        <ele>266.79</ele>
        <time>2018-10-21T10:28:11.000Z</time>
      </trkpt>
      <trkpt lat="46.4956" lon="4.86344">
        <ele>262.4</ele>
        <time>2018-10-21T10:28:16.000Z</time>
      </trkpt>
      <trkpt lat="46.49575" lon="4.86377">
        <ele>260.3</ele>
        <time>2018-10-21T10:28:21.000Z</time>
      </trkpt>
      <trkpt lat="46.49591" lon="4.86412">
        <ele>258.91</ele>
        <time>2018-10-21T10:28:26.000Z</time>
      </trkpt>
      <trkpt lat="46.496" lon="4.8644">
        <ele>257.72</ele>
        <time>2018-10-21T10:28:31.000Z</time>
      </trkpt>
      <trkpt lat="46.49613" lon="4.86477">
        <ele>246.27</ele>
        <time>2018-10-21T10:28:36.000Z</time>
      </trkpt>
      <trkpt lat="46.4963" lon="4.86506">
        <ele>242.87</ele>
        <time>2018-10-21T10:28:41.000Z</time>
      </trkpt>
      <trkpt lat="46.49649" lon="4.86533">
        <ele>241.21</ele>
        <time>2018-10-21T10:28:46.000Z</time>
      </trkpt>
      <trkpt lat="46.49664" lon="4.86567">
        <ele>238.32</ele>
        <time>2018-10-21T10:28:51.000Z</time>
      </trkpt>
      <trkpt lat="46.49674" lon="4.86603">
        <ele>235.55</ele>
        <time>2018-10-21T10:28:56.000Z</time>
      </trkpt>
      <trkpt lat="46.4968" lon="4.86641">
        <ele>232.15</ele>
        <time>2018-10-21T10:29:01.000Z</time>
      </trkpt>
      <trkpt lat="46.49686" lon="4.86679">
        <ele>228.6</ele>
        <time>2018-10-21T10:29:06.000Z</time>
      </trkpt>
      <trkpt lat="46.49695" lon="4.8672">
        <ele>224.97</ele>
        <time>2018-10-21T10:29:11.000Z</time>
      </trkpt>
      <trkpt lat="46.49706" lon="4.86757">
        <ele>221.51</ele>
        <time>2018-10-21T10:29:16.000Z</time>
      </trkpt>
      <trkpt lat="46.49728" lon="4.86783">
        <ele>217.98</ele>
        <time>2018-10-21T10:29:21.000Z</time>
      </trkpt>
      <trkpt lat="46.49751" lon="4.86807">
        <ele>214.23</ele>
        <time>2018-10-21T10:29:26.000Z</time>
      </trkpt>
      <trkpt lat="46.49769" lon="4.86833">
        <ele>210.41</ele>
        <time>2018-10-21T10:29:31.000Z</time>
      </trkpt>
      <trkpt lat="46.49783" lon="4.86854">
        <ele>207.48</ele>
        <time>2018-10-21T10:29:36.000Z</time>
      </trkpt>
      <trkpt lat="46.49797" lon="4.86876">
        <ele>205.05</ele>
        <time>2018-10-21T10:29:41.000Z</time>
      </trkpt>
      <trkpt lat="46.49814" lon="4.86896">
        <ele>202.82</ele>
        <time>2018-10-21T10:29:46.000Z</time>
      </trkpt>
      <trkpt lat="46.49832" lon="4.86907">
        <ele>200.49</ele>
        <time>2018-10-21T10:29:51.000Z</time>
      </trkpt>
      <trkpt lat="46.4985" lon="4.86915">
        <ele>198.98</ele>
        <time>2018-10-21T10:29:56.000Z</time>
      </trkpt>
      <trkpt lat="46.49866" lon="4.86919">
        <ele>198.22</ele>
        <time>2018-10-21T10:30:01.000Z</time>
      </trkpt>
      <trkpt lat="46.49881" lon="4.86921">
        <ele>197.82</ele>
        <time>2018-10-21T10:30:06.000Z</time>
      </trkpt>
      <trkpt lat="46.49895" lon="4.86919">
        <ele>197.41</ele>
        <time>2018-10-21T10:30:11.000Z</time>
      </trkpt>
      <trkpt lat="46.49913" lon="4.86925">
        <ele>196.9</ele>
        <time>2018-10-21T10:30:16.000Z</time>
      </trkpt>
      <trkpt lat="46.49932" lon="4.86933">
        <ele>196.51</ele>
        <time>2018-10-21T10:30:21.000Z</time>
      </trkpt>
      <trkpt lat="46.49946" lon="4.86925">
        <ele>196.11</ele>
        <time>2018-10-21T10:30:26.000Z</time>
      </trkpt>
      <trkpt lat="46.49957" lon="4.86908">
        <ele>195.52</ele>
        <time>2018-10-21T10:30:31.000Z</time>
      </trkpt>
      <trkpt lat="46.49968" lon="4.86888">
        <ele>195.02</ele>
        <time>2018-10-21T10:30:36.000Z</time>
      </trkpt>
      <trkpt lat="46.49976" lon="4.86873">
        <ele>194.52</ele>
        <time>2018-10-21T10:30:41.000Z</time>
      </trkpt>
      <trkpt lat="46.49985" lon="4.86861">
        <ele>194.19</ele>
        <time>2018-10-21T10:30:46.000Z</time>
      </trkpt>
      <trkpt lat="46.49994" lon="4.86849">
        <ele>194.01</ele>
        <time>2018-10-21T10:30:51.000Z</time>
      </trkpt>
      <trkpt lat="46.50003" lon="4.86836">
        <ele>193.89</ele>
        <time>2018-10-21T10:30:56.000Z</time>
      </trkpt>
      <trkpt lat="46.50011" lon="4.86824">
        <ele>193.69</ele>
        <time>2018-10-21T10:31:01.000Z</time>
      </trkpt>
      <trkpt lat="46.50018" lon="4.86813">
        <ele>193.69</ele>
        <time>2018-10-21T10:31:06.000Z</time>
      </trkpt>
      <trkpt lat="46.50024" lon="4.868">
        <ele>193.85</ele>
        <time>2018-10-21T10:31:12.000Z</time>
      </trkpt>
      <trkpt lat="46.50031" lon="4.86789">
        <ele>194.6</ele>
        <time>2018-10-21T10:31:18.000Z</time>
      </trkpt>
      <trkpt lat="46.50038" lon="4.8678">
        <ele>195.2</ele>
        <time>2018-10-21T10:31:24.000Z</time>
      </trkpt>
      <trkpt lat="46.50045" lon="4.86771">
        <ele>196.22</ele>
        <time>2018-10-21T10:31:29.000Z</time>
      </trkpt>
      <trkpt lat="46.50053" lon="4.86764">
        <ele>197.05</ele>
        <time>2018-10-21T10:31:34.000Z</time>
      </trkpt>
      <trkpt lat="46.50061" lon="4.86759">
        <ele>197.65</ele>
        <time>2018-10-21T10:31:39.000Z</time>
      </trkpt>
      <trkpt lat="46.50071" lon="4.86758">
        <ele>198.32</ele>
        <time>2018-10-21T10:31:44.000Z</time>
      </trkpt>
      <trkpt lat="46.5008" lon="4.86757">
        <ele>199.32</ele>
        <time>2018-10-21T10:31:49.000Z</time>
      </trkpt>
      <trkpt lat="46.50091" lon="4.86756">
        <ele>200.22</ele>
        <time>2018-10-21T10:31:54.000Z</time>
      </trkpt>
      <trkpt lat="46.50103" lon="4.86755">
        <ele>200.87</ele>
        <time>2018-10-21T10:31:59.000Z</time>
      </trkpt>
      <trkpt lat="46.50115" lon="4.86749">
        <ele>201.53</ele>
        <time>2018-10-21T10:32:04.000Z</time>
      </trkpt>
      <trkpt lat="46.50128" lon="4.86745">
        <ele>202.25</ele>
        <time>2018-10-21T10:32:09.000Z</time>
      </trkpt>
      <trkpt lat="46.50142" lon="4.86742">
        <ele>203.12</ele>
        <time>2018-10-21T10:32:14.000Z</time>
      </trkpt>
      <trkpt lat="46.50155" lon="4.86738">
        <ele>204.19</ele>
        <time>2018-10-21T10:32:19.000Z</time>
      </trkpt>
      <trkpt lat="46.50169" lon="4.86733">
        <ele>205.42</ele>
        <time>2018-10-21T10:32:24.000Z</time>
      </trkpt>
      <trkpt lat="46.50182" lon="4.86729">
        <ele>206.32</ele>
        <time>2018-10-21T10:32:29.000Z</time>
      </trkpt>
      <trkpt lat="46.50196" lon="4.86725">
        <ele>207.12</ele>
        <time>2018-10-21T10:32:34.000Z</time>
      </trkpt>
      <trkpt lat="46.5021" lon="4.86718">
        <ele>208.12</ele>
        <time>2018-10-21T10:32:39.000Z</time>
      </trkpt>
      <trkpt lat="46.50223" lon="4.86714">
        <ele>209.02</ele>
        <time>2018-10-21T10:32:44.000Z</time>
      </trkpt>
      <trkpt lat="46.50238" lon="4.86712">
        <ele>210.16</ele>
        <time>2018-10-21T10:32:49.000Z</time>
      </trkpt>
      <trkpt lat="46.50257" lon="4.86713">
        <ele>211.9</ele>
        <time>2018-10-21T10:32:54.000Z</time>
      </trkpt>
      <trkpt lat="46.50284" lon="4.86705">
        <ele>213.34</ele>
        <time>2018-10-21T10:32:59.000Z</time>
      </trkpt>
      <trkpt lat="46.50313" lon="4.86689">
        <ele>214.95</ele>
        <time>2018-10-21T10:33:04.000Z</time>
      </trkpt>
      <trkpt lat="46.50341" lon="4.86674">
        <ele>214.72</ele>
        <time>2018-10-21T10:33:09.000Z</time>
      </trkpt>
      <trkpt lat="46.50366" lon="4.86664">
        <ele>213.95</ele>
        <time>2018-10-21T10:33:14.000Z</time>
      </trkpt>
      <trkpt lat="46.50387" lon="4.8666">
        <ele>212.75</ele>
        <time>2018-10-21T10:33:19.000Z</time>
      </trkpt>
      <trkpt lat="46.50413" lon="4.86644">
        <ele>211.68</ele>
        <time>2018-10-21T10:33:24.000Z</time>
      </trkpt>
      <trkpt lat="46.5044" lon="4.86618">
        <ele>210.27</ele>
        <time>2018-10-21T10:33:29.000Z</time>
      </trkpt>
      <trkpt lat="46.50463" lon="4.86601">
        <ele>209.43</ele>
        <time>2018-10-21T10:33:34.000Z</time>
      </trkpt>
      <trkpt lat="46.50482" lon="4.8659">
        <ele>208.56</ele>
        <time>2018-10-21T10:33:39.000Z</time>
      </trkpt>
      <trkpt lat="46.50495" lon="4.86581">
        <ele>207.46</ele>
        <time>2018-10-21T10:33:44.000Z</time>
      </trkpt>
      <trkpt lat="46.50507" lon="4.8657">
        <ele>206.66</ele>
        <time>2018-10-21T10:33:49.000Z</time>
      </trkpt>
      <trkpt lat="46.50519" lon="4.86561">
        <ele>205.36</ele>
        <time>2018-10-21T10:33:54.000Z</time>
      </trkpt>
      <trkpt lat="46.50529" lon="4.86552">
        <ele>204.19</ele>
        <time>2018-10-21T10:33:59.000Z</time>
      </trkpt>
      <trkpt lat="46.50539" lon="4.86537">
        <ele>202.81</ele>
        <time>2018-10-21T10:34:04.000Z</time>
      </trkpt>
      <trkpt lat="46.50548" lon="4.86517">
        <ele>200.9</ele>
        <time>2018-10-21T10:34:09.000Z</time>
      </trkpt>
      <trkpt lat="46.50559" lon="4.86513">
        <ele>198.01</ele>
        <time>2018-10-21T10:34:14.000Z</time>
      </trkpt>
      <trkpt lat="46.50572" lon="4.86503">
        <ele>195.69</ele>
        <time>2018-10-21T10:34:19.000Z</time>
      </trkpt>
      <trkpt lat="46.50582" lon="4.86494">
        <ele>194.37</ele>
        <time>2018-10-21T10:34:24.000Z</time>
      </trkpt>
      <trkpt lat="46.50583" lon="4.8648">
        <ele>187.92</ele>
        <time>2018-10-21T10:34:44.000Z</time>
      </trkpt>
      <trkpt lat="46.50604" lon="4.86461">
        <ele>185.53</ele>
        <time>2018-10-21T10:34:50.000Z</time>
      </trkpt>
      <trkpt lat="46.50629" lon="4.86455">
        <ele>184.02</ele>
        <time>2018-10-21T10:34:55.000Z</time>
      </trkpt>
      <trkpt lat="46.50644" lon="4.86448">
        <ele>182.64</ele>
        <time>2018-10-21T10:35:00.000Z</time>
      </trkpt>
      <trkpt lat="46.50654" lon="4.86448">
        <ele>181.88</ele>
        <time>2018-10-21T10:35:05.000Z</time>
      </trkpt>
      <trkpt lat="46.50675" lon="4.86454">
        <ele>181.97</ele>
        <time>2018-10-21T10:35:10.000Z</time>
      </trkpt>
      <trkpt lat="46.50696" lon="4.86459">
        <ele>182.54</ele>
        <time>2018-10-21T10:35:15.000Z</time>
      </trkpt>
      <trkpt lat="46.50718" lon="4.86457">
        <ele>183.18</ele>
        <time>2018-10-21T10:35:20.000Z</time>
      </trkpt>
      <trkpt lat="46.50745" lon="4.86475">
        <ele>183.21</ele>
        <time>2018-10-21T10:35:25.000Z</time>
      </trkpt>
      <trkpt lat="46.5076" lon="4.86469">
        <ele>183.84</ele>
        <time>2018-10-21T10:35:30.000Z</time>
      </trkpt>
      <trkpt lat="46.50753" lon="4.8648">
        <ele>180.29</ele>
        <time>2018-10-21T10:35:37.000Z</time>
      </trkpt>
      <trkpt lat="46.50745" lon="4.86492">
        <ele>180.18</ele>
        <time>2018-10-21T10:35:42.000Z</time>
      </trkpt>
      <trkpt lat="46.50738" lon="4.86502">
        <ele>180.65</ele>
        <time>2018-10-21T10:35:47.000Z</time>
      </trkpt>
      <trkpt lat="46.50732" lon="4.86521">
        <ele>181.25</ele>
        <time>2018-10-21T10:35:52.000Z</time>
      </trkpt>
      <trkpt lat="46.50737" lon="4.86537">
        <ele>181.26</ele>
        <time>2018-10-21T10:35:57.000Z</time>
      </trkpt>
      <trkpt lat="46.50748" lon="4.86557">
        <ele>181.1</ele>
        <time>2018-10-21T10:36:02.000Z</time>
      </trkpt>
      <trkpt lat="46.50759" lon="4.86576">
        <ele>179.72</ele>
        <time>2018-10-21T10:36:07.000Z</time>
      </trkpt>
      <trkpt lat="46.50769" lon="4.86589">
        <ele>179.29</ele>
        <time>2018-10-21T10:36:12.000Z</time>
      </trkpt>
      <trkpt lat="46.50771" lon="4.86603">
        <ele>179.56</ele>
        <time>2018-10-21T10:37:55.000Z</time>
      </trkpt>
      <trkpt lat="46.50764" lon="4.86611">
        <ele>179.89</ele>
        <time>2018-10-21T10:38:02.000Z</time>
      </trkpt>
      <trkpt lat="46.50773" lon="4.86613">
        <ele>180.19</ele>
        <time>2018-10-21T10:38:34.000Z</time>
      </trkpt>
      <trkpt lat="46.5078" lon="4.86604">
        <ele>180.19</ele>
        <time>2018-10-21T10:38:41.000Z</time>
      </trkpt>
      <trkpt lat="46.50789" lon="4.86608">
        <ele>180.19</ele>
        <time>2018-10-21T10:38:52.000Z</time>
      </trkpt>
      <trkpt lat="46.50798" lon="4.86612">
        <ele>180.29</ele>
        <time>2018-10-21T10:39:01.000Z</time>
      </trkpt>
      <trkpt lat="46.50808" lon="4.86609">
        <ele>180.52</ele>
        <time>2018-10-21T10:39:45.000Z</time>
      </trkpt>
    </trkseg>
  </trk>
</gpx>